
Distance (Route):
Temperature : -24.8°C
Humidity : 40.8%
Pressure : 335.7hPa| Receiver | Frames | First received | Last received |
|---|---|---|---|
| PU1XMG-16 | 761 | 2026-09-04 23:34:53 | 2026-09-05 01:18:02 |
| Receiver | Date | Latitude | Longitude | Direction | Speed | Altitude | Climb | Temperature | Humidity | Pressure | Voltage | Killtimer | Uptime | BKT | XDATA |
|---|---|---|---|---|---|---|---|---|---|---|---|---|---|---|---|
| PU1XMG-16 | 2026-09-05 01:18:02 | -22.72377 | -42.01846 | 82° | 148km/h | 8834m | -5.2m/s | -24.8°C | 40.8% | 335.7hPa | 0V | 00:00:00 | 00:00:00 | 00:00:00 | |
| PU1XMG-16 | 2026-09-05 01:17:57 | -22.72413 | -42.02085 | 82° | 148km/h | 8866m | -5.4m/s | -24.9°C | 40.8% | 334.2hPa | 0V | 00:00:00 | 00:00:00 | 00:00:00 | |
| PU1XMG-16 | 2026-09-05 01:17:18 | -22.72613 | -42.03644 | 84° | 146km/h | 9071m | -5.3m/s | -26.5°C | 43.2% | 324.9hPa | 0V | 00:00:00 | 00:00:00 | 00:00:00 | |
| PU1XMG-16 | 2026-09-05 01:17:02 | -22.72677 | -42.04271 | 85° | 142km/h | 9155m | -5.2m/s | -26.9°C | 38.5% | 321.2hPa | 0V | 00:00:00 | 00:00:00 | 00:00:00 | |
| PU1XMG-16 | 2026-09-05 01:16:50 | -22.72710 | -42.04695 | 87° | 141km/h | 9211m | -5.2m/s | -26.8°C | 36.4% | 318.7hPa | 0V | 00:00:00 | 00:00:00 | 00:00:00 | |
| PU1XMG-16 | 2026-09-05 01:16:42 | -22.72730 | -42.05002 | 87° | 141km/h | 9253m | -5.1m/s | -27.2°C | 37.7% | 316.8hPa | 0V | 07:59:00 | 00:00:00 | 00:00:00 | |
| PU1XMG-16 | 2026-09-05 01:16:36 | -22.72744 | -42.05229 | 88° | 135km/h | 9283m | -5.4m/s | -27.4°C | 38.5% | 315.5hPa | 0V | 07:59:00 | 00:00:00 | 00:00:00 | |
| PU1XMG-16 | 2026-09-05 01:16:28 | -22.72754 | -42.05527 | 90° | 137km/h | 9323m | -5.2m/s | -27.7°C | 38.2% | 313.8hPa | 0V | 07:59:00 | 00:00:00 | 00:00:00 | |
| PU1XMG-16 | 2026-09-05 01:16:22 | -22.72761 | -42.05752 | 89° | 137km/h | 9353m | -5.2m/s | -27.8°C | 33.1% | 312.4hPa | 0V | 07:59:00 | 00:00:00 | 00:00:00 | |
| PU1XMG-16 | 2026-09-05 01:16:10 | -22.72768 | -42.06193 | 89° | 135km/h | 9411m | -4.6m/s | -28.4°C | 34.3% | 309.9hPa | 0V | 07:59:00 | 00:00:00 | 00:00:00 | |
| PU1XMG-16 | 2026-09-05 01:16:04 | -22.72774 | -42.06415 | 90° | 133km/h | 9438m | -4.9m/s | -28.6°C | 35.0% | 308.7hPa | 0V | 07:59:00 | 00:00:00 | 00:00:00 | |
| PU1XMG-16 | 2026-09-05 01:16:00 | -22.72776 | -42.06599 | 91° | 135km/h | 9462m | -5.0m/s | -28.8°C | 35.1% | 307.7hPa | 0V | 07:59:00 | 00:00:00 | 00:00:00 | |
| PU1XMG-16 | 2026-09-05 01:15:52 | -22.72778 | -42.06852 | 91° | 131km/h | 9495m | -5.0m/s | -29.1°C | 35.7% | 306.3hPa | 0V | 00:00:00 | 00:00:00 | 00:00:00 | |
| PU1XMG-16 | 2026-09-05 01:15:46 | -22.72775 | -42.07103 | 92° | 131km/h | 9528m | -4.6m/s | -29.5°C | 36.4% | 304.9hPa | 0V | 00:00:00 | 00:00:00 | 00:00:00 | |
| PU1XMG-16 | 2026-09-05 01:15:39 | -22.72774 | -42.07316 | 92° | 128km/h | 9557m | -5.0m/s | -29.5°C | 38.1% | 303.7hPa | 0V | 00:00:00 | 00:00:00 | 00:00:00 | |
| PU1XMG-16 | 2026-09-05 01:15:33 | -22.72769 | -42.07524 | 93° | 128km/h | 9585m | -5.1m/s | -29.7°C | 39.8% | 302.5hPa | 0V | 00:00:00 | 00:00:00 | 00:00:00 | |
| PU1XMG-16 | 2026-09-05 01:15:26 | -22.72763 | -42.07799 | 92° | 126km/h | 9625m | -5.1m/s | -30.0°C | 37.1% | 300.8hPa | 0V | 00:00:00 | 00:00:00 | 00:00:00 | |
| PU1XMG-16 | 2026-09-05 01:13:23 | -22.73109 | -42.12301 | 80° | 135km/h | 10182m | -4.8m/s | -33.4°C | 3.9% | 278.1hPa | 0V | 08:02:00 | 00:00:00 | 00:00:00 | |
| PU1XMG-16 | 2026-09-05 01:13:16 | -22.73153 | -42.12554 | 80° | 133km/h | 10214m | -4.7m/s | -33.6°C | 3.9% | 276.9hPa | 0V | 08:02:00 | 00:00:00 | 00:00:00 | |
| PU1XMG-16 | 2026-09-05 01:12:55 | -22.73286 | -42.13313 | 81° | 135km/h | 10310m | -4.7m/s | -34.5°C | 4.1% | 273.1hPa | 0V | 08:02:00 | 00:00:00 | 00:00:00 | |
| PU1XMG-16 | 2026-09-05 01:12:49 | -22.73323 | -42.13531 | 81° | 135km/h | 10338m | -4.8m/s | -34.8°C | 4.1% | 272.1hPa | 0V | 08:02:00 | 00:00:00 | 00:00:00 | |
| PU1XMG-16 | 2026-09-05 01:12:43 | -22.73359 | -42.13748 | 81° | 135km/h | 10365m | -5.1m/s | -35.0°C | 4.3% | 271.0hPa | 0V | 08:02:00 | 00:00:00 | 00:00:00 | |
| PU1XMG-16 | 2026-09-05 01:12:38 | -22.73387 | -42.13929 | 82° | 133km/h | 10389m | -5.1m/s | -35.2°C | 4.3% | 270.0hPa | 0V | 08:02:00 | 00:00:00 | 00:00:00 | |
| PU1XMG-16 | 2026-09-05 01:12:33 | -22.73421 | -42.14147 | 82° | 135km/h | 10417m | -5.0m/s | -35.5°C | 4.4% | 268.9hPa | 0V | 08:02:00 | 00:00:00 | 00:00:00 | |
| PU1XMG-16 | 2026-09-05 01:12:27 | -22.73448 | -42.14330 | 82° | 135km/h | 10442m | -4.6m/s | -35.7°C | 4.6% | 268.0hPa | 0V | 08:03:00 | 00:00:00 | 00:00:00 | |
| PU1XMG-16 | 2026-09-05 01:12:21 | -22.73481 | -42.14549 | 82° | 135km/h | 10470m | -5.2m/s | -35.9°C | 4.8% | 266.9hPa | 0V | 08:03:00 | 00:00:00 | 00:00:00 | |
| PU1XMG-16 | 2026-09-05 01:12:16 | -22.73509 | -42.14732 | 82° | 137km/h | 10495m | -5.2m/s | -36.2°C | 4.8% | 266.0hPa | 0V | 08:03:00 | 00:00:00 | 00:00:00 | |
| PU1XMG-16 | 2026-09-05 01:12:09 | -22.73545 | -42.14989 | 82° | 137km/h | 10530m | -5.3m/s | -36.5°C | 5.0% | 264.7hPa | 0V | 08:03:00 | 00:00:00 | 00:00:00 | |
| PU1XMG-16 | 2026-09-05 01:12:04 | -22.73572 | -42.15174 | 82° | 135km/h | 10556m | -5.5m/s | -36.7°C | 5.1% | 263.7hPa | 0V | 08:03:00 | 00:00:00 | 00:00:00 | |
| PU1XMG-16 | 2026-09-05 01:11:59 | -22.73602 | -42.15394 | 84° | 137km/h | 10587m | -5.4m/s | -37.0°C | 5.4% | 262.6hPa | 0V | 08:03:00 | 00:00:00 | 00:00:00 | |
| PU1XMG-16 | 2026-09-05 01:11:53 | -22.73623 | -42.15616 | 85° | 135km/h | 10619m | -5.2m/s | -37.3°C | 6.3% | 261.3hPa | 0V | 08:03:00 | 00:00:00 | 00:00:00 | |
| PU1XMG-16 | 2026-09-05 01:11:47 | -22.73642 | -42.15832 | 86° | 131km/h | 10650m | -5.7m/s | -37.5°C | 8.2% | 260.2hPa | 0V | 08:03:00 | 00:00:00 | 00:00:00 | |
| PU1XMG-16 | 2026-09-05 01:11:41 | -22.73655 | -42.16011 | 85° | 131km/h | 10677m | -5.8m/s | -37.7°C | 9.2% | 259.1hPa | 0V | 08:03:00 | 00:00:00 | 00:00:00 | |
| PU1XMG-16 | 2026-09-05 01:11:30 | -22.73685 | -42.16399 | 88° | 130km/h | 10742m | -5.9m/s | -38.3°C | 9.6% | 256.7hPa | 0V | 08:04:00 | 00:00:00 | 00:00:00 | |
| PU1XMG-16 | 2026-09-05 01:11:25 | -22.73693 | -42.16575 | 87° | 128km/h | 10770m | -6.0m/s | -38.6°C | 9.9% | 255.7hPa | 0V | 08:04:00 | 00:00:00 | 00:00:00 | |
| PU1XMG-16 | 2026-09-05 01:11:19 | -22.73703 | -42.16785 | 88° | 128km/h | 10804m | -5.8m/s | -38.9°C | 10.2% | 254.4hPa | 0V | 08:04:00 | 00:00:00 | 00:00:00 | |
| PU1XMG-16 | 2026-09-05 01:11:14 | -22.73712 | -42.16957 | 89° | 124km/h | 10833m | -5.5m/s | -39.2°C | 10.4% | 253.4hPa | 0V | 08:04:00 | 00:00:00 | 00:00:00 | |
| PU1XMG-16 | 2026-09-05 01:11:08 | -22.73720 | -42.17164 | 89° | 128km/h | 10867m | -6.0m/s | -39.5°C | 10.7% | 252.1hPa | 0V | 08:04:00 | 00:00:00 | 00:00:00 | |
| PU1XMG-16 | 2026-09-05 01:10:57 | -22.73736 | -42.17575 | 88° | 126km/h | 10937m | -6.1m/s | -40.2°C | 11.1% | 249.6hPa | 0V | 08:04:00 | 00:00:00 | 00:00:00 | |
| PU1XMG-16 | 2026-09-05 01:10:51 | -22.73741 | -42.17747 | 89° | 126km/h | 10966m | -5.9m/s | -40.4°C | 11.4% | 248.5hPa | 0V | 08:04:00 | 00:00:00 | 00:00:00 | |
| PU1XMG-16 | 2026-09-05 01:10:46 | -22.73749 | -42.17952 | 88° | 124km/h | 11000m | -6.0m/s | -40.8°C | 11.8% | 247.3hPa | 0V | 08:05:00 | 00:00:00 | 00:00:00 | |
| PU1XMG-16 | 2026-09-05 01:10:40 | -22.73756 | -42.18120 | 89° | 122km/h | 11029m | -6.0m/s | -41.1°C | 12.1% | 246.2hPa | 0V | 08:05:00 | 00:00:00 | 00:00:00 | |
| PU1XMG-16 | 2026-09-05 01:10:35 | -22.73758 | -42.18289 | 91° | 124km/h | 11059m | -6.7m/s | -41.4°C | 12.4% | 245.1hPa | 0V | 08:05:00 | 00:00:00 | 00:00:00 | |
| PU1XMG-16 | 2026-09-05 01:10:30 | -22.73758 | -42.18460 | 91° | 122km/h | 11090m | -6.3m/s | -41.6°C | 12.7% | 244.1hPa | 0V | 08:05:00 | 00:00:00 | 00:00:00 | |
| PU1XMG-16 | 2026-09-05 01:10:24 | -22.73759 | -42.18661 | 91° | 122km/h | 11125m | -6.3m/s | -42.0°C | 12.7% | 242.8hPa | 0V | 08:05:00 | 00:00:00 | 00:00:00 | |
| PU1XMG-16 | 2026-09-05 01:10:18 | -22.73761 | -42.18860 | 90° | 122km/h | 11162m | -6.3m/s | -42.3°C | 13.0% | 241.5hPa | 0V | 08:05:00 | 00:00:00 | 00:00:00 | |
| PU1XMG-16 | 2026-09-05 01:10:13 | -22.73762 | -42.19027 | 91° | 120km/h | 11191m | -5.8m/s | -42.6°C | 13.2% | 240.5hPa | 0V | 08:05:00 | 00:00:00 | 00:00:00 | |
| PU1XMG-16 | 2026-09-05 01:10:07 | -22.73757 | -42.19225 | 93° | 119km/h | 11227m | -5.8m/s | -42.9°C | 12.6% | 239.2hPa | 0V | 08:05:00 | 00:00:00 | 00:00:00 | |
| PU1XMG-16 | 2026-09-05 01:10:02 | -22.73750 | -42.19386 | 94° | 117km/h | 11256m | -6.1m/s | -43.2°C | 12.1% | 238.1hPa | 0V | 08:05:00 | 00:00:00 | 00:00:00 | |
| PU1XMG-16 | 2026-09-05 01:09:57 | -22.73740 | -42.19548 | 95° | 120km/h | 11284m | -5.4m/s | -43.4°C | 11.4% | 237.1hPa | 0V | 00:00:00 | 00:00:00 | 00:00:00 | |
| PU1XMG-16 | 2026-09-05 01:09:51 | -22.73727 | -42.19747 | 95° | 120km/h | 11317m | -5.9m/s | -43.6°C | 10.5% | 236.0hPa | 0V | 00:00:00 | 00:00:00 | 00:00:00 | |
| PU1XMG-16 | 2026-09-05 01:09:46 | -22.73712 | -42.19909 | 96° | 120km/h | 11346m | -6.0m/s | -43.7°C | 10.0% | 235.0hPa | 0V | 00:00:00 | 00:00:00 | 00:00:00 | |
| PU1XMG-16 | 2026-09-05 01:09:41 | -22.73696 | -42.20074 | 96° | 120km/h | 11375m | -6.4m/s | -44.1°C | 10.0% | 234.0hPa | 0V | 00:00:00 | 00:00:00 | 00:00:00 | |
| PU1XMG-16 | 2026-09-05 01:09:36 | -22.73680 | -42.20239 | 99° | 120km/h | 11406m | -6.4m/s | -44.3°C | 9.7% | 232.9hPa | 0V | 00:00:00 | 00:00:00 | 00:00:00 | |
| PU1XMG-16 | 2026-09-05 01:09:31 | -22.73652 | -42.20436 | 100° | 124km/h | 11442m | -6.2m/s | -44.6°C | 9.0% | 231.6hPa | 0V | 00:00:00 | 00:00:00 | 00:00:00 | |
| PU1XMG-16 | 2026-09-05 01:09:25 | -22.73625 | -42.20601 | 101° | 122km/h | 11472m | -6.3m/s | -44.8°C | 8.0% | 230.7hPa | 0V | 00:00:00 | 00:00:00 | 00:00:00 | |
| PU1XMG-16 | 2026-09-05 01:09:18 | -22.73572 | -42.20864 | 104° | 126km/h | 11519m | -5.8m/s | -44.9°C | 6.6% | 229.0hPa | 0V | 00:00:00 | 00:00:00 | 00:00:00 | |
| PU1XMG-16 | 2026-09-05 01:08:09 | -22.73073 | -42.23110 | 102° | 130km/h | 11928m | -6.4m/s | -47.5°C | 6.3% | 215.4hPa | 0V | 08:07:00 | 00:00:00 | 00:00:00 | |
| PU1XMG-16 | 2026-09-05 01:08:03 | -22.73040 | -42.23320 | 100° | 130km/h | 11965m | -6.4m/s | -47.7°C | 6.5% | 214.2hPa | 0V | 08:07:00 | 00:00:00 | 00:00:00 | |
| PU1XMG-16 | 2026-09-05 01:07:58 | -22.73010 | -42.23530 | 100° | 128km/h | 12002m | -6.6m/s | -47.9°C | 6.5% | 213.1hPa | 0V | 08:07:00 | 00:00:00 | 00:00:00 | |
| PU1XMG-16 | 2026-09-05 01:07:47 | -22.72960 | -42.23915 | 98° | 130km/h | 12069m | -6.5m/s | -48.4°C | 6.9% | 210.9hPa | 0V | 08:07:00 | 00:00:00 | 00:00:00 | |
| PU1XMG-16 | 2026-09-05 01:07:40 | -22.72933 | -42.24127 | 99° | 131km/h | 12107m | -6.3m/s | -48.8°C | 7.3% | 209.7hPa | 0V | 08:07:00 | 00:00:00 | 00:00:00 | |
| PU1XMG-16 | 2026-09-05 01:07:32 | -22.72902 | -42.24408 | 98° | 128km/h | 12157m | -6.3m/s | -49.2°C | 7.9% | 208.2hPa | 0V | 08:07:00 | 00:00:00 | 00:00:00 | |
| PU1XMG-16 | 2026-09-05 01:07:27 | -22.72883 | -42.24582 | 98° | 128km/h | 12188m | -6.9m/s | -49.5°C | 8.2% | 207.1hPa | 0V | 08:07:00 | 00:00:00 | 00:00:00 | |
| PU1XMG-16 | 2026-09-05 01:07:21 | -22.72861 | -42.24793 | 96° | 130km/h | 12225m | -6.1m/s | -49.7°C | 8.3% | 206.0hPa | 0V | 00:00:00 | 00:00:00 | 00:00:00 | |
| PU1XMG-16 | 2026-09-05 01:07:15 | -22.72840 | -42.25040 | 97° | 130km/h | 12267m | -6.0m/s | -50.1°C | 8.3% | 204.7hPa | 0V | 00:00:00 | 00:00:00 | 00:00:00 | |
| PU1XMG-16 | 2026-09-05 01:07:08 | -22.72820 | -42.25249 | 96° | 130km/h | 12304m | -6.0m/s | -50.4°C | 8.4% | 203.5hPa | 0V | 00:00:00 | 00:00:00 | 00:00:00 | |
| PU1XMG-16 | 2026-09-05 01:06:56 | -22.72794 | -42.25672 | 94° | 128km/h | 12377m | -6.2m/s | -51.1°C | 8.4% | 201.3hPa | 0V | 00:00:00 | 00:00:00 | 00:00:00 | |
| PU1XMG-16 | 2026-09-05 01:06:40 | -22.72778 | -42.26230 | 92° | 126km/h | 12473m | -6.2m/s | -51.9°C | 8.9% | 198.3hPa | 0V | 00:00:00 | 00:00:00 | 00:00:00 | |
| PU1XMG-16 | 2026-09-05 01:06:30 | -22.72779 | -42.26577 | 90° | 128km/h | 12532m | -6.2m/s | -52.3°C | 10.1% | 196.6hPa | 0V | 00:00:00 | 00:00:00 | 00:00:00 | |
| PU1XMG-16 | 2026-09-05 01:06:07 | -22.72823 | -42.27364 | 85° | 124km/h | 12666m | -6.1m/s | -53.0°C | 7.9% | 192.5hPa | 0V | 00:00:00 | 00:00:00 | 00:00:00 | |
| PU1XMG-16 | 2026-09-05 01:05:58 | -22.72859 | -42.27703 | 85° | 124km/h | 12723m | -5.7m/s | -53.5°C | 8.2% | 190.8hPa | 0V | 00:00:00 | 00:00:00 | 00:00:00 | |
| PU1XMG-16 | 2026-09-05 01:05:39 | -22.72930 | -42.28345 | 84° | 124km/h | 12834m | -6.0m/s | -54.4°C | 8.9% | 187.5hPa | 0V | 00:00:00 | 00:00:00 | 00:00:00 | |
| PU1XMG-16 | 2026-09-05 01:04:08 | -22.73306 | -42.31405 | 81° | 122km/h | 13372m | -6.1m/s | -59.3°C | 13.6% | 172.3hPa | 0V | 00:00:00 | 00:00:00 | 00:00:00 | |
| PU1XMG-16 | 2026-09-05 01:04:00 | -22.73344 | -42.31636 | 80° | 122km/h | 13416m | -6.4m/s | -59.7°C | 13.6% | 171.1hPa | 0V | 08:12:00 | 00:00:00 | 00:00:00 | |
| PU1XMG-16 | 2026-09-05 01:03:54 | -22.73378 | -42.31834 | 80° | 124km/h | 13452m | -6.1m/s | -60.0°C | 13.6% | 170.1hPa | 0V | 08:12:00 | 00:00:00 | 00:00:00 | |
| PU1XMG-16 | 2026-09-05 01:03:49 | -22.73407 | -42.32001 | 80° | 124km/h | 13483m | -6.2m/s | -60.3°C | 13.6% | 169.3hPa | 0V | 08:12:00 | 00:00:00 | 00:00:00 | |
| PU1XMG-16 | 2026-09-05 01:03:44 | -22.73436 | -42.32167 | 80° | 124km/h | 13514m | -6.4m/s | -60.6°C | 13.7% | 168.5hPa | 0V | 08:12:00 | 00:00:00 | 00:00:00 | |
| PU1XMG-16 | 2026-09-05 01:03:38 | -22.73472 | -42.32366 | 80° | 124km/h | 13551m | -6.7m/s | -60.9°C | 13.5% | 167.5hPa | 0V | 08:12:00 | 00:00:00 | 00:00:00 | |
| PU1XMG-16 | 2026-09-05 01:03:31 | -22.73515 | -42.32599 | 79° | 124km/h | 13596m | -6.5m/s | -61.3°C | 13.3% | 166.3hPa | 0V | 08:12:00 | 00:00:00 | 00:00:00 | |
| PU1XMG-16 | 2026-09-05 01:03:25 | -22.73555 | -42.32798 | 79° | 122km/h | 13634m | -6.4m/s | -61.7°C | 13.0% | 165.3hPa | 0V | 08:12:00 | 00:00:00 | 00:00:00 | |
| PU1XMG-16 | 2026-09-05 01:03:20 | -22.73595 | -42.32996 | 78° | 124km/h | 13672m | -6.5m/s | -61.8°C | 12.6% | 164.3hPa | 0V | 08:12:00 | 00:00:00 | 00:00:00 | |
| PU1XMG-16 | 2026-09-05 01:03:14 | -22.73631 | -42.33162 | 77° | 124km/h | 13704m | -6.5m/s | -61.9°C | 12.1% | 163.5hPa | 0V | 08:12:00 | 00:00:00 | 00:00:00 | |
| PU1XMG-16 | 2026-09-05 01:03:08 | -22.73677 | -42.33359 | 75° | 122km/h | 13741m | -6.8m/s | -62.2°C | 11.8% | 162.5hPa | 0V | 08:13:00 | 00:00:00 | 00:00:00 | |
| PU1XMG-16 | 2026-09-05 01:03:04 | -22.73720 | -42.33520 | 75° | 122km/h | 13774m | -6.6m/s | -62.1°C | 11.4% | 161.6hPa | 0V | 08:13:00 | 00:00:00 | 00:00:00 | |
| PU1XMG-16 | 2026-09-05 01:02:57 | -22.73774 | -42.33713 | 73° | 124km/h | 13812m | -6.8m/s | -62.2°C | 10.9% | 160.6hPa | 0V | 08:13:00 | 00:00:00 | 00:00:00 | |
| PU1XMG-16 | 2026-09-05 01:02:51 | -22.73837 | -42.33907 | 70° | 124km/h | 13853m | -6.6m/s | -62.3°C | 10.4% | 159.6hPa | 0V | 08:13:00 | 00:00:00 | 00:00:00 | |
| PU1XMG-16 | 2026-09-05 01:02:45 | -22.73908 | -42.34092 | 67° | 120km/h | 13891m | -6.5m/s | -62.5°C | 10.0% | 158.6hPa | 0V | 08:13:00 | 00:00:00 | 00:00:00 | |
| PU1XMG-16 | 2026-09-05 01:02:40 | -22.73971 | -42.34245 | 67° | 124km/h | 13924m | -6.9m/s | -62.4°C | 9.7% | 157.7hPa | 0V | 08:13:00 | 00:00:00 | 00:00:00 | |
| PU1XMG-16 | 2026-09-05 01:02:33 | -22.74054 | -42.34460 | 68° | 120km/h | 13971m | -6.7m/s | -62.4°C | 9.3% | 156.5hPa | 0V | 08:13:00 | 00:00:00 | 00:00:00 | |
| PU1XMG-16 | 2026-09-05 01:02:26 | -22.74135 | -42.34667 | 68° | 117km/h | 14018m | -7.0m/s | -62.6°C | 9.2% | 155.3hPa | 0V | 08:13:00 | 00:00:00 | 00:00:00 | |
| PU1XMG-16 | 2026-09-05 01:02:21 | -22.74191 | -42.34814 | 69° | 115km/h | 14053m | -7.0m/s | -62.7°C | 9.1% | 154.4hPa | 0V | 08:13:00 | 00:00:00 | 00:00:00 | |
| PU1XMG-16 | 2026-09-05 01:02:10 | -22.74308 | -42.35136 | 71° | 117km/h | 14130m | -7.4m/s | -62.7°C | 8.7% | 152.5hPa | 0V | 08:13:00 | 00:00:00 | 00:00:00 | |
| PU1XMG-16 | 2026-09-05 01:02:05 | -22.74358 | -42.35284 | 70° | 113km/h | 14165m | -7.2m/s | -62.9°C | 8.7% | 151.6hPa | 0V | 08:13:00 | 00:00:00 | 00:00:00 | |
| PU1XMG-16 | 2026-09-05 01:02:00 | -22.74419 | -42.35454 | 70° | 110km/h | 14209m | -7.3m/s | -63.2°C | 8.8% | 150.6hPa | 0V | 08:13:00 | 00:00:00 | 00:00:00 | |
| PU1XMG-16 | 2026-09-05 01:01:54 | -22.74471 | -42.35596 | 69° | 111km/h | 14245m | -7.3m/s | -63.4°C | 8.8% | 149.7hPa | 0V | 08:13:00 | 00:00:00 | 00:00:00 | |
| PU1XMG-16 | 2026-09-05 01:01:49 | -22.74534 | -42.35766 | 69° | 111km/h | 14288m | -7.4m/s | -63.7°C | 8.9% | 148.7hPa | 0V | 08:13:00 | 00:00:00 | 00:00:00 | |
| PU1XMG-16 | 2026-09-05 01:01:43 | -22.74586 | -42.35908 | 70° | 111km/h | 14325m | -7.4m/s | -64.0°C | 8.8% | 147.8hPa | 0V | 08:13:00 | 00:00:00 | 00:00:00 | |
| PU1XMG-16 | 2026-09-05 01:01:38 | -22.74645 | -42.36079 | 71° | 111km/h | 14369m | -7.9m/s | -64.3°C | 8.9% | 146.7hPa | 0V | 08:13:00 | 00:00:00 | 00:00:00 | |
| PU1XMG-16 | 2026-09-05 01:01:30 | -22.74714 | -42.36280 | 72° | 111km/h | 14422m | -7.6m/s | -64.6°C | 8.9% | 145.5hPa | 0V | 08:13:00 | 00:00:00 | 00:00:00 | |
| PU1XMG-16 | 2026-09-05 01:01:27 | -22.74758 | -42.36424 | 73° | 113km/h | 14459m | -7.7m/s | -64.8°C | 9.0% | 144.6hPa | 0V | 08:14:00 | 00:00:00 | 00:00:00 | |
| PU1XMG-16 | 2026-09-05 01:01:19 | -22.74812 | -42.36600 | 74° | 111km/h | 14505m | -7.8m/s | -65.0°C | 9.0% | 143.5hPa | 0V | 08:14:00 | 00:00:00 | 00:00:00 | |
| PU1XMG-16 | 2026-09-05 01:01:14 | -22.74852 | -42.36744 | 74° | 111km/h | 14543m | -7.6m/s | -65.1°C | 8.9% | 142.6hPa | 0V | 08:14:00 | 00:00:00 | 00:00:00 | |
| PU1XMG-16 | 2026-09-05 01:01:08 | -22.74905 | -42.36919 | 72° | 111km/h | 14590m | -7.9m/s | -65.4°C | 9.1% | 141.6hPa | 0V | 08:14:00 | 00:00:00 | 00:00:00 | |
| PU1XMG-16 | 2026-09-05 01:01:03 | -22.74949 | -42.37063 | 74° | 110km/h | 14630m | -8.2m/s | -65.7°C | 9.3% | 140.7hPa | 0V | 08:14:00 | 00:00:00 | 00:00:00 | |
| PU1XMG-16 | 2026-09-05 01:00:58 | -22.74999 | -42.37233 | 72° | 108km/h | 14679m | -8.1m/s | -66.0°C | 9.7% | 139.6hPa | 0V | 08:14:00 | 00:00:00 | 00:00:00 | |
| PU1XMG-16 | 2026-09-05 01:00:51 | -22.75056 | -42.37400 | 71° | 110km/h | 14731m | -8.4m/s | -66.0°C | 10.1% | 138.6hPa | 0V | 08:14:00 | 00:00:00 | 00:00:00 | |
| PU1XMG-16 | 2026-09-05 01:00:47 | -22.75103 | -42.37534 | 72° | 100km/h | 14779m | -8.3m/s | -66.1°C | 10.2% | 137.6hPa | 0V | 08:14:00 | 00:00:00 | 00:00:00 | |
| PU1XMG-16 | 2026-09-05 01:00:40 | -22.75145 | -42.37691 | 75° | 100km/h | 14805m | -8.2m/s | -66.2°C | 10.4% | 136.6hPa | 0V | 08:14:00 | 00:00:00 | 00:00:00 | |
| PU1XMG-16 | 2026-09-05 01:00:34 | -22.75184 | -42.37843 | 76° | 93km/h | 14851m | -8.0m/s | -65.1°C | 9.4% | 135.5hPa | 0V | 00:00:00 | 00:00:00 | 00:00:00 | |
| PU1XMG-16 | 2026-09-05 01:00:28 | -22.75220 | -42.37991 | 77° | 91km/h | 14898m | -7.9m/s | -65.3°C | 9.6% | 134.5hPa | 0V | 00:00:00 | 00:00:00 | 00:00:00 | |
| PU1XMG-16 | 2026-09-05 01:00:23 | -22.75245 | -42.38114 | 80° | 91km/h | 14936m | -8.0m/s | -65.4°C | 9.7% | 133.7hPa | 0V | 00:00:00 | 00:00:00 | 00:00:00 | |
| PU1XMG-16 | 2026-09-05 01:00:18 | -22.75269 | -42.38259 | 82° | 89km/h | 14982m | -7.6m/s | -65.7°C | 10.1% | 132.7hPa | 0V | 00:00:00 | 00:00:00 | 00:00:00 | |
| PU1XMG-16 | 2026-09-05 01:00:12 | -22.75287 | -42.38380 | 83° | 89km/h | 15021m | -7.8m/s | -65.9°C | 10.4% | 131.8hPa | 0V | 00:00:00 | 00:00:00 | 00:00:00 | |
| PU1XMG-16 | 2026-09-05 01:00:06 | -22.75304 | -42.38527 | 84° | 91km/h | 15066m | -8.2m/s | -66.3°C | 10.7% | 130.8hPa | 0V | 00:00:00 | 00:00:00 | 00:00:00 | |
| PU1XMG-16 | 2026-09-05 00:59:59 | -22.75319 | -42.38698 | 87° | 89km/h | 15119m | -8.3m/s | -66.7°C | 11.0% | 129.7hPa | 0V | 00:00:00 | 00:00:00 | 00:00:00 | |
| PU1XMG-16 | 2026-09-05 00:59:54 | -22.75326 | -42.38821 | 89° | 91km/h | 15158m | -7.6m/s | -67.1°C | 11.4% | 128.9hPa | 0V | 00:00:00 | 00:00:00 | 00:00:00 | |
| PU1XMG-16 | 2026-09-05 00:59:48 | -22.75332 | -42.38974 | 89° | 95km/h | 15204m | -7.7m/s | -67.4°C | 11.7% | 127.9hPa | 0V | 00:00:00 | 00:00:00 | 00:00:00 | |
| PU1XMG-16 | 2026-09-05 00:59:40 | -22.75338 | -42.39188 | 89° | 99km/h | 15266m | -7.9m/s | -67.6°C | 11.7% | 126.6hPa | 0V | 00:00:00 | 00:00:00 | 00:00:00 | |
| PU1XMG-16 | 2026-09-05 00:59:31 | -22.75346 | -42.39434 | 89° | 102km/h | 15336m | -7.9m/s | -68.0°C | 11.9% | 125.2hPa | 0V | 00:00:00 | 00:00:00 | 00:00:00 | |
| PU1XMG-16 | 2026-09-05 00:59:19 | -22.75360 | -42.39771 | 90° | 102km/h | 15430m | -8.1m/s | -68.6°C | 12.2% | 123.2hPa | 0V | 00:00:00 | 00:00:00 | 00:00:00 | |
| PU1XMG-16 | 2026-09-05 00:59:11 | -22.75364 | -42.40029 | 90° | 106km/h | 15501m | -7.7m/s | -69.2°C | 12.7% | 121.8hPa | 0V | 00:00:00 | 00:00:00 | 00:00:00 | |
| PU1XMG-16 | 2026-09-05 00:59:05 | -22.75364 | -42.40173 | 91° | 106km/h | 15540m | -7.8m/s | -69.6°C | 12.8% | 121.0hPa | 0V | 00:00:00 | 00:00:00 | 00:00:00 | |
| PU1XMG-16 | 2026-09-05 00:58:59 | -22.75364 | -42.40377 | 91° | 108km/h | 15594m | -7.8m/s | -70.1°C | 13.2% | 119.9hPa | 0V | 00:00:00 | 00:00:00 | 00:00:00 | |
| PU1XMG-16 | 2026-09-05 00:58:47 | -22.75366 | -42.40696 | 90° | 106km/h | 15680m | -6.8m/s | -70.9°C | 13.7% | 118.2hPa | 0V | 00:00:00 | 00:00:00 | 00:00:00 | |
| PU1XMG-16 | 2026-09-05 00:58:42 | -22.75369 | -42.40869 | 90° | 106km/h | 15727m | -8.2m/s | -71.2°C | 13.8% | 117.2hPa | 0V | 00:00:00 | 00:00:00 | 00:00:00 | |
| PU1XMG-16 | 2026-09-05 00:58:36 | -22.75372 | -42.41042 | 90° | 106km/h | 15775m | -8.1m/s | -71.6°C | 13.9% | 116.3hPa | 0V | 00:00:00 | 00:00:00 | 00:00:00 | |
| PU1XMG-16 | 2026-09-05 00:58:31 | -22.75375 | -42.41186 | 90° | 104km/h | 15815m | -8.3m/s | -72.0°C | 14.0% | 115.5hPa | 0V | 00:00:00 | 00:00:00 | 00:00:00 | |
| PU1XMG-16 | 2026-09-05 00:58:24 | -22.75381 | -42.41384 | 89° | 104km/h | 15869m | -8.3m/s | -72.5°C | 14.2% | 114.4hPa | 0V | 00:00:00 | 00:00:00 | 00:00:00 | |
| PU1XMG-16 | 2026-09-05 00:58:13 | -22.75393 | -42.41670 | 89° | 104km/h | 15948m | -8.0m/s | -73.2°C | 14.2% | 112.9hPa | 0V | 00:00:00 | 00:00:00 | 00:00:00 | |
| PU1XMG-16 | 2026-09-05 00:58:06 | -22.75404 | -42.41867 | 86° | 104km/h | 16004m | -8.0m/s | -73.7°C | 14.1% | 111.8hPa | 0V | 00:00:00 | 00:00:00 | 00:00:00 | |
| PU1XMG-16 | 2026-09-05 00:57:52 | -22.75440 | -42.42260 | 83° | 102km/h | 16117m | -8.3m/s | -74.5°C | 13.9% | 109.7hPa | 0V | 08:18:00 | 00:00:00 | 00:00:00 | |
| PU1XMG-16 | 2026-09-05 00:57:41 | -22.75492 | -42.42565 | 79° | 102km/h | 16205m | -8.0m/s | -75.1°C | 13.7% | 108.1hPa | 0V | 08:18:00 | 00:00:00 | 00:00:00 | |
| PU1XMG-16 | 2026-09-05 00:57:34 | -22.75536 | -42.42758 | 75° | 106km/h | 16260m | -7.9m/s | -75.4°C | 13.6% | 107.0hPa | 0V | 08:18:00 | 00:00:00 | 00:00:00 | |
| PU1XMG-16 | 2026-09-05 00:57:28 | -22.75588 | -42.42950 | 75° | 100km/h | 16316m | -8.0m/s | -75.8°C | 13.9% | 106.0hPa | 0V | 08:18:00 | 00:00:00 | 00:00:00 | |
| PU1XMG-16 | 2026-09-05 00:57:21 | -22.75629 | -42.43105 | 76° | 95km/h | 16363m | -7.8m/s | -76.0°C | 13.5% | 105.1hPa | 0V | 08:18:00 | 00:00:00 | 00:00:00 | |
| PU1XMG-16 | 2026-09-05 00:57:16 | -22.75665 | -42.43251 | 77° | 91km/h | 16411m | -7.9m/s | -75.7°C | 12.5% | 104.3hPa | 0V | 08:18:00 | 00:00:00 | 00:00:00 | |
| PU1XMG-16 | 2026-09-05 00:57:10 | -22.75694 | -42.43392 | 80° | 88km/h | 16459m | -8.2m/s | -75.7°C | 12.1% | 103.4hPa | 0V | 00:00:00 | 00:00:00 | 00:00:00 | |
| PU1XMG-16 | 2026-09-05 00:57:04 | -22.75715 | -42.43509 | 79° | 86km/h | 16499m | -8.2m/s | -75.8°C | 12.4% | 102.7hPa | 0V | 00:00:00 | 00:00:00 | 00:00:00 | |
| PU1XMG-16 | 2026-09-05 00:56:58 | -22.75738 | -42.43646 | 84° | 82km/h | 16547m | -8.0m/s | -76.1°C | 12.5% | 101.9hPa | 0V | 00:00:00 | 00:00:00 | 00:00:00 | |
| PU1XMG-16 | 2026-09-05 00:56:52 | -22.75747 | -42.43777 | 88° | 80km/h | 16595m | -7.8m/s | -76.3°C | 12.1% | 101.0hPa | 0V | 00:00:00 | 00:00:00 | 00:00:00 | |
| PU1XMG-16 | 2026-09-05 00:56:48 | -22.75752 | -42.43883 | 89° | 78km/h | 16635m | -8.4m/s | -75.1°C | 10.8% | 100.3hPa | 0V | 00:00:00 | 00:00:00 | 00:00:00 | |
| PU1XMG-16 | 2026-09-05 00:56:41 | -22.75752 | -42.44010 | 92° | 78km/h | 16684m | -8.2m/s | -74.9°C | 10.1% | 99.5hPa | 0V | 00:00:00 | 00:00:00 | 00:00:00 | |
| PU1XMG-16 | 2026-09-05 00:56:35 | -22.75755 | -42.44143 | 87° | 82km/h | 16734m | -8.5m/s | -75.2°C | 10.0% | 98.6hPa | 0V | 00:00:00 | 00:00:00 | 00:00:00 | |
| PU1XMG-16 | 2026-09-05 00:56:29 | -22.75763 | -42.44295 | 90° | 82km/h | 16792m | -8.6m/s | -75.6°C | 10.2% | 97.7hPa | 0V | 00:00:00 | 00:00:00 | 00:00:00 | |
| PU1XMG-16 | 2026-09-05 00:56:21 | -22.75771 | -42.44481 | 87° | 88km/h | 16859m | -8.5m/s | -75.8°C | 10.1% | 96.5hPa | 0V | 00:00:00 | 00:00:00 | 00:00:00 | |
| PU1XMG-16 | 2026-09-05 00:56:13 | -22.75789 | -42.44671 | 84° | 93km/h | 16926m | -8.6m/s | -74.9°C | 9.1% | 95.4hPa | 0V | 00:00:00 | 00:00:00 | 00:00:00 | |
| PU1XMG-16 | 2026-09-05 00:56:05 | -22.75815 | -42.44845 | 79° | 91km/h | 16986m | -8.5m/s | -75.0°C | 8.8% | 94.5hPa | 0V | 00:00:00 | 00:00:00 | 00:00:00 | |
| PU1XMG-16 | 2026-09-05 00:56:00 | -22.75847 | -42.44986 | 77° | 88km/h | 17037m | -8.5m/s | -74.9°C | 8.5% | 93.7hPa | 0V | 00:00:00 | 00:00:00 | 00:00:00 | |
| PU1XMG-16 | 2026-09-05 00:55:44 | -22.75947 | -42.45312 | 68° | 78km/h | 17162m | -8.5m/s | -74.7°C | 8.5% | 91.6hPa | 0V | 00:00:00 | 00:00:00 | 00:00:00 | |
| PU1XMG-16 | 2026-09-05 00:55:22 | -22.76084 | -42.45617 | 79° | 37km/h | 17344m | -8.8m/s | -71.5°C | 6.2% | 88.8hPa | 0V | 08:20:00 | 00:00:00 | 00:00:00 | |
| PU1XMG-16 | 2026-09-05 00:55:17 | -22.76085 | -42.45673 | 90° | 31km/h | 17397m | -8.5m/s | -69.9°C | 5.2% | 88.1hPa | 0V | 08:20:00 | 00:00:00 | 00:00:00 | |
| PU1XMG-16 | 2026-09-05 00:55:11 | -22.76082 | -42.45720 | 94° | 29km/h | 17449m | -9.0m/s | -69.8°C | 5.1% | 87.3hPa | 0V | 08:20:00 | 00:00:00 | 00:00:00 | |
| PU1XMG-16 | 2026-09-05 00:55:05 | -22.76071 | -42.45767 | 113° | 31km/h | 17501m | -8.5m/s | -70.1°C | 5.1% | 86.6hPa | 0V | 08:20:00 | 00:00:00 | 00:00:00 | |
| PU1XMG-16 | 2026-09-05 00:54:55 | -22.76032 | -42.45836 | 128° | 38km/h | 17580m | -8.9m/s | -70.2°C | 4.9% | 85.4hPa | 0V | 08:20:00 | 00:00:00 | 00:00:00 | |
| PU1XMG-16 | 2026-09-05 00:54:49 | -22.75990 | -42.45885 | 134° | 42km/h | 17631m | -9.1m/s | -69.9°C | 4.6% | 84.7hPa | 0V | 08:20:00 | 00:00:00 | 00:00:00 | |
| PU1XMG-16 | 2026-09-05 00:54:44 | -22.75955 | -42.45926 | 133° | 42km/h | 17675m | -8.9m/s | -70.1°C | 4.5% | 84.1hPa | 0V | 08:20:00 | 00:00:00 | 00:00:00 | |
| PU1XMG-16 | 2026-09-05 00:54:38 | -22.75905 | -42.45984 | 136° | 40km/h | 17736m | -9.1m/s | -70.4°C | 4.4% | 83.2hPa | 0V | 00:00:00 | 00:00:00 | 00:00:00 | |
| PU1XMG-16 | 2026-09-05 00:54:29 | -22.75849 | -42.46047 | 130° | 42km/h | 17805m | -9.1m/s | -70.8°C | 4.5% | 82.2hPa | 0V | 00:00:00 | 00:00:00 | 00:00:00 | |
| PU1XMG-16 | 2026-09-05 00:54:24 | -22.75810 | -42.46095 | 132° | 51km/h | 17850m | -8.8m/s | -71.1°C | 4.6% | 81.6hPa | 0V | 00:00:00 | 00:00:00 | 00:00:00 | |
| PU1XMG-16 | 2026-09-05 00:54:19 | -22.75761 | -42.46158 | 127° | 51km/h | 17902m | -8.9m/s | -70.8°C | 4.5% | 80.9hPa | 0V | 00:00:00 | 00:00:00 | 00:00:00 | |
| PU1XMG-16 | 2026-09-05 00:54:12 | -22.75720 | -42.46227 | 121° | 55km/h | 17955m | -9.1m/s | -70.1°C | 4.1% | 80.2hPa | 0V | 00:00:00 | 00:00:00 | 00:00:00 | |
| PU1XMG-16 | 2026-09-05 00:54:07 | -22.75687 | -42.46293 | 115° | 55km/h | 18001m | -9.2m/s | -70.0°C | 4.0% | 79.5hPa | 0V | 00:00:00 | 00:00:00 | 00:00:00 | |
| PU1XMG-16 | 2026-09-05 00:54:00 | -22.75659 | -42.46385 | 109° | 46km/h | 18065m | -9.5m/s | -69.3°C | 3.7% | 78.7hPa | 0V | 00:00:00 | 00:00:00 | 00:00:00 | |
| PU1XMG-16 | 2026-09-05 00:53:53 | -22.75627 | -42.46474 | 111° | 53km/h | 18128m | -9.4m/s | -69.0°C | 3.7% | 77.9hPa | 0V | 00:00:00 | 00:00:00 | 00:00:00 | |
| PU1XMG-16 | 2026-09-05 00:53:47 | -22.75606 | -42.46550 | 103° | 46km/h | 18183m | -9.4m/s | -69.0°C | 3.6% | 77.2hPa | 0V | 00:00:00 | 00:00:00 | 00:00:00 | |
| PU1XMG-16 | 2026-09-05 00:53:40 | -22.75592 | -42.46637 | 100° | 49km/h | 18248m | -9.6m/s | -68.2°C | 3.3% | 76.3hPa | 0V | 00:00:00 | 00:00:00 | 00:00:00 | |
| PU1XMG-16 | 2026-09-05 00:53:32 | -22.75569 | -42.46768 | 103° | 57km/h | 18335m | -9.5m/s | -67.8°C | 3.3% | 75.3hPa | 0V | 00:00:00 | 00:00:00 | 00:00:00 | |
| PU1XMG-16 | 2026-09-05 00:51:00 | -22.75195 | -42.48196 | 102° | 35km/h | 19800m | -10.6m/s | -62.1°C | 2.0% | 59.3hPa | 0V | 00:00:00 | 00:00:00 | 00:00:00 | |
| PU1XMG-16 | 2026-09-05 00:50:35 | -22.75234 | -42.48365 | 61° | 15km/h | 20046m | -10.4m/s | -60.8°C | 1.8% | 57.0hPa | 0V | 00:00:00 | 00:00:00 | 00:00:00 | |
| PU1XMG-16 | 2026-09-05 00:50:23 | -22.75256 | -42.48402 | 46° | 15km/h | 20170m | -10.6m/s | -61.4°C | 1.9% | 55.9hPa | 0V | 08:25:00 | 00:00:00 | 00:00:00 | |
| PU1XMG-16 | 2026-09-05 00:50:07 | -22.75288 | -42.48446 | 77° | 13km/h | 20339m | -10.7m/s | -60.9°C | 1.9% | 54.4hPa | 0V | 08:25:00 | 00:00:00 | 00:00:00 | |
| PU1XMG-16 | 2026-09-05 00:50:00 | -22.75288 | -42.48465 | 118° | 5km/h | 20413m | -10.4m/s | -59.9°C | 1.8% | 53.8hPa | 0V | 08:25:00 | 00:00:00 | 00:00:00 | |
| PU1XMG-16 | 2026-09-05 00:49:49 | -22.75273 | -42.48475 | 149° | 7km/h | 20529m | -10.9m/s | -60.0°C | 1.7% | 52.8hPa | 0V | 08:25:00 | 00:00:00 | 00:00:00 | |
| PU1XMG-16 | 2026-09-05 00:49:43 | -22.75264 | -42.48479 | 169° | 7km/h | 20591m | -10.6m/s | -60.4°C | 1.8% | 52.3hPa | 0V | 08:25:00 | 00:00:00 | 00:00:00 | |
| PU1XMG-16 | 2026-09-05 00:49:35 | -22.75241 | -42.48474 | 195° | 15km/h | 20674m | -10.8m/s | -60.9°C | 1.8% | 51.6hPa | 0V | 08:25:00 | 00:00:00 | 00:00:00 | |
| PU1XMG-16 | 2026-09-05 00:49:26 | -22.75208 | -42.48472 | 164° | 13km/h | 20771m | -10.4m/s | -61.2°C | 1.9% | 50.8hPa | 0V | 00:00:00 | 00:00:00 | 00:00:00 | |
| PU1XMG-16 | 2026-09-05 00:49:15 | -22.75185 | -42.48479 | 198° | 5km/h | 20889m | -10.8m/s | -60.2°C | 1.7% | 49.8hPa | 0V | 00:00:00 | 00:00:00 | 00:00:00 | |
| PU1XMG-16 | 2026-09-05 00:49:08 | -22.75182 | -42.48480 | 41° | 2km/h | 20965m | -10.5m/s | -60.5°C | 1.7% | 49.2hPa | 0V | 00:00:00 | 00:00:00 | 00:00:00 | |
| PU1XMG-16 | 2026-09-05 00:48:59 | -22.75194 | -42.48477 | 302° | 11km/h | 21062m | -11.0m/s | -60.8°C | 1.8% | 48.5hPa | 0V | 00:00:00 | 00:00:00 | 00:00:00 | |
| PU1XMG-16 | 2026-09-05 00:48:47 | -22.75192 | -42.48452 | 223° | 7km/h | 21192m | -11.3m/s | -60.7°C | 1.7% | 47.4hPa | 0V | 00:00:00 | 00:00:00 | 00:00:00 | |
| PU1XMG-16 | 2026-09-05 00:48:40 | -22.75176 | -42.48443 | 193° | 11km/h | 21281m | -11.2m/s | -61.0°C | 1.8% | 46.8hPa | 0V | 00:00:00 | 00:00:00 | 00:00:00 | |
| PU1XMG-16 | 2026-09-05 00:47:57 | -22.75096 | -42.48562 | 70° | 20km/h | 21762m | -11.3m/s | -60.3°C | 1.8% | 43.3hPa | 0V | 00:00:00 | 00:00:00 | 00:00:00 | |
| PU1XMG-16 | 2026-09-05 00:47:13 | -22.75208 | -42.48562 | 290° | 13km/h | 22274m | -12.5m/s | -59.4°C | 1.6% | 39.9hPa | 0V | 00:00:00 | 00:00:00 | 00:00:00 | |
| PU1XMG-16 | 2026-09-05 00:47:08 | -22.75218 | -42.48548 | 321° | 5km/h | 22348m | -12.5m/s | -59.6°C | 1.7% | 39.5hPa | 0V | 00:00:00 | 00:00:00 | 00:00:00 | |
| PU1XMG-16 | 2026-09-05 00:46:53 | -22.75212 | -42.48525 | 253° | 4km/h | 22530m | -12.6m/s | -59.6°C | 1.7% | 38.3hPa | 0V | 08:29:00 | 00:00:00 | 00:00:00 | |
| PU1XMG-16 | 2026-09-05 00:46:30 | -22.75228 | -42.48546 | 26° | 15km/h | 22809m | -13.3m/s | -58.3°C | 1.5% | 36.6hPa | 0V | 08:29:00 | 00:00:00 | 00:00:00 | |
| PU1XMG-16 | 2026-09-05 00:46:23 | -22.75255 | -42.48549 | 359° | 13km/h | 22901m | -13.3m/s | -58.3°C | 1.5% | 36.1hPa | 0V | 08:29:00 | 00:00:00 | 00:00:00 | |
| PU1XMG-16 | 2026-09-05 00:46:17 | -22.75267 | -42.48541 | 301° | 7km/h | 22980m | -13.5m/s | -58.3°C | 1.5% | 35.7hPa | 0V | 08:29:00 | 00:00:00 | 00:00:00 | |
| PU1XMG-16 | 2026-09-05 00:46:12 | -22.75270 | -42.48529 | 270° | 11km/h | 23060m | -14.1m/s | -58.5°C | 1.6% | 35.2hPa | 0V | 08:29:00 | 00:00:00 | 00:00:00 | |
| PU1XMG-16 | 2026-09-05 00:46:06 | -22.75262 | -42.48510 | 241° | 16km/h | 23127m | -14.3m/s | -58.6°C | 1.6% | 34.8hPa | 0V | 00:00:00 | 00:00:00 | 00:00:00 | |
| PU1XMG-16 | 2026-09-05 00:45:59 | -22.75247 | -42.48492 | 202° | 5km/h | 23222m | -14.0m/s | -59.0°C | 1.7% | 34.3hPa | 0V | 00:00:00 | 00:00:00 | 00:00:00 | |
| PU1XMG-16 | 2026-09-05 00:45:49 | -22.75257 | -42.48484 | 361° | 13km/h | 23379m | -14.9m/s | -57.3°C | 1.5% | 33.5hPa | 0V | 00:00:00 | 00:00:00 | 00:00:00 | |
| PU1XMG-16 | 2026-09-05 00:45:42 | -22.75264 | -42.48483 | 157° | 7km/h | 23468m | -15.0m/s | -56.8°C | 1.5% | 33.0hPa | 0V | 00:00:00 | 00:00:00 | 00:00:00 | |
| PU1XMG-16 | 2026-09-05 00:45:37 | -22.75255 | -42.48484 | 157° | 4km/h | 23542m | -14.6m/s | -57.0°C | 1.6% | 32.6hPa | 0V | 00:00:00 | 00:00:00 | 00:00:00 | |
| PU1XMG-16 | 2026-09-05 00:45:31 | -22.75261 | -42.48483 | 343° | 11km/h | 23632m | -15.1m/s | -56.0°C | 1.5% | 32.2hPa | 0V | 00:00:00 | 00:00:00 | 00:00:00 | |
| PU1XMG-16 | 2026-09-05 00:45:26 | -22.75273 | -42.48477 | 305° | 13km/h | 23702m | -14.0m/s | -56.0°C | 1.5% | 31.8hPa | 0V | 00:00:00 | 00:00:00 | 00:00:00 | |
| PU1XMG-16 | 2026-09-05 00:45:17 | -22.75283 | -42.48451 | 307° | 7km/h | 23923m | -24.0m/s | -54.8°C | 1.4% | 30.8hPa | 0V | 00:00:00 | 00:00:00 | 00:00:00 | |
| PU1XMG-16 | 2026-09-05 00:45:11 | -22.75294 | -42.48435 | 306° | 18km/h | 24052m | -20.2m/s | -54.6°C | 1.3% | 30.1hPa | 0V | 00:00:00 | 00:00:00 | 00:00:00 | |
| PU1XMG-16 | 2026-09-05 00:45:06 | -22.75303 | -42.48399 | 268° | 18km/h | 24167m | -20.6m/s | -54.1°C | 1.3% | 29.6hPa | 0V | 00:00:00 | 00:00:00 | 00:00:00 | |
| PU1XMG-16 | 2026-09-05 00:45:00 | -22.75307 | -42.48381 | 349° | 15km/h | 24251m | -15.5m/s | -54.2°C | 1.3% | 29.2hPa | 0V | 00:00:00 | 00:00:00 | 00:00:00 | |
| PU1XMG-16 | 2026-09-05 00:44:55 | -22.75336 | -42.48372 | 323° | 18km/h | 24350m | -10.5m/s | -54.1°C | 1.4% | 28.7hPa | 0V | 00:00:00 | 00:00:00 | 00:00:00 | |
| PU1XMG-16 | 2026-09-05 00:44:44 | -22.75354 | -42.48353 | 277° | 5km/h | 24301m | 10.4m/s | -54.4°C | 1.3% | 28.9hPa | 0V | 00:00:00 | 00:00:00 | 00:00:00 | |
| PU1XMG-16 | 2026-09-05 00:44:37 | -22.75364 | -42.48325 | 302° | 24km/h | 24255m | 5.4m/s | -54.2°C | 1.3% | 29.1hPa | 0V | 00:00:00 | 00:00:00 | 00:00:00 | |
| PU1XMG-16 | 2026-09-05 00:44:31 | -22.75379 | -42.48295 | 302° | 18km/h | 24215m | 10.6m/s | -54.2°C | 1.3% | 29.3hPa | 0V | 00:00:00 | 00:00:00 | 00:00:00 | |
| PU1XMG-16 | 2026-09-05 00:44:26 | -22.75390 | -42.48276 | 303° | 18km/h | 24182m | 8.8m/s | -54.3°C | 1.3% | 29.4hPa | 0V | 00:00:00 | 00:00:00 | 00:00:00 | |
| PU1XMG-16 | 2026-09-05 00:44:20 | -22.75405 | -42.48242 | 290° | 26km/h | 24142m | 6.4m/s | -54.5°C | 1.3% | 29.6hPa | 0V | 00:00:00 | 00:00:00 | 00:00:00 | |
| PU1XMG-16 | 2026-09-05 00:44:13 | -22.75418 | -42.48212 | 310° | 7km/h | 24096m | 9.5m/s | -54.9°C | 1.4% | 29.8hPa | 0V | 00:00:00 | 00:00:00 | 00:00:00 | |
| PU1XMG-16 | 2026-09-05 00:44:07 | -22.75423 | -42.48198 | 299° | 15km/h | 24056m | 5.1m/s | -54.8°C | 1.4% | 30.0hPa | 0V | 00:00:00 | 00:00:00 | 00:00:00 | |
| PU1XMG-16 | 2026-09-05 00:44:02 | -22.75431 | -42.48182 | 316° | 15km/h | 24022m | 6.9m/s | -54.8°C | 1.4% | 30.2hPa | 0V | 00:00:00 | 00:00:00 | 00:00:00 | |
| PU1XMG-16 | 2026-09-05 00:43:56 | -22.75441 | -42.48165 | 298° | 15km/h | 23983m | 4.1m/s | -55.1°C | 1.4% | 30.4hPa | 0V | 00:00:00 | 00:00:00 | 00:00:00 | |
| PU1XMG-16 | 2026-09-05 00:43:51 | -22.75448 | -42.48147 | 317° | 16km/h | 23948m | 4.5m/s | -55.3°C | 1.4% | 30.5hPa | 0V | 00:00:00 | 00:00:00 | 00:00:00 | |
| PU1XMG-16 | 2026-09-05 00:43:38 | -22.75463 | -42.48104 | 304° | 5km/h | 23855m | 8.2m/s | -55.7°C | 1.4% | 31.0hPa | 0V | 00:00:00 | 00:00:00 | 00:00:00 | |
| PU1XMG-16 | 2026-09-05 00:43:29 | -22.75473 | -42.48081 | 279° | 13km/h | 23800m | 9.5m/s | -55.8°C | 1.4% | 31.3hPa | 0V | 00:00:00 | 00:00:00 | 00:00:00 | |
| PU1XMG-16 | 2026-09-05 00:43:22 | -22.75486 | -42.48061 | 324° | 15km/h | 23755m | 3.9m/s | -56.2°C | 1.4% | 31.5hPa | 0V | 00:00:00 | 00:00:00 | 00:00:00 | |
| PU1XMG-16 | 2026-09-05 00:43:15 | -22.75507 | -42.48045 | 323° | 9km/h | 23707m | 4.6m/s | -56.4°C | 1.5% | 31.7hPa | 0V | 00:00:00 | 00:00:00 | 00:00:00 | |
| PU1XMG-16 | 2026-09-05 00:43:08 | -22.75514 | -42.48040 | 6° | 5km/h | 23659m | 10.0m/s | -56.5°C | 1.5% | 31.9hPa | 0V | 00:00:00 | 00:00:00 | 00:00:00 | |
| PU1XMG-16 | 2026-09-05 00:43:02 | -22.75517 | -42.48037 | 199° | 9km/h | 23618m | 4.7m/s | -57.3°C | 1.5% | 32.2hPa | 0V | 00:00:00 | 00:00:00 | 00:00:00 | |
| PU1XMG-16 | 2026-09-05 00:42:52 | -22.75500 | -42.48040 | 193° | 7km/h | 23548m | 5.9m/s | -57.1°C | 1.5% | 32.5hPa | 0V | 00:00:00 | 00:00:00 | 00:00:00 | |
| PU1XMG-16 | 2026-09-05 00:42:44 | -22.75500 | -42.48046 | 16° | 9km/h | 23494m | 3.8m/s | -57.3°C | 1.5% | 32.8hPa | 0V | 00:00:00 | 00:00:00 | 00:00:00 | |
| PU1XMG-16 | 2026-09-05 00:42:38 | -22.75510 | -42.48040 | 317° | 9km/h | 23453m | 8.1m/s | -57.5°C | 1.5% | 33.0hPa | 0V | 00:00:00 | 00:00:00 | 00:00:00 | |
| PU1XMG-16 | 2026-09-05 00:42:33 | -22.75519 | -42.48038 | 24° | 9km/h | 23419m | 7.5m/s | -57.6°C | 1.5% | 33.2hPa | 0V | 00:00:00 | 00:00:00 | 00:00:00 | |
| PU1XMG-16 | 2026-09-05 00:40:39 | -22.75571 | -42.47933 | 103° | 5km/h | 22689m | 7.3m/s | -59.0°C | 1.7% | 37.3hPa | 0V | 00:00:00 | 00:00:00 | 00:00:00 | |
| PU1XMG-16 | 2026-09-05 00:40:24 | -22.75561 | -42.47948 | 194° | 5km/h | 22596m | 7.6m/s | -59.5°C | 1.8% | 37.8hPa | 0V | 00:00:00 | 00:00:00 | 00:00:00 | |
| PU1XMG-16 | 2026-09-05 00:40:19 | -22.75566 | -42.47949 | 349° | 7km/h | 22561m | 6.2m/s | -59.8°C | 1.8% | 38.1hPa | 0V | 00:00:00 | 00:00:00 | 00:00:00 | |
| PU1XMG-16 | 2026-09-05 00:40:13 | -22.75562 | -42.47943 | 221° | 15km/h | 22527m | 6.0m/s | -59.6°C | 1.8% | 38.3hPa | 0V | 00:00:00 | 00:00:00 | 00:00:00 | |
| PU1XMG-16 | 2026-09-05 00:40:07 | -22.75550 | -42.47934 | 279° | 5km/h | 22498m | 6.5m/s | -59.8°C | 1.8% | 38.5hPa | 0V | 00:00:00 | 00:00:00 | 00:00:00 | |
| PU1XMG-16 | 2026-09-05 00:40:02 | -22.75552 | -42.47927 | 247° | 5km/h | 22469m | 6.8m/s | -59.7°C | 1.8% | 38.7hPa | 0V | 00:00:00 | 00:00:00 | 00:00:00 | |
| PU1XMG-16 | 2026-09-05 00:39:56 | -22.75545 | -42.47923 | 232° | 4km/h | 22431m | 9.6m/s | -59.8°C | 1.7% | 38.9hPa | 0V | 00:00:00 | 00:00:00 | 00:00:00 | |
| PU1XMG-16 | 2026-09-05 00:39:50 | -22.75554 | -42.47910 | 323° | 11km/h | 22387m | 7.4m/s | -59.9°C | 1.8% | 39.1hPa | 0V | 00:00:00 | 00:00:00 | 00:00:00 | |
| PU1XMG-16 | 2026-09-05 00:39:43 | -22.75556 | -42.47901 | 235° | 7km/h | 22349m | 4.9m/s | -59.8°C | 1.8% | 39.4hPa | 0V | 00:00:00 | 00:00:00 | 00:00:00 | |
| PU1XMG-16 | 2026-09-05 00:39:38 | -22.75562 | -42.47886 | 307° | 15km/h | 22318m | 6.0m/s | -59.6°C | 1.8% | 39.6hPa | 0V | 00:00:00 | 00:00:00 | 00:00:00 | |
| PU1XMG-16 | 2026-09-05 00:39:33 | -22.75572 | -42.47866 | 288° | 13km/h | 22288m | 6.9m/s | -59.5°C | 1.8% | 39.8hPa | 0V | 00:00:00 | 00:00:00 | 00:00:00 | |
| PU1XMG-16 | 2026-09-05 00:39:26 | -22.75576 | -42.47849 | 322° | 7km/h | 22247m | 5.0m/s | -59.7°C | 1.8% | 40.0hPa | 0V | 00:00:00 | 00:00:00 | 00:00:00 | |
| PU1XMG-16 | 2026-09-05 00:39:19 | -22.75593 | -42.47835 | 332° | 11km/h | 22204m | 5.9m/s | -59.4°C | 1.8% | 40.3hPa | 0V | 00:00:00 | 00:00:00 | 00:00:00 | |
| PU1XMG-16 | 2026-09-05 00:39:13 | -22.75607 | -42.47824 | 300° | 13km/h | 22164m | 5.9m/s | -59.3°C | 1.8% | 40.6hPa | 0V | 00:00:00 | 00:00:00 | 00:00:00 | |
| PU1XMG-16 | 2026-09-05 00:39:06 | -22.75616 | -42.47806 | 311° | 5km/h | 22120m | 4.4m/s | -59.1°C | 1.8% | 40.8hPa | 0V | 00:00:00 | 00:00:00 | 00:00:00 | |
| PU1XMG-16 | 2026-09-05 00:38:58 | -22.75626 | -42.47790 | 340° | 11km/h | 22071m | 7.1m/s | -59.0°C | 1.7% | 41.2hPa | 0V | 00:00:00 | 00:00:00 | 00:00:00 | |
| PU1XMG-16 | 2026-09-05 00:38:51 | -22.75641 | -42.47786 | 316° | 9km/h | 22022m | 7.0m/s | -59.0°C | 1.8% | 41.5hPa | 0V | 00:00:00 | 00:00:00 | 00:00:00 | |
| PU1XMG-16 | 2026-09-05 00:38:42 | -22.75666 | -42.47778 | 16° | 15km/h | 21974m | 7.2m/s | -59.1°C | 1.8% | 41.8hPa | 0V | 00:00:00 | 00:00:00 | 00:00:00 | |
| PU1XMG-16 | 2026-09-05 00:38:35 | -22.75686 | -42.47777 | 353° | 15km/h | 21933m | 5.3m/s | -59.7°C | 1.9% | 42.1hPa | 0V | 00:00:00 | 00:00:00 | 00:00:00 | |
| PU1XMG-16 | 2026-09-05 00:38:25 | -22.75723 | -42.47792 | 56° | 15km/h | 21871m | 5.8m/s | -59.7°C | 1.8% | 42.5hPa | 0V | 00:00:00 | 00:00:00 | 00:00:00 | |
| PU1XMG-16 | 2026-09-05 00:38:19 | -22.75731 | -42.47803 | 54° | 11km/h | 21834m | 7.5m/s | -60.0°C | 1.9% | 42.8hPa | 0V | 00:00:00 | 00:00:00 | 00:00:00 | |
| PU1XMG-16 | 2026-09-05 00:38:13 | -22.75747 | -42.47837 | 72° | 26km/h | 21797m | 3.9m/s | -60.3°C | 1.9% | 43.0hPa | 0V | 00:00:00 | 00:00:00 | 00:00:00 | |
| PU1XMG-16 | 2026-09-05 00:38:01 | -22.75745 | -42.47895 | 104° | 20km/h | 21725m | 7.9m/s | -60.5°C | 1.9% | 43.5hPa | 0V | 00:00:00 | 00:00:00 | 00:00:00 | |
| PU1XMG-16 | 2026-09-05 00:37:55 | -22.75747 | -42.47924 | 92° | 15km/h | 21689m | 5.2m/s | -60.4°C | 1.9% | 43.8hPa | 0V | 00:00:00 | 00:00:00 | 00:00:00 | |
| PU1XMG-16 | 2026-09-05 00:37:46 | -22.75728 | -42.47952 | 122° | 18km/h | 21634m | 8.3m/s | -60.4°C | 1.8% | 44.2hPa | 0V | 00:00:00 | 00:00:00 | 00:00:00 | |
| PU1XMG-16 | 2026-09-05 00:37:41 | -22.75722 | -42.47969 | 107° | 13km/h | 21604m | 7.6m/s | -60.7°C | 1.8% | 44.4hPa | 0V | 00:00:00 | 00:00:00 | 00:00:00 | |
| PU1XMG-16 | 2026-09-05 00:37:35 | -22.75706 | -42.47988 | 143° | 20km/h | 21567m | 4.0m/s | -61.2°C | 1.9% | 44.6hPa | 0V | 00:00:00 | 00:00:00 | 00:00:00 | |
| PU1XMG-16 | 2026-09-05 00:37:27 | -22.75681 | -42.47999 | 169° | 9km/h | 21517m | 5.9m/s | -61.7°C | 2.0% | 45.0hPa | 0V | 00:00:00 | 00:00:00 | 00:00:00 | |
| PU1XMG-16 | 2026-09-05 00:37:22 | -22.75669 | -42.48008 | 132° | 9km/h | 21488m | 4.7m/s | -61.8°C | 2.0% | 45.2hPa | 0V | 00:00:00 | 00:00:00 | 00:00:00 | |
| PU1XMG-16 | 2026-09-05 00:37:16 | -22.75656 | -42.48021 | 158° | 13km/h | 21451m | 7.6m/s | -61.7°C | 2.0% | 45.5hPa | 0V | 00:00:00 | 00:00:00 | 00:00:00 | |
| PU1XMG-16 | 2026-09-05 00:37:11 | -22.75642 | -42.48025 | 165° | 11km/h | 21420m | 6.6m/s | -61.6°C | 1.9% | 45.7hPa | 0V | 00:00:00 | 00:00:00 | 00:00:00 | |
| PU1XMG-16 | 2026-09-05 00:37:05 | -22.75623 | -42.48034 | 158° | 18km/h | 21380m | 5.1m/s | -61.5°C | 2.1% | 46.0hPa | 0V | 00:00:00 | 00:00:00 | 00:00:00 | |
| PU1XMG-16 | 2026-09-05 00:37:00 | -22.75603 | -42.48036 | 181° | 15km/h | 21348m | 3.9m/s | -61.3°C | 2.0% | 46.2hPa | 0V | 00:00:00 | 00:00:00 | 00:00:00 | |
| PU1XMG-16 | 2026-09-05 00:36:54 | -22.75590 | -42.48032 | 227° | 9km/h | 21310m | 9.5m/s | -61.1°C | 2.0% | 46.5hPa | 0V | 00:00:00 | 00:00:00 | 00:00:00 | |
| PU1XMG-16 | 2026-09-05 00:36:48 | -22.75569 | -42.48021 | 197° | 18km/h | 21263m | 7.4m/s | -60.9°C | 2.0% | 46.9hPa | 0V | 00:00:00 | 00:00:00 | 00:00:00 | |
| PU1XMG-16 | 2026-09-05 00:36:42 | -22.75553 | -42.48011 | 220° | 9km/h | 21228m | 4.0m/s | -60.7°C | 2.0% | 47.2hPa | 0V | 00:00:00 | 00:00:00 | 00:00:00 | |
| PU1XMG-16 | 2026-09-05 00:36:33 | -22.75549 | -42.47993 | 257° | 9km/h | 21176m | 5.8m/s | -60.4°C | 1.9% | 47.5hPa | 0V | 00:00:00 | 00:00:00 | 00:00:00 | |
| PU1XMG-16 | 2026-09-05 00:36:28 | -22.75544 | -42.47979 | 262° | 15km/h | 21142m | 5.6m/s | -60.3°C | 2.0% | 47.8hPa | 0V | 00:00:00 | 00:00:00 | 00:00:00 | |
| PU1XMG-16 | 2026-09-05 00:35:30 | -22.75568 | -42.47928 | 138° | 9km/h | 20787m | 5.5m/s | -60.9°C | 2.0% | 50.6hPa | 0V | 00:00:00 | 00:00:00 | 00:00:00 | |
| PU1XMG-16 | 2026-09-05 00:35:23 | -22.75554 | -42.47930 | 187° | 9km/h | 20752m | 6.1m/s | -61.0°C | 2.1% | 50.9hPa | 0V | 00:00:00 | 00:00:00 | 00:00:00 | |
| PU1XMG-16 | 2026-09-05 00:35:15 | -22.75533 | -42.47923 | 178° | 13km/h | 20702m | 7.2m/s | -60.7°C | 2.0% | 51.3hPa | 0V | 00:00:00 | 00:00:00 | 00:00:00 | |
| PU1XMG-16 | 2026-09-05 00:35:09 | -22.75514 | -42.47919 | 203° | 11km/h | 20666m | 5.1m/s | -60.7°C | 2.0% | 51.6hPa | 0V | 00:00:00 | 00:00:00 | 00:00:00 | |
| PU1XMG-16 | 2026-09-05 00:35:04 | -22.75499 | -42.47914 | 180° | 15km/h | 20633m | 5.5m/s | -60.6°C | 2.0% | 51.9hPa | 0V | 00:00:00 | 00:00:00 | 00:00:00 | |
| PU1XMG-16 | 2026-09-05 00:34:58 | -22.75480 | -42.47918 | 122° | 5km/h | 20586m | 3.9m/s | -60.3°C | 2.0% | 52.3hPa | 0V | 00:00:00 | 00:00:00 | 00:00:00 | |
| PU1XMG-16 | 2026-09-05 00:34:35 | -22.75475 | -42.47933 | 74° | 7km/h | 20451m | 5.8m/s | -59.5°C | 1.8% | 53.4hPa | 0V | 00:00:00 | 00:00:00 | 00:00:00 | |
| PU1XMG-16 | 2026-09-05 00:34:29 | -22.75466 | -42.47943 | 123° | 13km/h | 20414m | 5.1m/s | -59.8°C | 1.9% | 53.7hPa | 0V | 00:00:00 | 00:00:00 | 00:00:00 | |
| PU1XMG-16 | 2026-09-05 00:34:24 | -22.75466 | -42.47962 | 67° | 22km/h | 20380m | 4.4m/s | -60.6°C | 2.0% | 54.0hPa | 0V | 00:00:00 | 00:00:00 | 00:00:00 | |
| PU1XMG-16 | 2026-09-05 00:34:18 | -22.75480 | -42.47981 | 55° | 13km/h | 20343m | 6.8m/s | -60.5°C | 1.9% | 54.3hPa | 0V | 00:00:00 | 00:00:00 | 00:00:00 | |
| PU1XMG-16 | 2026-09-05 00:34:12 | -22.75486 | -42.48003 | 80° | 15km/h | 20303m | 7.8m/s | -61.1°C | 2.1% | 54.6hPa | 0V | 00:00:00 | 00:00:00 | 00:00:00 | |
| PU1XMG-16 | 2026-09-05 00:34:07 | -22.75497 | -42.48018 | 29° | 13km/h | 20271m | 6.9m/s | -61.0°C | 2.1% | 54.9hPa | 0V | 00:00:00 | 00:00:00 | 00:00:00 | |
| PU1XMG-16 | 2026-09-05 00:34:02 | -22.75511 | -42.48033 | 77° | 15km/h | 20234m | 4.4m/s | -60.8°C | 2.0% | 55.3hPa | 0V | 00:00:00 | 00:00:00 | 00:00:00 | |
| PU1XMG-16 | 2026-09-05 00:33:55 | -22.75520 | -42.48055 | 42° | 13km/h | 20196m | 6.4m/s | -61.1°C | 2.1% | 55.6hPa | 0V | 00:00:00 | 00:00:00 | 00:00:00 | |
| PU1XMG-16 | 2026-09-05 00:33:50 | -22.75537 | -42.48064 | 16° | 15km/h | 20164m | 2.8m/s | -61.4°C | 2.1% | 55.9hPa | 0V | 00:00:00 | 00:00:00 | 00:00:00 | |
| PU1XMG-16 | 2026-09-05 00:33:44 | -22.75548 | -42.48094 | 82° | 27km/h | 20134m | 4.4m/s | -61.2°C | 2.1% | 56.2hPa | 0V | 00:00:00 | 00:00:00 | 00:00:00 | |
| PU1XMG-16 | 2026-09-05 00:33:39 | -22.75556 | -42.48120 | 45° | 16km/h | 20107m | 5.0m/s | -61.0°C | 2.1% | 56.4hPa | 0V | 00:00:00 | 00:00:00 | 00:00:00 | |
| PU1XMG-16 | 2026-09-05 00:33:33 | -22.75572 | -42.48139 | 66° | 20km/h | 20073m | 7.0m/s | -60.8°C | 2.1% | 56.7hPa | 0V | 00:00:00 | 00:00:00 | 00:00:00 | |
| PU1XMG-16 | 2026-09-05 00:33:28 | -22.75583 | -42.48164 | 61° | 20km/h | 20044m | 6.5m/s | -60.8°C | 2.0% | 57.0hPa | 0V | 00:00:00 | 00:00:00 | 00:00:00 | |
| PU1XMG-16 | 2026-09-05 00:33:22 | -22.75601 | -42.48190 | 58° | 20km/h | 20009m | 5.6m/s | -60.9°C | 2.1% | 57.3hPa | 0V | 00:00:00 | 00:00:00 | 00:00:00 | |
| PU1XMG-16 | 2026-09-05 00:33:16 | -22.75612 | -42.48225 | 85° | 24km/h | 19977m | 4.9m/s | -60.8°C | 2.1% | 57.6hPa | 0V | 00:00:00 | 00:00:00 | 00:00:00 | |
| PU1XMG-16 | 2026-09-05 00:33:11 | -22.75622 | -42.48251 | 64° | 20km/h | 19948m | 4.0m/s | -61.2°C | 2.1% | 57.9hPa | 0V | 00:00:00 | 00:00:00 | 00:00:00 | |
| PU1XMG-16 | 2026-09-05 00:33:00 | -22.75644 | -42.48341 | 93° | 27km/h | 19886m | 6.3m/s | -61.1°C | 2.1% | 58.5hPa | 0V | 00:00:00 | 00:00:00 | 00:00:00 | |
| PU1XMG-16 | 2026-09-05 00:32:55 | -22.75643 | -42.48389 | 86° | 31km/h | 19853m | 4.6m/s | -61.3°C | 2.2% | 58.8hPa | 0V | 00:00:00 | 00:00:00 | 00:00:00 | |
| PU1XMG-16 | 2026-09-05 00:32:48 | -22.75638 | -42.48440 | 106° | 29km/h | 19819m | 4.6m/s | -61.6°C | 2.3% | 59.1hPa | 0V | 00:00:00 | 00:00:00 | 00:00:00 | |
| PU1XMG-16 | 2026-09-05 00:32:43 | -22.75624 | -42.48484 | 105° | 35km/h | 19792m | 3.8m/s | -61.7°C | 2.3% | 59.4hPa | 0V | 00:00:00 | 00:00:00 | 00:00:00 | |
| PU1XMG-16 | 2026-09-05 00:32:37 | -22.75611 | -42.48537 | 105° | 33km/h | 19760m | 6.5m/s | -61.9°C | 2.3% | 59.7hPa | 0V | 00:00:00 | 00:00:00 | 00:00:00 | |
| PU1XMG-16 | 2026-09-05 00:32:31 | -22.75597 | -42.48591 | 112° | 31km/h | 19727m | 5.2m/s | -61.6°C | 2.3% | 60.0hPa | 0V | 00:00:00 | 00:00:00 | 00:00:00 | |
| PU1XMG-16 | 2026-09-05 00:32:26 | -22.75583 | -42.48633 | 108° | 29km/h | 19691m | 6.8m/s | -61.3°C | 2.3% | 60.3hPa | 0V | 00:00:00 | 00:00:00 | 00:00:00 | |
| PU1XMG-16 | 2026-09-05 00:32:20 | -22.75574 | -42.48679 | 102° | 37km/h | 19664m | 5.5m/s | -61.2°C | 2.2% | 60.6hPa | 0V | 00:00:00 | 00:00:00 | 00:00:00 | |
| PU1XMG-16 | 2026-09-05 00:32:15 | -22.75565 | -42.48721 | 107° | 26km/h | 19636m | 7.6m/s | -61.7°C | 2.3% | 60.9hPa | 0V | 00:00:00 | 00:00:00 | 00:00:00 | |
| PU1XMG-16 | 2026-09-05 00:32:08 | -22.75555 | -42.48765 | 97° | 33km/h | 19596m | 6.2m/s | -61.8°C | 2.3% | 61.2hPa | 0V | 00:00:00 | 00:00:00 | 00:00:00 | |
| PU1XMG-16 | 2026-09-05 00:31:55 | -22.75547 | -42.48880 | 94° | 33km/h | 19528m | 4.6m/s | -61.7°C | 2.4% | 61.9hPa | 0V | 00:00:00 | 00:00:00 | 00:00:00 | |
| PU1XMG-16 | 2026-09-05 00:31:50 | -22.75543 | -42.48928 | 93° | 31km/h | 19497m | 4.2m/s | -61.8°C | 2.3% | 62.2hPa | 0V | 00:00:00 | 00:00:00 | 00:00:00 | |
| PU1XMG-16 | 2026-09-05 00:31:43 | -22.75540 | -42.48980 | 99° | 31km/h | 19458m | 4.9m/s | -62.1°C | 2.5% | 62.6hPa | 0V | 00:00:00 | 00:00:00 | 00:00:00 | |
| PU1XMG-16 | 2026-09-05 00:31:38 | -22.75534 | -42.49027 | 107° | 37km/h | 19430m | 3.8m/s | -62.2°C | 2.5% | 62.9hPa | 0V | 00:00:00 | 00:00:00 | 00:00:00 | |
| PU1XMG-16 | 2026-09-05 00:31:26 | -22.75488 | -42.49133 | 113° | 35km/h | 19365m | 5.0m/s | -61.9°C | 2.4% | 63.6hPa | 0V | 00:00:00 | 00:00:00 | 00:00:00 | |
| PU1XMG-16 | 2026-09-05 00:31:19 | -22.75463 | -42.49190 | 134° | 37km/h | 19324m | 4.4m/s | -62.5°C | 2.6% | 64.0hPa | 0V | 00:00:00 | 00:00:00 | 00:00:00 | |
| PU1XMG-16 | 2026-09-05 00:31:14 | -22.75430 | -42.49228 | 126° | 42km/h | 19297m | 4.2m/s | -63.1°C | 2.8% | 64.3hPa | 0V | 00:00:00 | 00:00:00 | 00:00:00 | |
| PU1XMG-16 | 2026-09-05 00:31:08 | -22.75403 | -42.49284 | 118° | 35km/h | 19262m | 6.6m/s | -62.9°C | 2.7% | 64.7hPa | 0V | 00:00:00 | 00:00:00 | 00:00:00 | |
| PU1XMG-16 | 2026-09-05 00:31:02 | -22.75369 | -42.49319 | 150° | 27km/h | 19226m | 5.1m/s | -62.8°C | 2.8% | 65.1hPa | 0V | 00:00:00 | 00:00:00 | 00:00:00 | |
| PU1XMG-16 | 2026-09-05 00:30:54 | -22.75323 | -42.49373 | 135° | 35km/h | 19173m | 6.3m/s | -62.5°C | 2.8% | 65.6hPa | 0V | 00:00:00 | 00:00:00 | 00:00:00 | |
| PU1XMG-16 | 2026-09-05 00:25:26 | -22.74257 | -42.52853 | 63° | 55km/h | 17252m | 8.3m/s | -72.5°C | 15.6% | 90.2hPa | 0V | 00:00:00 | 00:00:00 | 00:00:00 | |
| PU1XMG-16 | 2026-09-05 00:25:17 | -22.74340 | -42.52994 | 57° | 77km/h | 17183m | 6.8m/s | -73.0°C | 16.0% | 91.2hPa | 0V | 00:00:00 | 00:00:00 | 00:00:00 | |
| PU1XMG-16 | 2026-09-05 00:24:52 | -22.74519 | -42.53496 | 76° | 91km/h | 17049m | 5.3m/s | -74.8°C | 18.1% | 93.3hPa | 0V | 00:00:00 | 00:00:00 | 00:00:00 | |
| PU1XMG-16 | 2026-09-05 00:24:40 | -22.74592 | -42.53831 | 82° | 100km/h | 16975m | 5.0m/s | -75.1°C | 18.2% | 94.5hPa | 0V | 00:00:00 | 00:00:00 | 00:00:00 | |
| PU1XMG-16 | 2026-09-05 00:24:28 | -22.74631 | -42.54113 | 86° | 99km/h | 16915m | 5.3m/s | -75.1°C | 17.7% | 95.5hPa | 0V | 00:00:00 | 00:00:00 | 00:00:00 | |
| PU1XMG-16 | 2026-09-05 00:24:22 | -22.74644 | -42.54277 | 85° | 97km/h | 16883m | 6.1m/s | -76.0°C | 19.8% | 96.0hPa | 0V | 00:00:00 | 00:00:00 | 00:00:00 | |
| PU1XMG-16 | 2026-09-05 00:24:17 | -22.74651 | -42.54403 | 89° | 93km/h | 16855m | 5.0m/s | -75.9°C | 20.0% | 96.5hPa | 0V | 00:00:00 | 00:00:00 | 00:00:00 | |
| PU1XMG-16 | 2026-09-05 00:24:08 | -22.74660 | -42.54634 | 89° | 97km/h | 16806m | 6.1m/s | -75.7°C | 19.3% | 97.3hPa | 0V | 00:00:00 | 00:00:00 | 00:00:00 | |
| PU1XMG-16 | 2026-09-05 00:24:02 | -22.74661 | -42.54782 | 90° | 86km/h | 16773m | 6.2m/s | -75.4°C | 19.1% | 97.8hPa | 0V | 00:00:00 | 00:00:00 | 00:00:00 | |
| PU1XMG-16 | 2026-09-05 00:23:56 | -22.74665 | -42.54926 | 89° | 89km/h | 16740m | 4.6m/s | -75.2°C | 19.2% | 98.4hPa | 0V | 00:00:00 | 00:00:00 | 00:00:00 | |
| PU1XMG-16 | 2026-09-05 00:23:50 | -22.74671 | -42.55072 | 88° | 86km/h | 16708m | 4.4m/s | -74.9°C | 19.1% | 99.0hPa | 0V | 00:00:00 | 00:00:00 | 00:00:00 | |
| PU1XMG-16 | 2026-09-05 00:23:44 | -22.74672 | -42.55211 | 94° | 89km/h | 16678m | 6.1m/s | -74.9°C | 18.2% | 99.5hPa | 0V | 00:00:00 | 00:00:00 | 00:00:00 | |
| PU1XMG-16 | 2026-09-05 00:23:39 | -22.74665 | -42.55336 | 92° | 88km/h | 16653m | 5.8m/s | -75.0°C | 18.0% | 99.9hPa | 0V | 00:00:00 | 00:00:00 | 00:00:00 | |
| PU1XMG-16 | 2026-09-05 00:23:33 | -22.74670 | -42.55474 | 87° | 84km/h | 16619m | 5.7m/s | -75.1°C | 17.0% | 100.5hPa | 0V | 00:00:00 | 00:00:00 | 00:00:00 | |
| PU1XMG-16 | 2026-09-05 00:23:28 | -22.74681 | -42.55593 | 85° | 95km/h | 16591m | 4.2m/s | -75.5°C | 18.2% | 101.0hPa | 0V | 00:00:00 | 00:00:00 | 00:00:00 | |
| PU1XMG-16 | 2026-09-05 00:23:22 | -22.74694 | -42.55744 | 84° | 91km/h | 16563m | 5.2m/s | -75.9°C | 18.2% | 101.5hPa | 0V | 00:00:00 | 00:00:00 | 00:00:00 | |
| PU1XMG-16 | 2026-09-05 00:23:17 | -22.74709 | -42.55872 | 84° | 97km/h | 16538m | 7.2m/s | -76.5°C | 19.0% | 101.9hPa | 0V | 00:00:00 | 00:00:00 | 00:00:00 | |
| PU1XMG-16 | 2026-09-05 00:23:11 | -22.74733 | -42.56030 | 80° | 100km/h | 16507m | 3.8m/s | -76.6°C | 18.8% | 102.5hPa | 0V | 00:00:00 | 00:00:00 | 00:00:00 | |
| PU1XMG-16 | 2026-09-05 00:23:05 | -22.74763 | -42.56191 | 81° | 102km/h | 16475m | 4.4m/s | -76.7°C | 18.8% | 103.0hPa | 0V | 00:00:00 | 00:00:00 | 00:00:00 | |
| PU1XMG-16 | 2026-09-05 00:22:59 | -22.74795 | -42.56372 | 78° | 117km/h | 16443m | 5.2m/s | -76.8°C | 18.9% | 103.6hPa | 0V | 00:00:00 | 00:00:00 | 00:00:00 | |
| PU1XMG-16 | 2026-09-05 00:22:54 | -22.74830 | -42.56520 | 76° | 110km/h | 16419m | 3.8m/s | -76.8°C | 18.9% | 104.0hPa | 0V | 00:00:00 | 00:00:00 | 00:00:00 | |
| PU1XMG-16 | 2026-09-05 00:22:49 | -22.74860 | -42.56672 | 80° | 117km/h | 16395m | 3.8m/s | -76.6°C | 18.6% | 104.5hPa | 0V | 00:00:00 | 00:00:00 | 00:00:00 | |
| PU1XMG-16 | 2026-09-05 00:22:43 | -22.74897 | -42.56863 | 77° | 117km/h | 16365m | 7.5m/s | -76.5°C | 18.2% | 105.0hPa | 0V | 00:00:00 | 00:00:00 | 00:00:00 | |
| PU1XMG-16 | 2026-09-05 00:22:39 | -22.74924 | -42.57018 | 84° | 115km/h | 16335m | 7.4m/s | -76.4°C | 18.2% | 105.6hPa | 0V | 00:00:00 | 00:00:00 | 00:00:00 | |
| PU1XMG-16 | 2026-09-05 00:22:31 | -22.74948 | -42.57234 | 80° | 110km/h | 16295m | 4.0m/s | -76.1°C | 17.6% | 106.3hPa | 0V | 00:00:00 | 00:00:00 | 00:00:00 | |
| PU1XMG-16 | 2026-09-05 00:22:25 | -22.74971 | -42.57412 | 85° | 111km/h | 16261m | 4.9m/s | -75.8°C | 17.0% | 106.9hPa | 0V | 00:00:00 | 00:00:00 | 00:00:00 | |
| PU1XMG-16 | 2026-09-05 00:22:20 | -22.74989 | -42.57568 | 83° | 113km/h | 16233m | 5.0m/s | -75.7°C | 16.9% | 107.5hPa | 0V | 00:00:00 | 00:00:00 | 00:00:00 | |
| PU1XMG-16 | 2026-09-05 00:22:14 | -22.75007 | -42.57750 | 86° | 108km/h | 16200m | 4.1m/s | -75.4°C | 16.6% | 108.1hPa | 0V | 00:00:00 | 00:00:00 | 00:00:00 | |
| PU1XMG-16 | 2026-09-05 00:22:09 | -22.75017 | -42.57898 | 88° | 113km/h | 16170m | 6.9m/s | -75.2°C | 16.4% | 108.6hPa | 0V | 00:00:00 | 00:00:00 | 00:00:00 | |
| PU1XMG-16 | 2026-09-05 00:22:03 | -22.75021 | -42.58092 | 90° | 115km/h | 16136m | 4.6m/s | -74.9°C | 15.8% | 109.3hPa | 0V | 00:00:00 | 00:00:00 | 00:00:00 | |
| PU1XMG-16 | 2026-09-05 00:21:57 | -22.75029 | -42.58276 | 90° | 111km/h | 16103m | 6.4m/s | -74.6°C | 15.3% | 109.9hPa | 0V | 00:00:00 | 00:00:00 | 00:00:00 | |
| PU1XMG-16 | 2026-09-05 00:21:52 | -22.75027 | -42.58434 | 91° | 119km/h | 16076m | 4.6m/s | -74.4°C | 15.2% | 110.4hPa | 0V | 00:00:00 | 00:00:00 | 00:00:00 | |
| PU1XMG-16 | 2026-09-05 00:21:45 | -22.75036 | -42.58656 | 89° | 113km/h | 16039m | 6.1m/s | -74.1°C | 15.3% | 111.1hPa | 0V | 00:00:00 | 00:00:00 | 00:00:00 | |
| PU1XMG-16 | 2026-09-05 00:21:40 | -22.75036 | -42.58811 | 91° | 117km/h | 16011m | 3.9m/s | -73.8°C | 14.7% | 111.6hPa | 0V | 00:00:00 | 00:00:00 | 00:00:00 | |
| PU1XMG-16 | 2026-09-05 00:21:34 | -22.75034 | -42.59003 | 94° | 119km/h | 15977m | 7.1m/s | -73.6°C | 14.4% | 112.3hPa | 0V | 00:00:00 | 00:00:00 | 00:00:00 | |
| PU1XMG-16 | 2026-09-05 00:21:28 | -22.75025 | -42.59197 | 92° | 115km/h | 15944m | 3.0m/s | -73.3°C | 14.5% | 112.9hPa | 0V | 00:00:00 | 00:00:00 | 00:00:00 | |
| PU1XMG-16 | 2026-09-05 00:21:17 | -22.75025 | -42.59544 | 91° | 117km/h | 15882m | 6.6m/s | -72.7°C | 13.6% | 114.1hPa | 0V | 00:00:00 | 00:00:00 | 00:00:00 | |
| PU1XMG-16 | 2026-09-05 00:21:12 | -22.75025 | -42.59703 | 90° | 115km/h | 15853m | 7.5m/s | -72.4°C | 13.5% | 114.7hPa | 0V | 00:00:00 | 00:00:00 | 00:00:00 | |
| PU1XMG-16 | 2026-09-05 00:21:06 | -22.75026 | -42.59889 | 92° | 117km/h | 15819m | 4.2m/s | -72.1°C | 13.6% | 115.3hPa | 0V | 00:00:00 | 00:00:00 | 00:00:00 | |
| PU1XMG-16 | 2026-09-05 00:21:00 | -22.75019 | -42.60077 | 93° | 111km/h | 15784m | 4.8m/s | -71.8°C | 13.5% | 116.0hPa | 0V | 00:00:00 | 00:00:00 | 00:00:00 | |
| PU1XMG-16 | 2026-09-05 00:20:54 | -22.75023 | -42.60262 | 90° | 117km/h | 15748m | 4.7m/s | -71.5°C | 13.0% | 116.7hPa | 0V | 00:00:00 | 00:00:00 | 00:00:00 | |
| PU1XMG-16 | 2026-09-05 00:20:49 | -22.75029 | -42.60423 | 90° | 117km/h | 15716m | 5.9m/s | -71.2°C | 12.7% | 117.3hPa | 0V | 00:00:00 | 00:00:00 | 00:00:00 | |
| PU1XMG-16 | 2026-09-05 00:20:43 | -22.75033 | -42.60605 | 89° | 106km/h | 15681m | 4.5m/s | -71.0°C | 12.6% | 118.0hPa | 0V | 00:00:00 | 00:00:00 | 00:00:00 | |
| PU1XMG-16 | 2026-09-05 00:20:38 | -22.75039 | -42.60751 | 89° | 113km/h | 15653m | 7.3m/s | -70.7°C | 12.2% | 118.6hPa | 0V | 00:00:00 | 00:00:00 | 00:00:00 | |
| PU1XMG-16 | 2026-09-05 00:20:32 | -22.75043 | -42.60941 | 89° | 113km/h | 15617m | 4.9m/s | -70.5°C | 12.4% | 119.3hPa | 0V | 00:00:00 | 00:00:00 | 00:00:00 | |
| PU1XMG-16 | 2026-09-05 00:20:28 | -22.75046 | -42.61092 | 89° | 110km/h | 15591m | 4.9m/s | -70.3°C | 12.4% | 119.9hPa | 0V | 00:00:00 | 00:00:00 | 00:00:00 | |
| PU1XMG-16 | 2026-09-05 00:20:15 | -22.75044 | -42.61446 | 89° | 106km/h | 15523m | 6.6m/s | -70.0°C | 11.8% | 121.2hPa | 0V | 00:00:00 | 00:00:00 | 00:00:00 | |
| PU1XMG-16 | 2026-09-05 00:20:10 | -22.75047 | -42.61593 | 91° | 110km/h | 15495m | 5.7m/s | -70.0°C | 12.2% | 121.8hPa | 0V | 00:00:00 | 00:00:00 | 00:00:00 | |
| PU1XMG-16 | 2026-09-05 00:20:04 | -22.75047 | -42.61761 | 89° | 95km/h | 15456m | 3.1m/s | -69.8°C | 12.0% | 122.6hPa | 0V | 00:00:00 | 00:00:00 | 00:00:00 | |
| PU1XMG-16 | 2026-09-05 00:19:59 | -22.75056 | -42.61890 | 86° | 99km/h | 15419m | 8.0m/s | -69.6°C | 11.5% | 123.4hPa | 0V | 00:00:00 | 00:00:00 | 00:00:00 | |
| PU1XMG-16 | 2026-09-05 00:19:53 | -22.75059 | -42.62056 | 89° | 104km/h | 15381m | 7.1m/s | -69.3°C | 11.6% | 124.1hPa | 0V | 00:00:00 | 00:00:00 | 00:00:00 | |
| PU1XMG-16 | 2026-09-05 00:19:48 | -22.75067 | -42.62188 | 86° | 88km/h | 15352m | 6.2m/s | -69.1°C | 11.9% | 124.7hPa | 0V | 00:00:00 | 00:00:00 | 00:00:00 | |
| PU1XMG-16 | 2026-09-05 00:19:42 | -22.75082 | -42.62344 | 85° | 104km/h | 15313m | 6.5m/s | -68.8°C | 11.2% | 125.5hPa | 0V | 00:00:00 | 00:00:00 | 00:00:00 | |
| PU1XMG-16 | 2026-09-05 00:19:36 | -22.75100 | -42.62503 | 82° | 95km/h | 15271m | 5.3m/s | -68.4°C | 11.0% | 126.4hPa | 0V | 00:00:00 | 00:00:00 | 00:00:00 | |
| PU1XMG-16 | 2026-09-05 00:19:30 | -22.75119 | -42.62648 | 81° | 91km/h | 15237m | 4.6m/s | -68.1°C | 10.8% | 127.2hPa | 0V | 00:00:00 | 00:00:00 | 00:00:00 | |
| PU1XMG-16 | 2026-09-05 00:19:25 | -22.75138 | -42.62773 | 80° | 97km/h | 15208m | 4.5m/s | -67.9°C | 10.8% | 127.8hPa | 0V | 00:00:00 | 00:00:00 | 00:00:00 | |
| PU1XMG-16 | 2026-09-05 00:19:20 | -22.75165 | -42.62921 | 82° | 88km/h | 15174m | 6.3m/s | -67.6°C | 10.4% | 128.5hPa | 0V | 00:00:00 | 00:00:00 | 00:00:00 | |
| PU1XMG-16 | 2026-09-05 00:19:14 | -22.75181 | -42.63043 | 81° | 93km/h | 15148m | 7.6m/s | -67.4°C | 10.4% | 129.0hPa | 0V | 00:00:00 | 00:00:00 | 00:00:00 | |
| PU1XMG-16 | 2026-09-05 00:19:08 | -22.75213 | -42.63194 | 80° | 91km/h | 15110m | 4.9m/s | -67.1°C | 10.6% | 129.8hPa | 0V | 00:00:00 | 00:00:00 | 00:00:00 | |
| PU1XMG-16 | 2026-09-05 00:19:03 | -22.75229 | -42.63317 | 83° | 91km/h | 15081m | 6.3m/s | -67.0°C | 10.5% | 130.5hPa | 0V | 00:00:00 | 00:00:00 | 00:00:00 | |
| PU1XMG-16 | 2026-09-05 00:18:57 | -22.75264 | -42.63461 | 75° | 89km/h | 15042m | 6.7m/s | -67.0°C | 10.1% | 131.3hPa | 0V | 00:00:00 | 00:00:00 | 00:00:00 | |
| PU1XMG-16 | 2026-09-05 00:18:52 | -22.75288 | -42.63587 | 80° | 93km/h | 15012m | 7.3m/s | -67.2°C | 10.2% | 132.0hPa | 0V | 00:00:00 | 00:00:00 | 00:00:00 | |
| PU1XMG-16 | 2026-09-05 00:18:47 | -22.75324 | -42.63710 | 72° | 102km/h | 14982m | 5.1m/s | -67.1°C | 10.5% | 132.6hPa | 0V | 00:00:00 | 00:00:00 | 00:00:00 | |
| PU1XMG-16 | 2026-09-05 00:18:42 | -22.75365 | -42.63840 | 75° | 99km/h | 14956m | 5.7m/s | -67.1°C | 10.2% | 133.2hPa | 0V | 00:00:00 | 00:00:00 | 00:00:00 | |
| PU1XMG-16 | 2026-09-05 00:18:36 | -22.75410 | -42.63992 | 69° | 97km/h | 14923m | 5.8m/s | -67.2°C | 10.6% | 133.9hPa | 0V | 00:00:00 | 00:00:00 | 00:00:00 | |
| PU1XMG-16 | 2026-09-05 00:18:31 | -22.75458 | -42.64116 | 67° | 100km/h | 14897m | 5.8m/s | -67.2°C | 10.8% | 134.5hPa | 0V | 00:00:00 | 00:00:00 | 00:00:00 | |
| PU1XMG-16 | 2026-09-05 00:18:25 | -22.75515 | -42.64272 | 73° | 104km/h | 14862m | 7.4m/s | !°C | 10.9% | 135.2hPa | 0V | 00:00:00 | 00:00:00 | 00:00:00 | |
| PU1XMG-16 | 2026-09-05 00:18:20 | -22.75560 | -42.64410 | 70° | 108km/h | 14830m | 7.5m/s | -67.1°C | 10.7% | 135.9hPa | 0V | 00:00:00 | 00:00:00 | 00:00:00 | |
| PU1XMG-16 | 2026-09-05 00:18:15 | -22.75606 | -42.64544 | 72° | 100km/h | 14799m | 6.3m/s | -66.9°C | 10.5% | 136.7hPa | 0V | 00:00:00 | 00:00:00 | 00:00:00 | |
| PU1XMG-16 | 2026-09-05 00:18:10 | -22.75648 | -42.64673 | 70° | 102km/h | 14767m | 5.8m/s | -66.9°C | 10.6% | 137.4hPa | 0V | 00:00:00 | 00:00:00 | 00:00:00 | |
| PU1XMG-16 | 2026-09-05 00:18:03 | -22.75708 | -42.64860 | 72° | 104km/h | 14726m | 6.6m/s | -66.6°C | 10.3% | 138.3hPa | 0V | 00:00:00 | 00:00:00 | 00:00:00 | |
| PU1XMG-16 | 2026-09-05 00:17:57 | -22.75768 | -42.65023 | 68° | 110km/h | 14688m | 4.0m/s | -66.3°C | 10.4% | 139.2hPa | 0V | 00:00:00 | 00:00:00 | 00:00:00 | |
| PU1XMG-16 | 2026-09-05 00:17:50 | -22.75838 | -42.65217 | 73° | 106km/h | 14644m | 4.8m/s | -66.0°C | 10.3% | 140.2hPa | 0V | 00:00:00 | 00:00:00 | 00:00:00 | |
| PU1XMG-16 | 2026-09-05 00:17:44 | -22.75888 | -42.65381 | 70° | 104km/h | 14612m | 5.6m/s | -65.7°C | 10.4% | 141.0hPa | 0V | 00:00:00 | 00:00:00 | 00:00:00 | |
| PU1XMG-16 | 2026-09-05 00:17:39 | -22.75937 | -42.65512 | 69° | 104km/h | 14579m | 3.4m/s | -65.5°C | 10.5% | 141.8hPa | 0V | 00:00:00 | 00:00:00 | 00:00:00 | |
| PU1XMG-16 | 2026-09-05 00:17:33 | -22.75991 | -42.65670 | 71° | 104km/h | 14543m | 7.9m/s | -65.4°C | 10.5% | 142.6hPa | 0V | 00:00:00 | 00:00:00 | 00:00:00 | |
| PU1XMG-16 | 2026-09-05 00:17:26 | -22.76055 | -42.65862 | 69° | 108km/h | 14498m | 4.2m/s | -65.1°C | 10.6% | 143.7hPa | 0V | 00:00:00 | 00:00:00 | 00:00:00 | |
| PU1XMG-16 | 2026-09-05 00:17:20 | -22.76113 | -42.66020 | 68° | 102km/h | 14460m | 9.6m/s | -65.0°C | 10.9% | 144.5hPa | 0V | 00:00:00 | 00:00:00 | 00:00:00 | |
| PU1XMG-16 | 2026-09-05 00:17:15 | -22.76164 | -42.66151 | 69° | 106km/h | 14427m | 8.2m/s | -64.7°C | 11.1% | 145.3hPa | 0V | 00:00:00 | 00:00:00 | 00:00:00 | |
| PU1XMG-16 | 2026-09-05 00:17:09 | -22.76233 | -42.66336 | 70° | 102km/h | 14382m | 8.9m/s | -64.4°C | 10.9% | 146.4hPa | 0V | 00:00:00 | 00:00:00 | 00:00:00 | |
| PU1XMG-16 | 2026-09-05 00:16:45 | -22.76471 | -42.66946 | 67° | 104km/h | 14234m | 7.0m/s | -63.3°C | 11.1% | 149.9hPa | 0V | 00:00:00 | 00:00:00 | 00:00:00 | |
| PU1XMG-16 | 2026-09-05 00:16:39 | -22.76539 | -42.67103 | 70° | 108km/h | 14196m | 7.1m/s | -63.1°C | 11.4% | 150.8hPa | 0V | 00:00:00 | 00:00:00 | 00:00:00 | |
| PU1XMG-16 | 2026-09-05 00:16:33 | -22.76594 | -42.67270 | 73° | 108km/h | 14157m | 6.1m/s | -63.0°C | 11.7% | 151.8hPa | 0V | 00:00:00 | 00:00:00 | 00:00:00 | |
| PU1XMG-16 | 2026-09-05 00:16:25 | -22.76671 | -42.67497 | 68° | 113km/h | 14110m | 8.2m/s | -63.1°C | 12.2% | 153.0hPa | 0V | 00:00:00 | 00:00:00 | 00:00:00 | |
| PU1XMG-16 | 2026-09-05 00:16:19 | -22.76747 | -42.67695 | 70° | 113km/h | 14067m | 5.7m/s | -63.2°C | 12.7% | 154.1hPa | 0V | 00:00:00 | 00:00:00 | 00:00:00 | |
| PU1XMG-16 | 2026-09-05 00:16:12 | -22.76816 | -42.67865 | 65° | 113km/h | 14035m | 6.3m/s | -63.2°C | 13.4% | 154.9hPa | 0V | 00:00:00 | 00:00:00 | 00:00:00 | |
| PU1XMG-16 | 2026-09-05 00:16:06 | -22.76889 | -42.68037 | 67° | 115km/h | 14004m | 4.6m/s | -63.0°C | 13.4% | 155.6hPa | 0V | 00:00:00 | 00:00:00 | 00:00:00 | |
| PU1XMG-16 | 2026-09-05 00:16:01 | -22.76948 | -42.68185 | 68° | 120km/h | 13974m | 4.7m/s | -62.9°C | 13.8% | 156.3hPa | 0V | 00:00:00 | 00:00:00 | 00:00:00 | |
| PU1XMG-16 | 2026-09-05 00:15:56 | -22.77012 | -42.68333 | 67° | 117km/h | 13949m | 3.8m/s | -62.8°C | 13.9% | 157.0hPa | 0V | 00:00:00 | 00:00:00 | 00:00:00 | |
| PU1XMG-16 | 2026-09-05 00:15:50 | -22.77082 | -42.68507 | 69° | 115km/h | 13918m | 6.7m/s | -62.8°C | 14.0% | 157.8hPa | 0V | 00:00:00 | 00:00:00 | 00:00:00 | |
| PU1XMG-16 | 2026-09-05 00:15:43 | -22.77160 | -42.68718 | 68° | 122km/h | 13880m | 4.0m/s | -62.5°C | 14.1% | 158.8hPa | 0V | 00:00:00 | 00:00:00 | 00:00:00 | |
| PU1XMG-16 | 2026-09-05 00:15:37 | -22.77226 | -42.68902 | 71° | 119km/h | 13847m | 5.2m/s | -62.3°C | 14.2% | 159.6hPa | 0V | 00:00:00 | 00:00:00 | 00:00:00 | |
| PU1XMG-16 | 2026-09-05 00:15:31 | -22.77286 | -42.69082 | 71° | 119km/h | 13814m | 7.8m/s | -62.1°C | 14.2% | 160.5hPa | 0V | 00:00:00 | 00:00:00 | 00:00:00 | |
| PU1XMG-16 | 2026-09-05 00:15:22 | -22.77382 | -42.69349 | 71° | 106km/h | 13765m | 6.5m/s | -62.0°C | 14.4% | 161.7hPa | 0V | 00:00:00 | 00:00:00 | 00:00:00 | |
| PU1XMG-16 | 2026-09-05 00:15:17 | -22.77424 | -42.69496 | 74° | 115km/h | 13737m | 4.2m/s | -62.0°C | 15.1% | 162.5hPa | 0V | 00:00:00 | 00:00:00 | 00:00:00 | |
| PU1XMG-16 | 2026-09-05 00:15:11 | -22.77485 | -42.69687 | 75° | 120km/h | 13706m | 4.8m/s | -61.9°C | 14.3% | 163.3hPa | 0V | 00:00:00 | 00:00:00 | 00:00:00 | |
| PU1XMG-16 | 2026-09-05 00:15:06 | -22.77524 | -42.69845 | 78° | 117km/h | 13670m | 3.9m/s | -61.7°C | 14.6% | 164.2hPa | 0V | 00:00:00 | 00:00:00 | 00:00:00 | |
| PU1XMG-16 | 2026-09-05 00:15:00 | -22.77571 | -42.70029 | 75° | 119km/h | 13641m | 5.7m/s | -61.5°C | 14.4% | 165.0hPa | 0V | 00:00:00 | 00:00:00 | 00:00:00 | |
| PU1XMG-16 | 2026-09-05 00:14:54 | -22.77618 | -42.70223 | 78° | 124km/h | 13607m | 6.2m/s | -61.2°C | 14.3% | 165.9hPa | 0V | 00:00:00 | 00:00:00 | 00:00:00 | |
| PU1XMG-16 | 2026-09-05 00:14:47 | -22.77670 | -42.70446 | 76° | 117km/h | 13572m | 6.7m/s | -60.9°C | 13.8% | 166.9hPa | 0V | 00:00:00 | 00:00:00 | 00:00:00 | |
| PU1XMG-16 | 2026-09-05 00:14:41 | -22.77722 | -42.70636 | 77° | 124km/h | 13537m | 7.2m/s | -60.6°C | 13.3% | 167.7hPa | 0V | 00:00:00 | 00:00:00 | 00:00:00 | |
| PU1XMG-16 | 2026-09-05 00:14:35 | -22.77760 | -42.70835 | 79° | 126km/h | 13504m | 6.0m/s | -60.2°C | 13.4% | 168.6hPa | 0V | 00:00:00 | 00:00:00 | 00:00:00 | |
| PU1XMG-16 | 2026-09-05 00:14:29 | -22.77806 | -42.71028 | 77° | 122km/h | 13472m | 3.5m/s | -60.0°C | 13.3% | 169.5hPa | 0V | 00:00:00 | 00:00:00 | 00:00:00 | |
| PU1XMG-16 | 2026-09-05 00:14:24 | -22.77841 | -42.71186 | 79° | 117km/h | 13444m | 6.5m/s | -59.7°C | 13.0% | 170.2hPa | 0V | 00:00:00 | 00:00:00 | 00:00:00 | |
| PU1XMG-16 | 2026-09-05 00:14:18 | -22.77882 | -42.71383 | 78° | 130km/h | 13411m | 6.0m/s | -59.4°C | 12.4% | 171.2hPa | 0V | 00:00:00 | 00:00:00 | 00:00:00 | |
| PU1XMG-16 | 2026-09-05 00:14:12 | -22.77930 | -42.71582 | 77° | 120km/h | 13379m | 5.5m/s | -59.1°C | 12.3% | 172.1hPa | 0V | 00:00:00 | 00:00:00 | 00:00:00 | |
| PU1XMG-16 | 2026-09-05 00:14:06 | -22.77972 | -42.71773 | 78° | 122km/h | 13345m | 4.8m/s | -58.8°C | 12.1% | 173.0hPa | 0V | 00:00:00 | 00:00:00 | 00:00:00 | |
| PU1XMG-16 | 2026-09-05 00:14:00 | -22.78011 | -42.71971 | 78° | 122km/h | 13312m | 6.6m/s | -58.5°C | 11.9% | 173.9hPa | 0V | 00:00:00 | 00:00:00 | 00:00:00 | |
| PU1XMG-16 | 2026-09-05 00:13:54 | -22.78052 | -42.72167 | 78° | 120km/h | 13280m | 4.9m/s | -58.2°C | 11.8% | 174.8hPa | 0V | 00:00:00 | 00:00:00 | 00:00:00 | |
| PU1XMG-16 | 2026-09-05 00:13:49 | -22.78087 | -42.72327 | 78° | 122km/h | 13253m | 6.2m/s | -57.9°C | 11.7% | 175.5hPa | 0V | 00:00:00 | 00:00:00 | 00:00:00 | |
| PU1XMG-16 | 2026-09-05 00:13:43 | -22.78124 | -42.72525 | 80° | 122km/h | 13219m | 6.6m/s | -57.6°C | 11.4% | 176.5hPa | 0V | 00:00:00 | 00:00:00 | 00:00:00 | |
| PU1XMG-16 | 2026-09-05 00:13:37 | -22.78162 | -42.72720 | 78° | 120km/h | 13185m | 6.1m/s | -57.3°C | 11.0% | 177.4hPa | 0V | 00:00:00 | 00:00:00 | 00:00:00 | |
| PU1XMG-16 | 2026-09-05 00:13:31 | -22.78202 | -42.72918 | 81° | 124km/h | 13152m | 5.1m/s | -57.1°C | 11.1% | 178.3hPa | 0V | 00:00:00 | 00:00:00 | 00:00:00 | |
| PU1XMG-16 | 2026-09-05 00:13:25 | -22.78235 | -42.73109 | 79° | 117km/h | 13119m | 4.6m/s | -56.8°C | 10.8% | 179.3hPa | 0V | 00:00:00 | 00:00:00 | 00:00:00 | |
| PU1XMG-16 | 2026-09-05 00:13:18 | -22.78277 | -42.73342 | 81° | 124km/h | 13081m | 5.0m/s | -56.5°C | 10.5% | 180.4hPa | 0V | 00:00:00 | 00:00:00 | 00:00:00 | |
| PU1XMG-16 | 2026-09-05 00:13:13 | -22.78305 | -42.73503 | 80° | 119km/h | 13055m | 3.8m/s | -56.2°C | 10.3% | 181.1hPa | 0V | 00:00:00 | 00:00:00 | 00:00:00 | |
| PU1XMG-16 | 2026-09-05 00:13:07 | -22.78339 | -42.73695 | 81° | 122km/h | 13022m | 4.4m/s | -55.9°C | 10.0% | 182.0hPa | 0V | 00:00:00 | 00:00:00 | 00:00:00 | |
| PU1XMG-16 | 2026-09-05 00:13:00 | -22.78374 | -42.73928 | 83° | 122km/h | 12984m | 5.7m/s | -55.6°C | 9.8% | 183.1hPa | 0V | 00:00:00 | 00:00:00 | 00:00:00 | |
| PU1XMG-16 | 2026-09-05 00:12:55 | -22.78397 | -42.74093 | 82° | 126km/h | 12958m | 5.2m/s | -55.3°C | 9.6% | 183.9hPa | 0V | 00:00:00 | 00:00:00 | 00:00:00 | |
| PU1XMG-16 | 2026-09-05 00:12:50 | -22.78423 | -42.74258 | 81° | 119km/h | 12929m | 6.1m/s | -55.1°C | 9.5% | 184.7hPa | 0V | 00:00:00 | 00:00:00 | 00:00:00 | |
| PU1XMG-16 | 2026-09-05 00:12:45 | -22.78447 | -42.74422 | 83° | 122km/h | 12903m | 4.3m/s | -54.9°C | 9.7% | 185.4hPa | 0V | 00:00:00 | 00:00:00 | 00:00:00 | |
| PU1XMG-16 | 2026-09-05 00:12:40 | -22.78469 | -42.74589 | 83° | 122km/h | 12877m | 6.2m/s | -54.8°C | 9.8% | 186.1hPa | 0V | 00:00:00 | 00:00:00 | 00:00:00 | |
| PU1XMG-16 | 2026-09-05 00:12:34 | -22.78499 | -42.74780 | 80° | 115km/h | 12845m | 5.6m/s | -54.5°C | 10.0% | 187.1hPa | 0V | 00:00:00 | 00:00:00 | 00:00:00 | |
| PU1XMG-16 | 2026-09-05 00:12:28 | -22.78540 | -42.74979 | 79° | 124km/h | 12811m | 8.5m/s | -54.2°C | 9.7% | 188.0hPa | 0V | 00:00:00 | 00:00:00 | 00:00:00 | |
| PU1XMG-16 | 2026-09-05 00:10:16 | -22.78436 | -42.79435 | 98° | 124km/h | 12097m | 5.1m/s | -49.5°C | 8.4% | 209.9hPa | 0V | 00:00:00 | 00:00:00 | 00:00:00 | |
| PU1XMG-16 | 2026-09-05 00:10:05 | -22.78384 | -42.79804 | 100° | 119km/h | 12040m | 6.2m/s | -49.3°C | 8.9% | 211.7hPa | 0V | 00:00:00 | 00:00:00 | 00:00:00 | |
| PU1XMG-16 | 2026-09-05 00:09:56 | -22.78338 | -42.80121 | 99° | 117km/h | 11996m | 4.7m/s | -49.0°C | 9.2% | 213.2hPa | 0V | 00:00:00 | 00:00:00 | 00:00:00 | |
| PU1XMG-16 | 2026-09-05 00:09:42 | -22.78276 | -42.80541 | 99° | 119km/h | 11934m | 5.8m/s | -48.8°C | 9.8% | 215.2hPa | 0V | 00:00:00 | 00:00:00 | 00:00:00 | |
| PU1XMG-16 | 2026-09-05 00:09:29 | -22.78205 | -42.80964 | 100° | 119km/h | 11866m | 5.0m/s | -48.4°C | 10.2% | 217.5hPa | 0V | 00:00:00 | 00:00:00 | 00:00:00 | |
| PU1XMG-16 | 2026-09-05 00:09:24 | -22.78179 | -42.81125 | 102° | 119km/h | 11844m | 4.5m/s | -48.2°C | 10.0% | 218.1hPa | 0V | 00:00:00 | 00:00:00 | 00:00:00 | |
| PU1XMG-16 | 2026-09-05 00:09:19 | -22.78147 | -42.81316 | 100° | 120km/h | 11814m | 3.9m/s | -47.9°C | 10.1% | 219.1hPa | 0V | 00:00:00 | 00:00:00 | 00:00:00 | |
| PU1XMG-16 | 2026-09-05 00:09:13 | -22.78119 | -42.81477 | 102° | 119km/h | 11791m | 4.3m/s | -47.7°C | 10.0% | 219.9hPa | 0V | 00:00:00 | 00:00:00 | 00:00:00 | |
| PU1XMG-16 | 2026-09-05 00:09:01 | -22.78062 | -42.81863 | 100° | 120km/h | 11734m | 4.3m/s | -47.3°C | 10.1% | 221.7hPa | 0V | 00:00:00 | 00:00:00 | 00:00:00 | |
| PU1XMG-16 | 2026-09-05 00:08:52 | -22.78016 | -42.82156 | 98° | 117km/h | 11695m | 4.6m/s | -46.9°C | 10.0% | 223.0hPa | 0V | 00:00:00 | 00:00:00 | 00:00:00 | |
| PU1XMG-16 | 2026-09-05 00:08:45 | -22.77983 | -42.82379 | 102° | 120km/h | 11661m | 5.3m/s | -46.6°C | 10.0% | 224.1hPa | 0V | 00:00:00 | 00:00:00 | 00:00:00 | |
| PU1XMG-16 | 2026-09-05 00:08:37 | -22.77956 | -42.82642 | 94° | 119km/h | 11622m | 6.0m/s | -46.3°C | 10.3% | 225.5hPa | 0V | 00:00:00 | 00:00:00 | 00:00:00 | |
| PU1XMG-16 | 2026-09-05 00:08:32 | -22.77939 | -42.82804 | 99° | 122km/h | 11600m | 3.7m/s | -46.1°C | 10.1% | 226.2hPa | 0V | 00:00:00 | 00:00:00 | 00:00:00 | |
| PU1XMG-16 | 2026-09-05 00:08:27 | -22.77920 | -42.82969 | 98° | 120km/h | 11579m | 3.5m/s | -45.9°C | 10.1% | 226.9hPa | 0V | 00:00:00 | 00:00:00 | 00:00:00 | |
| PU1XMG-16 | 2026-09-05 00:08:21 | -22.77901 | -42.83165 | 96° | 120km/h | 11555m | 5.9m/s | -45.7°C | 10.0% | 227.8hPa | 0V | 00:00:00 | 00:00:00 | 00:00:00 | |
| PU1XMG-16 | 2026-09-05 00:08:18 | -22.77881 | -42.83361 | 98° | 117km/h | 11528m | 3.6m/s | -45.4°C | 9.8% | 228.7hPa | 0V | 00:00:00 | 00:00:00 | 00:00:00 | |
| PU1XMG-16 | 2026-09-05 00:08:17 | -22.77858 | -42.83558 | 98° | 124km/h | 11503m | 3.3m/s | -45.2°C | 9.7% | 229.6hPa | 0V | 00:00:00 | 00:00:00 | 00:00:00 | |
| PU1XMG-16 | 2026-09-05 00:07:08 | -22.77765 | -42.85585 | 92° | 130km/h | 11206m | 10.3m/s | -42.6°C | 8.1% | 239.9hPa | 0V | 00:00:00 | 00:00:00 | 00:00:00 | |
| PU1XMG-16 | 2026-09-05 00:07:00 | -22.77771 | -42.85859 | 91° | 128km/h | 11158m | 5.8m/s | -42.3°C | 8.2% | 241.6hPa | 0V | 00:00:00 | 00:00:00 | 00:00:00 | |
| PU1XMG-16 | 2026-09-05 00:06:47 | -22.77781 | -42.86307 | 88° | 124km/h | 11091m | 5.3m/s | -41.7°C | 8.1% | 244.0hPa | 0V | 00:00:00 | 00:00:00 | 00:00:00 | |
| PU1XMG-16 | 2026-09-05 00:06:39 | -22.77793 | -42.86580 | 87° | 126km/h | 11054m | 6.1m/s | -41.4°C | 8.0% | 245.3hPa | 0V | 00:00:00 | 00:00:00 | 00:00:00 | |
| PU1XMG-16 | 2026-09-05 00:06:34 | -22.77805 | -42.86756 | 87° | 131km/h | 11031m | 6.3m/s | -41.2°C | 7.9% | 246.2hPa | 0V | 00:00:00 | 00:00:00 | 00:00:00 | |
| PU1XMG-16 | 2026-09-05 00:06:28 | -22.77822 | -42.86963 | 85° | 122km/h | 11000m | 5.3m/s | -41.0°C | 8.2% | 247.2hPa | 0V | 00:00:00 | 00:00:00 | 00:00:00 | |
| PU1XMG-16 | 2026-09-05 00:06:23 | -22.77836 | -42.87134 | 87° | 130km/h | 10978m | 6.2m/s | -40.8°C | 8.0% | 248.0hPa | 0V | 00:00:00 | 00:00:00 | 00:00:00 | |
| PU1XMG-16 | 2026-09-05 00:06:17 | -22.77847 | -42.87342 | 87° | 122km/h | 10948m | 5.2m/s | -40.5°C | 7.8% | 249.2hPa | 0V | 00:00:00 | 00:00:00 | 00:00:00 | |
| PU1XMG-16 | 2026-09-05 00:06:12 | -22.77860 | -42.87515 | 85° | 133km/h | 10921m | 3.6m/s | -40.3°C | 7.6% | 250.2hPa | 0V | 00:00:00 | 00:00:00 | 00:00:00 | |
| PU1XMG-16 | 2026-09-05 00:06:05 | -22.77882 | -42.87764 | 86° | 128km/h | 10891m | 3.5m/s | -40.0°C | 7.6% | 251.3hPa | 0V | 00:00:00 | 00:00:00 | 00:00:00 | |
| PU1XMG-16 | 2026-09-05 00:06:00 | -22.77897 | -42.87934 | 87° | 120km/h | 10869m | 4.6m/s | -39.8°C | 7.2% | 252.0hPa | 0V | 00:00:00 | 00:00:00 | 00:00:00 | |
| PU1XMG-16 | 2026-09-05 00:05:52 | -22.77917 | -42.88207 | 88° | 130km/h | 10832m | 2.0m/s | -39.4°C | 6.9% | 253.4hPa | 0V | 00:00:00 | 00:00:00 | 00:00:00 | |
| PU1XMG-16 | 2026-09-05 00:05:46 | -22.77929 | -42.88413 | 86° | 124km/h | 10804m | 5.5m/s | -39.2°C | 6.9% | 254.4hPa | 0V | 00:00:00 | 00:00:00 | 00:00:00 | |
| PU1XMG-16 | 2026-09-05 00:05:40 | -22.77949 | -42.88618 | 85° | 128km/h | 10778m | 4.8m/s | -38.9°C | 6.8% | 255.5hPa | 0V | 00:00:00 | 00:00:00 | 00:00:00 | |
| PU1XMG-16 | 2026-09-05 00:05:33 | -22.77968 | -42.88860 | 86° | 124km/h | 10744m | 5.5m/s | -38.6°C | 6.6% | 256.7hPa | 0V | 00:00:00 | 00:00:00 | 00:00:00 | |
| PU1XMG-16 | 2026-09-05 00:05:28 | -22.77984 | -42.89028 | 83° | 124km/h | 10718m | 4.2m/s | -38.4°C | 6.5% | 257.7hPa | 0V | 00:00:00 | 00:00:00 | 00:00:00 | |
| PU1XMG-16 | 2026-09-05 00:05:22 | -22.78008 | -42.89231 | 86° | 124km/h | 10689m | 3.7m/s | -38.1°C | 6.4% | 258.8hPa | 0V | 00:00:00 | 00:00:00 | 00:00:00 | |
| PU1XMG-16 | 2026-09-05 00:05:14 | -22.78032 | -42.89502 | 82° | 126km/h | 10650m | 5.9m/s | -37.7°C | 6.1% | 260.2hPa | 0V | 00:00:00 | 00:00:00 | 00:00:00 | |
| PU1XMG-16 | 2026-09-05 00:05:00 | -22.78090 | -42.89977 | 85° | 131km/h | 10582m | 4.7m/s | -37.1°C | 5.9% | 262.8hPa | 0V | 00:00:00 | 00:00:00 | 00:00:00 | |
| PU1XMG-16 | 2026-09-05 00:04:54 | -22.78107 | -42.90186 | 85° | 126km/h | 10556m | 5.6m/s | -36.9°C | 5.9% | 263.8hPa | 0V | 00:00:00 | 00:00:00 | 00:00:00 | |
| PU1XMG-16 | 2026-09-05 00:04:47 | -22.78135 | -42.90464 | 85° | 122km/h | 10516m | 5.7m/s | -36.5°C | 5.8% | 265.4hPa | 0V | 00:00:00 | 00:00:00 | 00:00:00 | |
| PU1XMG-16 | 2026-09-05 00:03:31 | -22.78300 | -42.93147 | 87° | 135km/h | 10143m | 6.9m/s | -34.4°C | 46.5% | 280.0hPa | 0V | 00:00:00 | 00:00:00 | 00:00:00 | |
| PU1XMG-16 | 2026-09-05 00:03:25 | -22.78307 | -42.93373 | 91° | 144km/h | 10112m | 7.2m/s | -34.2°C | 48.7% | 281.2hPa | 0V | 00:00:00 | 00:00:00 | 00:00:00 | |
| PU1XMG-16 | 2026-09-05 00:03:01 | -22.78318 | -42.94492 | 92° | 120km/h | 9926m | 7.7m/s | -32.6°C | 51.2% | 288.7hPa | 0V | 00:00:00 | 00:00:00 | 00:00:00 | |
| PU1XMG-16 | 2026-09-05 00:02:52 | -22.78316 | -42.94665 | 93° | 133km/h | 9900m | 4.9m/s | -32.4°C | 52.4% | 289.7hPa | 0V | 00:00:00 | 00:00:00 | 00:00:00 | |
| PU1XMG-16 | 2026-09-05 00:02:42 | -22.78301 | -42.95017 | 93° | 128km/h | 9848m | 7.3m/s | -31.9°C | 51.1% | 291.8hPa | 0V | 00:00:00 | 00:00:00 | 00:00:00 | |
| PU1XMG-16 | 2026-09-05 00:02:33 | -22.78288 | -42.95230 | 93° | 137km/h | 9814m | 5.1m/s | -31.6°C | 50.3% | 293.3hPa | 0V | 00:00:00 | 00:00:00 | 00:00:00 | |
| PU1XMG-16 | 2026-09-05 00:02:28 | -22.78283 | -42.95417 | 94° | 130km/h | 9785m | 6.9m/s | -31.3°C | 50.8% | 294.4hPa | 0V | 00:00:00 | 00:00:00 | 00:00:00 | |
| PU1XMG-16 | 2026-09-05 00:02:23 | -22.78271 | -42.95630 | 94° | 131km/h | 9752m | 6.7m/s | -31.0°C | 51.4% | 295.9hPa | 0V | 00:00:00 | 00:00:00 | 00:00:00 | |
| PU1XMG-16 | 2026-09-05 00:02:19 | -22.78268 | -42.95813 | 94° | 137km/h | 9726m | 5.1m/s | -30.8°C | 51.7% | 296.9hPa | 0V | 00:00:00 | 00:00:00 | 00:00:00 | |
| PU1XMG-16 | 2026-09-05 00:02:15 | -22.78258 | -42.95997 | 94° | 131km/h | 9699m | 5.8m/s | -30.6°C | 50.7% | 298.0hPa | 0V | 00:00:00 | 00:00:00 | 00:00:00 | |
| PU1XMG-16 | 2026-09-05 00:02:10 | -22.78247 | -42.96213 | 96° | 135km/h | 9669m | 5.6m/s | -30.3°C | 49.3% | 299.3hPa | 0V | 00:00:00 | 00:00:00 | 00:00:00 | |
| PU1XMG-16 | 2026-09-05 00:02:01 | -22.78219 | -42.96583 | 93° | 137km/h | 9618m | 9.7m/s | -30.0°C | 46.5% | 301.4hPa | 0V | 00:00:00 | 00:00:00 | 00:00:00 | |
| PU1XMG-16 | 2026-09-05 00:01:53 | -22.78212 | -42.96813 | 90° | 142km/h | 9583m | 6.6m/s | -29.6°C | 45.1% | 302.9hPa | 0V | 00:00:00 | 00:00:00 | 00:00:00 | |
| PU1XMG-16 | 2026-09-05 00:01:46 | -22.78209 | -42.97012 | 93° | 144km/h | 9552m | 6.3m/s | -29.4°C | 44.9% | 304.2hPa | 0V | 00:00:00 | 00:00:00 | 00:00:00 | |
| PU1XMG-16 | 2026-09-05 00:01:41 | -22.78198 | -42.97243 | 95° | 146km/h | 9517m | 7.2m/s | -29.1°C | 44.0% | 305.7hPa | 0V | 00:00:00 | 00:00:00 | 00:00:00 | |
| PU1XMG-16 | 2026-09-05 00:01:37 | -22.78198 | -42.97490 | 94° | 142km/h | 9479m | 6.6m/s | -28.8°C | 43.0% | 307.2hPa | 0V | 00:00:00 | 00:00:00 | 00:00:00 | |
| PU1XMG-16 | 2026-09-05 00:01:30 | -22.78186 | -42.97720 | 92° | 151km/h | 9446m | 3.8m/s | -28.6°C | 44.7% | 308.8hPa | 0V | 00:00:00 | 00:00:00 | 00:00:00 | |
| PU1XMG-16 | 2026-09-05 00:01:24 | -22.78186 | -42.97962 | 92° | 141km/h | 9404m | 8.3m/s | -28.4°C | 43.8% | 310.5hPa | 0V | 00:00:00 | 00:00:00 | 00:00:00 | |
| PU1XMG-16 | 2026-09-05 00:01:17 | -22.78193 | -42.98191 | 89° | 137km/h | 9374m | 5.4m/s | -28.1°C | 44.8% | 311.9hPa | 0V | 00:00:00 | 00:00:00 | 00:00:00 | |
| PU1XMG-16 | 2026-09-05 00:01:12 | -22.78197 | -42.98380 | 91° | 141km/h | 9349m | 6.3m/s | -28.1°C | 49.3% | 313.0hPa | 0V | 00:00:00 | 00:00:00 | 00:00:00 | |
| PU1XMG-16 | 2026-09-05 00:01:07 | -22.78197 | -42.98574 | 90° | 142km/h | 9323m | 6.0m/s | -27.9°C | 46.6% | 314.1hPa | 0V | 00:00:00 | 00:00:00 | 00:00:00 | |
| PU1XMG-16 | 2026-09-05 00:00:59 | -22.78202 | -42.98806 | 90° | 139km/h | 9291m | 5.4m/s | -27.7°C | 46.0% | 315.5hPa | 0V | 00:00:00 | 00:00:00 | 00:00:00 | |
| PU1XMG-16 | 2026-09-05 00:00:54 | -22.78209 | -42.98999 | 88° | 142km/h | 9267m | 5.6m/s | -27.6°C | 50.4% | 316.5hPa | 0V | 00:00:00 | 00:00:00 | 00:00:00 | |
| PU1XMG-16 | 2026-09-05 00:00:48 | -22.78216 | -42.99233 | 90° | 144km/h | 9233m | 3.1m/s | -27.6°C | 53.6% | 318.1hPa | 0V | 00:00:00 | 00:00:00 | 00:00:00 | |
| PU1XMG-16 | 2026-09-05 00:00:43 | -22.78222 | -42.99466 | 88° | 139km/h | 9203m | 6.4m/s | -27.4°C | 54.1% | 319.3hPa | 0V | 00:00:00 | 00:00:00 | 00:00:00 | |
| PU1XMG-16 | 2026-09-05 00:00:39 | -22.78228 | -42.99656 | 90° | 141km/h | 9178m | 5.7m/s | -27.3°C | 53.2% | 320.4hPa | 0V | 00:00:00 | 00:00:00 | 00:00:00 | |
| PU1XMG-16 | 2026-09-05 00:00:35 | -22.78230 | -42.99849 | 90° | 142km/h | 9151m | 5.7m/s | -27.0°C | 52.8% | 321.7hPa | 0V | 00:00:00 | 00:00:00 | 00:00:00 | |
| PU1XMG-16 | 2026-09-05 00:00:26 | -22.78242 | -43.00082 | 88° | 141km/h | 9120m | 6.1m/s | -26.8°C | 53.8% | 323.0hPa | 0V | 00:00:00 | 00:00:00 | 00:00:00 | |
| PU1XMG-16 | 2026-09-05 00:00:22 | -22.78252 | -43.00276 | 88° | 141km/h | 9092m | 5.2m/s | -26.6°C | 54.6% | 324.2hPa | 0V | 00:00:00 | 00:00:00 | 00:00:00 | |
| PU1XMG-16 | 2026-09-05 00:00:19 | -22.78260 | -43.00469 | 88° | 142km/h | 9066m | 6.8m/s | -26.4°C | 55.3% | 325.5hPa | 0V | 00:00:00 | 00:00:00 | 00:00:00 | |
| PU1XMG-16 | 2026-09-05 00:00:11 | -22.78269 | -43.00665 | 88° | 142km/h | 9041m | 6.3m/s | -26.2°C | 57.1% | 326.6hPa | 0V | 00:00:00 | 00:00:00 | 00:00:00 | |
| PU1XMG-16 | 2026-09-05 00:00:05 | -22.78284 | -43.00897 | 87° | 142km/h | 9009m | 6.3m/s | -26.0°C | 56.3% | 328.0hPa | 0V | 00:00:00 | 00:00:00 | 00:00:00 | |
| PU1XMG-16 | 2026-09-05 00:00:00 | -22.78294 | -43.01090 | 89° | 137km/h | 8981m | 6.4m/s | -25.8°C | 56.8% | 329.3hPa | 0V | 00:00:00 | 00:00:00 | 00:00:00 | |
| PU1XMG-16 | 2026-09-04 23:59:54 | -22.78301 | -43.01279 | 88° | 139km/h | 8956m | 4.8m/s | -25.5°C | 56.6% | 330.3hPa | 0V | 00:00:00 | 00:00:00 | 00:00:00 | |
| PU1XMG-16 | 2026-09-04 23:59:49 | -22.78316 | -43.01475 | 87° | 142km/h | 8930m | 3.5m/s | -25.3°C | 55.8% | 331.6hPa | 0V | 00:00:00 | 00:00:00 | 00:00:00 | |
| PU1XMG-16 | 2026-09-04 23:59:43 | -22.78329 | -43.01710 | 88° | 139km/h | 8902m | 4.2m/s | -25.0°C | 54.3% | 332.9hPa | 0V | 00:00:00 | 00:00:00 | 00:00:00 | |
| PU1XMG-16 | 2026-09-04 23:59:39 | -22.78338 | -43.01902 | 87° | 141km/h | 8877m | 6.0m/s | -24.8°C | 52.9% | 334.1hPa | 0V | 00:00:00 | 00:00:00 | 00:00:00 | |
| PU1XMG-16 | 2026-09-04 23:59:32 | -22.78357 | -43.02125 | 88° | 141km/h | 8848m | 6.1m/s | -24.5°C | 51.9% | 335.5hPa | 0V | 00:00:00 | 00:00:00 | 00:00:00 | |
| PU1XMG-16 | 2026-09-04 23:59:26 | -22.78353 | -43.02353 | 93° | 137km/h | 8815m | 5.8m/s | -24.2°C | 50.1% | 337.0hPa | 0V | 00:00:00 | 00:00:00 | 00:00:00 | |
| PU1XMG-16 | 2026-09-04 23:59:21 | -22.78362 | -43.02584 | 83° | 133km/h | 8776m | 6.2m/s | -23.8°C | 47.9% | 338.8hPa | 0V | 00:00:00 | 00:00:00 | 00:00:00 | |
| PU1XMG-16 | 2026-09-04 23:59:15 | -22.78376 | -43.02762 | 88° | 141km/h | 8749m | 6.1m/s | -23.6°C | 45.4% | 340.0hPa | 0V | 00:00:00 | 00:00:00 | 00:00:00 | |
| PU1XMG-16 | 2026-09-04 23:59:04 | -22.78405 | -43.03199 | 88° | 128km/h | 8690m | 5.3m/s | -23.1°C | 35.6% | 342.8hPa | 0V | 00:00:00 | 00:00:00 | 00:00:00 | |
| PU1XMG-16 | 2026-09-04 23:58:58 | -22.78418 | -43.03438 | 86° | 141km/h | 8651m | 7.1m/s | -22.7°C | 32.8% | 344.6hPa | 0V | 00:00:00 | 00:00:00 | 00:00:00 | |
| PU1XMG-16 | 2026-09-04 23:58:52 | -22.78442 | -43.03656 | 84° | 133km/h | 8614m | 7.0m/s | -22.4°C | 29.9% | 346.2hPa | 0V | 00:00:00 | 00:00:00 | 00:00:00 | |
| PU1XMG-16 | 2026-09-04 23:58:47 | -22.78473 | -43.03850 | 82° | 146km/h | 8591m | 5.3m/s | -22.2°C | 25.1% | 347.5hPa | 0V | 00:00:00 | 00:00:00 | 00:00:00 | |
| PU1XMG-16 | 2026-09-04 23:58:42 | -22.78492 | -43.04043 | 89° | 141km/h | 8560m | 3.9m/s | -21.9°C | 22.2% | 348.8hPa | 0V | 00:00:00 | 00:00:00 | 00:00:00 | |
| PU1XMG-16 | 2026-09-04 23:58:36 | -22.78512 | -43.04275 | 83° | 141km/h | 8524m | 7.4m/s | -21.5°C | 20.8% | 350.6hPa | 0V | 00:00:00 | 00:00:00 | 00:00:00 | |
| PU1XMG-16 | 2026-09-04 23:58:30 | -22.78544 | -43.04502 | 82° | 137km/h | 8487m | 5.9m/s | -21.2°C | 19.4% | 352.2hPa | 0V | 00:00:00 | 00:00:00 | 00:00:00 | |
| PU1XMG-16 | 2026-09-04 23:58:26 | -22.78568 | -43.04690 | 85° | 141km/h | 8464m | 4.2m/s | -21.0°C | 15.7% | 353.3hPa | 0V | 00:00:00 | 00:00:00 | 00:00:00 | |
| PU1XMG-16 | 2026-09-04 23:58:19 | -22.78597 | -43.04920 | 81° | 141km/h | 8437m | 3.4m/s | -20.7°C | 16.9% | 354.7hPa | 0V | 00:00:00 | 00:00:00 | 00:00:00 | |
| PU1XMG-16 | 2026-09-04 23:58:15 | -22.78630 | -43.05110 | 80° | 141km/h | 8411m | 6.0m/s | -20.5°C | 17.6% | 355.9hPa | 0V | 00:00:00 | 00:00:00 | 00:00:00 | |
| PU1XMG-16 | 2026-09-04 23:58:08 | -22.78671 | -43.05339 | 80° | 146km/h | 8379m | 7.1m/s | -20.2°C | 11.6% | 357.4hPa | 0V | 00:00:00 | 00:00:00 | 00:00:00 | |
| PU1XMG-16 | 2026-09-04 23:58:02 | -22.78706 | -43.05575 | 84° | 146km/h | 8346m | 6.3m/s | -19.9°C | 8.1% | 358.9hPa | 0V | 00:00:00 | 00:00:00 | 00:00:00 | |
| PU1XMG-16 | 2026-09-04 23:57:57 | -22.78736 | -43.05773 | 80° | 144km/h | 8326m | 4.3m/s | -19.9°C | 7.6% | 360.0hPa | 0V | 00:00:00 | 00:00:00 | 00:00:00 | |
| PU1XMG-16 | 2026-09-04 23:57:52 | -22.78769 | -43.05964 | 82° | 135km/h | 8304m | 5.1m/s | -20.1°C | 6.9% | 361.0hPa | 0V | 00:00:00 | 00:00:00 | 00:00:00 | |
| PU1XMG-16 | 2026-09-04 23:57:46 | -22.78798 | -43.06190 | 82° | 142km/h | 8278m | 4.8m/s | -20.1°C | 6.4% | 362.3hPa | 0V | 00:00:00 | 00:00:00 | 00:00:00 | |
| PU1XMG-16 | 2026-09-04 23:57:40 | -22.78838 | -43.06425 | 82° | 142km/h | 8254m | 4.0m/s | -20.6°C | 9.3% | 363.5hPa | 0V | 00:00:00 | 00:00:00 | 00:00:00 | |
| PU1XMG-16 | 2026-09-04 23:57:35 | -22.78871 | -43.06609 | 76° | 139km/h | 8229m | 3.2m/s | -20.7°C | 16.0% | 364.7hPa | 0V | 00:00:00 | 00:00:00 | 00:00:00 | |
| PU1XMG-16 | 2026-09-04 23:57:30 | -22.78912 | -43.06800 | 80° | 150km/h | 8209m | 6.8m/s | -20.7°C | 20.1% | 365.7hPa | 0V | 00:00:00 | 00:00:00 | 00:00:00 | |
| PU1XMG-16 | 2026-09-04 23:57:24 | -22.78968 | -43.07031 | 74° | 139km/h | 8178m | 6.4m/s | -20.3°C | 19.8% | 367.3hPa | 0V | 00:00:00 | 00:00:00 | 00:00:00 | |
| PU1XMG-16 | 2026-09-04 23:57:18 | -22.79036 | -43.07248 | 74° | 144km/h | 8150m | 6.9m/s | -20.2°C | 23.9% | 368.7hPa | 0V | 00:00:00 | 00:00:00 | 00:00:00 | |
| PU1XMG-16 | 2026-09-04 23:57:14 | -22.79081 | -43.07440 | 77° | 128km/h | 8122m | 6.9m/s | -20.0°C | 25.7% | 370.3hPa | 0V | 00:00:00 | 00:00:00 | 00:00:00 | |
| PU1XMG-16 | 2026-09-04 23:57:08 | -22.79109 | -43.07599 | 82° | 119km/h | 8087m | 5.3m/s | -19.7°C | 26.7% | 372.0hPa | 0V | 00:00:00 | 00:00:00 | 00:00:00 | |
| PU1XMG-16 | 2026-09-04 23:57:02 | -22.79146 | -43.07811 | 76° | 130km/h | 8051m | 5.9m/s | -19.6°C | 30.5% | 373.5hPa | 0V | 00:00:00 | 00:00:00 | 00:00:00 | |
| PU1XMG-16 | 2026-09-04 23:56:56 | -22.79185 | -43.08025 | 84° | 128km/h | 8022m | 5.8m/s | -19.9°C | 38.6% | 375.0hPa | 0V | 00:00:00 | 00:00:00 | 00:00:00 | |
| PU1XMG-16 | 2026-09-04 23:56:52 | -22.79209 | -43.08175 | 81° | 113km/h | 7989m | 3.7m/s | -20.1°C | 44.9% | 376.7hPa | 0V | 00:00:00 | 00:00:00 | 00:00:00 | |
| PU1XMG-16 | 2026-09-04 23:56:45 | -22.79235 | -43.08369 | 82° | 113km/h | 7957m | 6.6m/s | -20.2°C | 49.1% | 378.2hPa | 0V | 00:00:00 | 00:00:00 | 00:00:00 | |
| PU1XMG-16 | 2026-09-04 23:56:40 | -22.79247 | -43.08519 | 89° | 104km/h | 7935m | 4.2m/s | -20.0°C | 47.9% | 379.4hPa | 0V | 00:00:00 | 00:00:00 | 00:00:00 | |
| PU1XMG-16 | 2026-09-04 23:56:35 | -22.79279 | -43.08662 | 73° | 117km/h | 7907m | 9.6m/s | -19.9°C | 47.7% | 380.9hPa | 0V | 00:00:00 | 00:00:00 | 00:00:00 | |
| PU1XMG-16 | 2026-09-04 23:56:30 | -22.79313 | -43.08807 | 83° | 102km/h | 7875m | 4.5m/s | -20.0°C | 49.3% | 382.4hPa | 0V | 00:00:00 | 00:00:00 | 00:00:00 | |
| PU1XMG-16 | 2026-09-04 23:56:24 | -22.79348 | -43.08985 | 79° | 108km/h | 7835m | 9.1m/s | -20.2°C | 57.1% | 384.5hPa | 0V | 00:00:00 | 00:00:00 | 00:00:00 | |
| PU1XMG-16 | 2026-09-04 23:56:19 | -22.79378 | -43.09136 | 76° | 124km/h | 7807m | 7.1m/s | -20.3°C | 61.3% | 385.9hPa | 0V | 00:00:00 | 00:00:00 | 00:00:00 | |
| PU1XMG-16 | 2026-09-04 23:56:13 | -22.79435 | -43.09328 | 72° | 111km/h | 7775m | 4.8m/s | -20.0°C | 60.3% | 387.6hPa | 0V | 00:00:00 | 00:00:00 | 00:00:00 | |
| PU1XMG-16 | 2026-09-04 23:56:08 | -22.79484 | -43.09475 | 73° | 119km/h | 7748m | 4.8m/s | -19.8°C | 60.0% | 389.0hPa | 0V | 00:00:00 | 00:00:00 | 00:00:00 | |
| PU1XMG-16 | 2026-09-04 23:56:02 | -22.79536 | -43.09668 | 73° | 120km/h | 7717m | 3.9m/s | -19.5°C | 59.7% | 390.5hPa | 0V | 00:00:00 | 00:00:00 | 00:00:00 | |
| PU1XMG-16 | 2026-09-04 23:55:57 | -22.79586 | -43.09816 | 73° | 111km/h | 7693m | 3.4m/s | -19.3°C | 58.6% | 391.8hPa | 0V | 00:00:00 | 00:00:00 | 00:00:00 | |
| PU1XMG-16 | 2026-09-04 23:55:51 | -22.79640 | -43.10012 | 75° | 133km/h | 7665m | 6.2m/s | -19.1°C | 58.3% | 393.3hPa | 0V | 00:00:00 | 00:00:00 | 00:00:00 | |
| PU1XMG-16 | 2026-09-04 23:55:46 | -22.79683 | -43.10179 | 74° | 122km/h | 7640m | 7.1m/s | -18.8°C | 57.9% | 394.7hPa | 0V | 00:00:00 | 00:00:00 | 00:00:00 | |
| PU1XMG-16 | 2026-09-04 23:55:40 | -22.79738 | -43.10372 | 72° | 117km/h | 7605m | 5.7m/s | -18.5°C | 57.7% | 396.6hPa | 0V | 00:00:00 | 00:00:00 | 00:00:00 | |
| PU1XMG-16 | 2026-09-04 23:55:35 | -22.79786 | -43.10522 | 72° | 124km/h | 7582m | 6.0m/s | -18.4°C | 58.8% | 397.8hPa | 0V | 00:00:00 | 00:00:00 | 00:00:00 | |
| PU1XMG-16 | 2026-09-04 23:55:29 | -22.79846 | -43.10717 | 69° | 124km/h | 7545m | 7.4m/s | -18.2°C | 59.6% | 399.7hPa | 0V | 00:00:00 | 00:00:00 | 00:00:00 | |
| PU1XMG-16 | 2026-09-04 23:55:23 | -22.79909 | -43.10904 | 76° | 119km/h | 7511m | 5.6m/s | -18.2°C | 64.9% | 401.4hPa | 0V | 00:00:00 | 00:00:00 | 00:00:00 | |
| PU1XMG-16 | 2026-09-04 23:55:19 | -22.79946 | -43.11097 | 76° | 115km/h | 7480m | 6.8m/s | -18.4°C | 72.8% | 403.1hPa | 0V | 00:00:00 | 00:00:00 | 00:00:00 | |
| PU1XMG-16 | 2026-09-04 23:55:13 | -22.79983 | -43.11251 | 82° | 120km/h | 7454m | 4.6m/s | -18.3°C | 74.1% | 404.6hPa | 0V | 00:00:00 | 00:00:00 | 00:00:00 | |
| PU1XMG-16 | 2026-09-04 23:55:06 | -22.80016 | -43.11437 | 76° | 110km/h | 7422m | 6.1m/s | -18.2°C | 72.9% | 406.4hPa | 0V | 00:00:00 | 00:00:00 | 00:00:00 | |
| PU1XMG-16 | 2026-09-04 23:55:01 | -22.80054 | -43.11587 | 81° | 113km/h | 7390m | 7.6m/s | -18.1°C | 77.5% | 407.9hPa | 0V | 00:00:00 | 00:00:00 | 00:00:00 | |
| PU1XMG-16 | 2026-09-04 23:54:55 | -22.80093 | -43.11765 | 74° | 106km/h | 7359m | 7.4m/s | -18.0°C | 82.7% | 409.6hPa | 0V | 00:00:00 | 00:00:00 | 00:00:00 | |
| PU1XMG-16 | 2026-09-04 23:54:50 | -22.80128 | -43.11906 | 76° | 111km/h | 7334m | 5.8m/s | -18.2°C | 88.2% | 411.1hPa | 0V | 00:00:00 | 00:00:00 | 00:00:00 | |
| PU1XMG-16 | 2026-09-04 23:54:45 | -22.80181 | -43.12090 | 72° | 117km/h | 7305m | 5.8m/s | -17.9°C | 86.0% | 412.7hPa | 0V | 00:00:00 | 00:00:00 | 00:00:00 | |
| PU1XMG-16 | 2026-09-04 23:54:39 | -22.80215 | -43.12233 | 81° | 102km/h | 7280m | 5.3m/s | -17.9°C | 86.2% | 414.1hPa | 0V | 00:00:00 | 00:00:00 | 00:00:00 | |
| PU1XMG-16 | 2026-09-04 23:54:34 | -22.80249 | -43.12372 | 75° | 108km/h | 7255m | 6.6m/s | -17.6°C | 85.0% | 415.6hPa | 0V | 00:00:00 | 00:00:00 | 00:00:00 | |
| PU1XMG-16 | 2026-09-04 23:54:29 | -22.80281 | -43.12524 | 77° | 110km/h | 7229m | 3.7m/s | -17.4°C | 85.4% | 416.9hPa | 0V | 00:00:00 | 00:00:00 | 00:00:00 | |
| PU1XMG-16 | 2026-09-04 23:54:23 | -22.80333 | -43.12697 | 70° | 117km/h | 7191m | 7.1m/s | -17.1°C | 82.6% | 419.0hPa | 0V | 00:00:00 | 00:00:00 | 00:00:00 | |
| PU1XMG-16 | 2026-09-04 23:54:17 | -22.80378 | -43.12861 | 78° | 91km/h | 7160m | 6.8m/s | -16.9°C | 83.6% | 420.7hPa | 0V | 00:00:00 | 00:00:00 | 00:00:00 | |
| PU1XMG-16 | 2026-09-04 23:54:12 | -22.80412 | -43.12988 | 75° | 110km/h | 7134m | 7.2m/s | -16.7°C | 85.3% | 422.3hPa | 0V | 00:00:00 | 00:00:00 | 00:00:00 | |
| PU1XMG-16 | 2026-09-04 23:54:07 | -22.80458 | -43.13129 | 74° | 100km/h | 7101m | 7.2m/s | -16.4°C | 83.1% | 424.1hPa | 0V | 00:00:00 | 00:00:00 | 00:00:00 | |
| PU1XMG-16 | 2026-09-04 23:54:01 | -22.80507 | -43.13299 | 68° | 104km/h | 7057m | 8.1m/s | -16.0°C | 80.7% | 426.4hPa | 0V | 00:00:00 | 00:00:00 | 00:00:00 | |
| PU1XMG-16 | 2026-09-04 23:53:55 | -22.80573 | -43.13463 | 67° | 106km/h | 7025m | 4.7m/s | -15.8°C | 78.0% | 428.4hPa | 0V | 00:00:00 | 00:00:00 | 00:00:00 | |
| PU1XMG-16 | 2026-09-04 23:53:50 | -22.80621 | -43.13594 | 68° | 111km/h | 6996m | 4.8m/s | -15.7°C | 75.0% | 430.0hPa | 0V | 00:00:00 | 00:00:00 | 00:00:00 | |
| PU1XMG-16 | 2026-09-04 23:53:45 | -22.80670 | -43.13727 | 69° | 93km/h | 6967m | 11.1m/s | -15.4°C | 70.7% | 431.5hPa | 0V | 00:00:00 | 00:00:00 | 00:00:00 | |
| PU1XMG-16 | 2026-09-04 23:53:39 | -22.80728 | -43.13877 | 72° | 104km/h | 6923m | 6.2m/s | -15.1°C | 66.5% | 434.1hPa | 0V | 00:00:00 | 00:00:00 | 00:00:00 | |
| PU1XMG-16 | 2026-09-04 23:53:33 | -22.80784 | -43.14041 | 73° | 110km/h | 6895m | 4.9m/s | -14.9°C | 63.6% | 435.7hPa | 0V | 00:00:00 | 00:00:00 | 00:00:00 | |
| PU1XMG-16 | 2026-09-04 23:53:30 | -22.80837 | -43.14183 | 70° | 119km/h | 6866m | 7.1m/s | -14.6°C | 61.4% | 437.3hPa | 0V | 00:00:00 | 00:00:00 | 00:00:00 | |
| PU1XMG-16 | 2026-09-04 23:53:16 | -22.80949 | -43.14509 | 78° | 113km/h | 6790m | 9.8m/s | -13.9°C | 57.6% | 441.6hPa | 0V | 00:00:00 | 00:00:00 | 00:00:00 | |
| PU1XMG-16 | 2026-09-04 23:53:10 | -22.80997 | -43.14665 | 69° | 110km/h | 6748m | 7.9m/s | -13.6°C | 54.1% | 443.9hPa | 0V | 00:00:00 | 00:00:00 | 00:00:00 | |
| PU1XMG-16 | 2026-09-04 23:53:04 | -22.81047 | -43.14843 | 70° | 108km/h | 6713m | 8.2m/s | -13.3°C | 52.5% | 446.0hPa | 0V | 00:00:00 | 00:00:00 | 00:00:00 | |
| PU1XMG-16 | 2026-09-04 23:52:59 | -22.81082 | -43.14976 | 80° | 104km/h | 6681m | 8.3m/s | -12.9°C | 51.2% | 448.2hPa | 0V | 00:00:00 | 00:00:00 | 00:00:00 | |
| PU1XMG-16 | 2026-09-04 23:52:54 | -22.81115 | -43.15101 | 76° | 84km/h | 6644m | 8.4m/s | -12.6°C | 50.9% | 450.2hPa | 0V | 00:00:00 | 00:00:00 | 00:00:00 | |
| PU1XMG-16 | 2026-09-04 23:52:48 | -22.81164 | -43.15247 | 67° | 100km/h | 6611m | 6.5m/s | -12.2°C | 49.0% | 452.3hPa | 0V | 00:00:00 | 00:00:00 | 00:00:00 | |
| PU1XMG-16 | 2026-09-04 23:52:43 | -22.81206 | -43.15370 | 77° | 99km/h | 6576m | 6.4m/s | -12.0°C | 46.2% | 454.3hPa | 0V | 00:00:00 | 00:00:00 | 00:00:00 | |
| PU1XMG-16 | 2026-09-04 23:52:37 | -22.81233 | -43.15520 | 82° | 100km/h | 6529m | 7.3m/s | -11.6°C | 44.4% | 457.0hPa | 0V | 00:00:00 | 00:00:00 | 00:00:00 | |
| PU1XMG-16 | 2026-09-04 23:52:33 | -22.81270 | -43.15647 | 73° | 93km/h | 6497m | 6.4m/s | -11.4°C | 43.5% | 458.8hPa | 0V | 00:00:00 | 00:00:00 | 00:00:00 | |
| PU1XMG-16 | 2026-09-04 23:52:26 | -22.81295 | -43.15795 | 75° | 86km/h | 6453m | 7.4m/s | -11.3°C | 40.4% | 461.2hPa | 0V | 00:00:00 | 00:00:00 | 00:00:00 | |
| PU1XMG-16 | 2026-09-04 23:52:22 | -22.81329 | -43.15916 | 80° | 91km/h | 6425m | 5.1m/s | -11.0°C | 39.0% | 463.2hPa | 0V | 00:00:00 | 00:00:00 | 00:00:00 | |
| PU1XMG-16 | 2026-09-04 23:52:16 | -22.81347 | -43.16049 | 87° | 104km/h | 6397m | 5.0m/s | -10.9°C | 35.5% | 465.0hPa | 0V | 00:00:00 | 00:00:00 | 00:00:00 | |
| PU1XMG-16 | 2026-09-04 23:52:10 | -22.81355 | -43.16202 | 89° | 82km/h | 6357m | 8.6m/s | -11.8°C | 14.8% | 467.4hPa | 0V | 00:00:00 | 00:00:00 | 00:00:00 | |
| PU1XMG-16 | 2026-09-04 23:52:04 | -22.81354 | -43.16346 | 96° | 78km/h | 6319m | 7.3m/s | -11.8°C | 10.8% | 469.6hPa | 0V | 00:00:00 | 00:00:00 | 00:00:00 | |
| PU1XMG-16 | 2026-09-04 23:51:58 | -22.81361 | -43.16462 | 85° | 73km/h | 6281m | 4.2m/s | -11.6°C | 8.2% | 472.2hPa | 0V | 00:00:00 | 00:00:00 | 00:00:00 | |
| PU1XMG-16 | 2026-09-04 23:51:52 | -22.81352 | -43.16596 | 97° | 84km/h | 6248m | 7.8m/s | -11.4°C | 9.1% | 474.4hPa | 0V | 00:00:00 | 00:00:00 | 00:00:00 | |
| PU1XMG-16 | 2026-09-04 23:51:46 | -22.81351 | -43.16727 | 87° | 86km/h | 6205m | 8.3m/s | -11.3°C | 10.1% | 476.7hPa | 0V | 00:00:00 | 00:00:00 | 00:00:00 | |
| PU1XMG-16 | 2026-09-04 23:51:35 | -22.81337 | -43.16984 | 100° | 84km/h | 6121m | 7.1m/s | -11.7°C | 20.7% | 482.1hPa | 0V | 00:00:00 | 00:00:00 | 00:00:00 | |
| PU1XMG-16 | 2026-09-04 23:51:30 | -22.81320 | -43.17092 | 95° | 80km/h | 6084m | 6.4m/s | -11.6°C | 21.3% | 484.3hPa | 0V | 00:00:00 | 00:00:00 | 00:00:00 | |
| PU1XMG-16 | 2026-09-04 23:51:24 | -22.81315 | -43.17229 | 91° | 82km/h | 6047m | 6.6m/s | -11.4°C | 24.3% | 486.8hPa | 0V | 00:00:00 | 00:00:00 | 00:00:00 | |
| PU1XMG-16 | 2026-09-04 23:51:19 | -22.81312 | -43.17325 | 97° | 68km/h | 6011m | 7.2m/s | -11.3°C | 30.0% | 489.0hPa | 0V | 00:00:00 | 00:00:00 | 00:00:00 | |
| PU1XMG-16 | 2026-09-04 23:51:14 | -22.81308 | -43.17412 | 81° | 60km/h | 5986m | 6.0m/s | -11.1°C | 31.5% | 490.7hPa | 0V | 00:00:00 | 00:00:00 | 00:00:00 | |
| PU1XMG-16 | 2026-09-04 23:51:08 | -22.81309 | -43.17524 | 96° | 58km/h | 5943m | 8.7m/s | -10.8°C | 27.5% | 493.3hPa | 0V | 00:00:00 | 00:00:00 | 00:00:00 | |
| PU1XMG-16 | 2026-09-04 23:51:02 | -22.81315 | -43.17620 | 92° | 60km/h | 5903m | 8.0m/s | -10.4°C | 23.7% | 495.9hPa | 0V | 00:00:00 | 00:00:00 | 00:00:00 | |
| PU1XMG-16 | 2026-09-04 23:50:56 | -22.81314 | -43.17724 | 84° | 73km/h | 5858m | 7.3m/s | -9.9°C | 22.0% | 498.8hPa | 0V | 00:00:00 | 00:00:00 | 00:00:00 | |
| PU1XMG-16 | 2026-09-04 23:50:50 | -22.81342 | -43.17833 | 82° | 69km/h | 5809m | 9.3m/s | -9.6°C | 24.5% | 502.0hPa | 0V | 00:00:00 | 00:00:00 | 00:00:00 | |
| PU1XMG-16 | 2026-09-04 23:50:39 | -22.81334 | -43.18031 | 81° | 60km/h | 5724m | 12.2m/s | -8.7°C | 20.5% | 507.5hPa | 0V | 00:00:00 | 00:00:00 | 00:00:00 | |
| PU1XMG-16 | 2026-09-04 23:50:34 | -22.81343 | -43.18120 | 81° | 68km/h | 5675m | 11.2m/s | -9.3°C | 39.0% | 510.9hPa | 0V | 00:00:00 | 00:00:00 | 00:00:00 | |
| PU1XMG-16 | 2026-09-04 23:50:28 | -22.81354 | -43.18234 | 85° | 86km/h | 5611m | 11.4m/s | -9.0°C | 34.5% | 514.7hPa | 0V | 00:00:00 | 00:00:00 | 00:00:00 | |
| PU1XMG-16 | 2026-09-04 23:50:22 | -22.81361 | -43.18367 | 94° | 86km/h | 5542m | 10.5m/s | -8.2°C | 32.2% | 519.1hPa | 0V | 00:00:00 | 00:00:00 | 00:00:00 | |
| PU1XMG-16 | 2026-09-04 23:50:17 | -22.81364 | -43.18466 | 80° | 57km/h | 5485m | 12.7m/s | -6.6°C | 18.8% | 522.9hPa | 0V | 00:00:00 | 00:00:00 | 00:00:00 | |
| PU1XMG-16 | 2026-09-04 23:50:11 | -22.81384 | -43.18563 | 81° | 71km/h | 5425m | 10.4m/s | -6.2°C | 20.4% | 527.1hPa | 0V | 00:00:00 | 00:00:00 | 00:00:00 | |
| PU1XMG-16 | 2026-09-04 23:50:05 | -22.81404 | -43.18671 | 79° | 66km/h | 5372m | 6.4m/s | -6.7°C | 29.2% | 530.8hPa | 0V | 00:00:00 | 00:00:00 | 00:00:00 | |
| PU1XMG-16 | 2026-09-04 23:50:00 | -22.81401 | -43.18759 | 94° | 75km/h | 5336m | 6.6m/s | -6.2°C | 27.5% | 533.3hPa | 0V | 00:00:00 | 00:00:00 | 00:00:00 | |
| PU1XMG-16 | 2026-09-04 23:49:55 | -22.81417 | -43.18846 | 75° | 55km/h | 5308m | 4.7m/s | -6.0°C | 25.4% | 535.4hPa | 0V | 00:00:00 | 00:00:00 | 00:00:00 | |
| PU1XMG-16 | 2026-09-04 23:49:49 | -22.81432 | -43.18950 | 79° | 68km/h | 5275m | 7.1m/s | -5.5°C | 23.6% | 537.7hPa | 0V | 00:00:00 | 00:00:00 | 00:00:00 | |
| PU1XMG-16 | 2026-09-04 23:49:44 | -22.81447 | -43.19064 | 86° | 57km/h | 5243m | 7.7m/s | -5.9°C | 27.8% | 539.7hPa | 0V | 00:00:00 | 00:00:00 | 00:00:00 | |
| PU1XMG-16 | 2026-09-04 23:49:38 | -22.81447 | -43.19132 | 100° | 55km/h | 5209m | 4.5m/s | -5.4°C | 26.6% | 542.2hPa | 0V | 00:00:00 | 00:00:00 | 00:00:00 | |
| PU1XMG-16 | 2026-09-04 23:49:32 | -22.81444 | -43.19212 | 91° | 46km/h | 5173m | 6.6m/s | -6.2°C | 44.4% | 544.6hPa | 0V | 00:00:00 | 00:00:00 | 00:00:00 | |
| PU1XMG-16 | 2026-09-04 23:49:26 | -22.81451 | -43.19281 | 96° | 42km/h | 5144m | 5.5m/s | -6.1°C | 46.4% | 546.6hPa | 0V | 00:00:00 | 00:00:00 | 00:00:00 | |
| PU1XMG-16 | 2026-09-04 23:49:21 | -22.81453 | -43.19340 | 101° | 44km/h | 5120m | 4.3m/s | -5.9°C | 45.4% | 548.1hPa | 0V | 00:00:00 | 00:00:00 | 00:00:00 | |
| PU1XMG-16 | 2026-09-04 23:49:15 | -22.81440 | -43.19396 | 65° | 24km/h | 5103m | 6.4m/s | -6.6°C | 68.3% | 549.2hPa | 0V | 00:00:00 | 00:00:00 | 00:00:00 | |
| PU1XMG-16 | 2026-09-04 23:49:10 | -22.81452 | -43.19439 | 93° | 47km/h | 5079m | 5.1m/s | -7.1°C | 82.5% | 550.9hPa | 0V | 00:00:00 | 00:00:00 | 00:00:00 | |
| PU1XMG-16 | 2026-09-04 23:49:05 | -22.81440 | -43.19496 | 96° | 37km/h | 5051m | 6.7m/s | -6.4°C | 0% | 553.0hPa | 0V | 00:00:00 | 00:00:00 | 00:00:00 | |
| PU1XMG-16 | 2026-09-04 23:48:59 | -22.81434 | -43.19561 | 95° | 40km/h | 5011m | 7.3m/s | -6.0°C | 91.6% | 555.8hPa | 0V | 00:00:00 | 00:00:00 | 00:00:00 | |
| PU1XMG-16 | 2026-09-04 23:48:54 | -22.81427 | -43.19629 | 96° | 40km/h | 4982m | 6.3m/s | -5.8°C | 98.4% | 557.9hPa | 0V | 00:00:00 | 00:00:00 | 00:00:00 | |
| PU1XMG-16 | 2026-09-04 23:48:48 | -22.81434 | -43.19686 | 80° | 49km/h | 4933m | 9.1m/s | -5.3°C | 91.8% | 561.2hPa | 0V | 00:00:00 | 00:00:00 | 00:00:00 | |
| PU1XMG-16 | 2026-09-04 23:48:42 | -22.81464 | -43.19761 | 58° | 46km/h | 4882m | 9.7m/s | -5.1°C | 79.7% | 564.7hPa | 0V | 00:00:00 | 00:00:00 | 00:00:00 | |
| PU1XMG-16 | 2026-09-04 23:48:37 | -22.81491 | -43.19825 | 61° | 46km/h | 4848m | 9.3m/s | -4.8°C | 84.1% | 567.2hPa | 0V | 00:00:00 | 00:00:00 | 00:00:00 | |
| PU1XMG-16 | 2026-09-04 23:48:31 | -22.81525 | -43.19875 | 71° | 33km/h | 4803m | 8.9m/s | -3.7°C | 46.0% | 570.6hPa | 0V | 00:00:00 | 00:00:00 | 00:00:00 | |
| PU1XMG-16 | 2026-09-04 23:48:24 | -22.81543 | -43.19937 | 89° | 27km/h | 4766m | 2.8m/s | -3.2°C | 35.4% | 573.3hPa | 0V | 00:00:00 | 00:00:00 | 00:00:00 | |
| PU1XMG-16 | 2026-09-04 23:48:20 | -22.81554 | -43.19991 | 76° | 53km/h | 4743m | 4.0m/s | -3.1°C | 35.7% | 575.0hPa | 0V | 00:00:00 | 00:00:00 | 00:00:00 | |
| PU1XMG-16 | 2026-09-04 23:48:14 | -22.81564 | -43.20058 | 101° | 33km/h | 4717m | 6.8m/s | -3.0°C | 45.7% | 577.2hPa | 0V | 00:00:00 | 00:00:00 | 00:00:00 | |
| PU1XMG-16 | 2026-09-04 23:48:09 | -22.81556 | -43.20104 | 77° | 31km/h | 4698m | 4.3m/s | -3.0°C | 42.2% | 578.2hPa | 0V | 00:00:00 | 00:00:00 | 00:00:00 | |
| PU1XMG-16 | 2026-09-04 23:48:03 | -22.81575 | -43.20162 | 80° | 29km/h | 4665m | 5.9m/s | -3.3°C | 53.9% | 580.5hPa | 0V | 00:00:00 | 00:00:00 | 00:00:00 | |
| PU1XMG-16 | 2026-09-04 23:47:57 | -22.81572 | -43.20207 | 84° | 35km/h | 4640m | 3.8m/s | -3.4°C | 58.2% | 582.3hPa | 0V | 00:00:00 | 00:00:00 | 00:00:00 | |
| PU1XMG-16 | 2026-09-04 23:47:51 | -22.81574 | -43.20250 | 83° | 33km/h | 4612m | 3.5m/s | -3.3°C | 70.0% | 584.5hPa | 0V | 00:00:00 | 00:00:00 | 00:00:00 | |
| PU1XMG-16 | 2026-09-04 23:47:46 | -22.81583 | -43.20297 | 69° | 46km/h | 4592m | 1.9m/s | -3.2°C | 80.0% | 586.0hPa | 0V | 00:00:00 | 00:00:00 | 00:00:00 | |
| PU1XMG-16 | 2026-09-04 23:47:40 | -22.81601 | -43.20351 | 79° | 40km/h | 4574m | 1.9m/s | -3.3°C | 61.8% | 587.3hPa | 0V | 00:00:00 | 00:00:00 | 00:00:00 | |
| PU1XMG-16 | 2026-09-04 23:47:35 | -22.81604 | -43.20410 | 87° | 35km/h | 4558m | 1.4m/s | -3.1°C | 58.3% | 588.6hPa | 0V | 00:00:00 | 00:00:00 | 00:00:00 | |
| PU1XMG-16 | 2026-09-04 23:47:28 | -22.81619 | -43.20450 | 61° | 37km/h | 4534m | 1.1m/s | -3.1°C | 81.5% | 590.3hPa | 0V | 00:00:00 | 00:00:00 | 00:00:00 | |
| PU1XMG-16 | 2026-09-04 23:47:23 | -22.81633 | -43.20493 | 73° | 40km/h | 4518m | 4.4m/s | -3.0°C | 91.6% | 591.7hPa | 0V | 00:00:00 | 00:00:00 | 00:00:00 | |
| PU1XMG-16 | 2026-09-04 23:47:17 | -22.81638 | -43.20569 | 81° | 44km/h | 4501m | 3.4m/s | -2.7°C | 80.6% | 592.8hPa | 0V | 00:00:00 | 00:00:00 | 00:00:00 | |
| PU1XMG-16 | 2026-09-04 23:47:11 | -22.81645 | -43.20623 | 83° | 40km/h | 4483m | 3.3m/s | -2.9°C | 86.1% | 594.1hPa | 0V | 00:00:00 | 00:00:00 | 00:00:00 | |
| PU1XMG-16 | 2026-09-04 23:47:06 | -22.81657 | -43.20675 | 93° | 31km/h | 4469m | 2.0m/s | -2.3°C | 0% | 595.1hPa | 0V | 00:00:00 | 00:00:00 | 00:00:00 | |
| PU1XMG-16 | 2026-09-04 23:47:01 | -22.81657 | -43.20710 | 90° | 24km/h | 4445m | 6.1m/s | -1.8°C | 0% | 596.9hPa | 0V | 00:00:00 | 00:00:00 | 00:00:00 | |
| PU1XMG-16 | 2026-09-04 23:46:56 | -22.81666 | -43.20765 | 86° | 47km/h | 4424m | 4.4m/s | -1.6°C | 0% | 598.5hPa | 0V | 00:00:00 | 00:00:00 | 00:00:00 | |
| PU1XMG-16 | 2026-09-04 23:46:51 | -22.81665 | -43.20811 | 108° | 29km/h | 4399m | 7.2m/s | -1.3°C | 0% | 600.5hPa | 0V | 00:00:00 | 00:00:00 | 00:00:00 | |
| PU1XMG-16 | 2026-09-04 23:46:46 | -22.81665 | -43.20861 | 101° | 37km/h | 4361m | 3.9m/s | -1.3°C | 0% | 603.2hPa | 0V | 00:00:00 | 00:00:00 | 00:00:00 | |
| PU1XMG-16 | 2026-09-04 23:46:39 | -22.81667 | -43.20913 | 75° | 46km/h | 4341m | 4.4m/s | -1.5°C | 0% | 604.7hPa | 0V | 00:00:00 | 00:00:00 | 00:00:00 | |
| PU1XMG-16 | 2026-09-04 23:46:35 | -22.81667 | -43.20967 | 100° | 44km/h | 4316m | 8.4m/s | -1.3°C | 0% | 606.9hPa | 0V | 00:00:00 | 00:00:00 | 00:00:00 | |
| PU1XMG-16 | 2026-09-04 23:46:29 | -22.81662 | -43.21057 | 97° | 46km/h | 4280m | 8.5m/s | -1.5°C | 99.6% | 609.3hPa | 0V | 00:00:00 | 00:00:00 | 00:00:00 | |
| PU1XMG-16 | 2026-09-04 23:46:22 | -22.81647 | -43.21118 | 94° | 49km/h | 4241m | 7.1m/s | -1.0°C | 98.3% | 612.4hPa | 0V | 00:00:00 | 00:00:00 | 00:00:00 | |
| PU1XMG-16 | 2026-09-04 23:46:17 | -22.81648 | -43.21177 | 97° | 46km/h | 4205m | 8.2m/s | -0.8°C | 94.4% | 615.0hPa | 0V | 00:00:00 | 00:00:00 | 00:00:00 | |
| PU1XMG-16 | 2026-09-04 23:46:12 | -22.81620 | -43.21236 | 130° | 42km/h | 4182m | 3.3m/s | -0.7°C | 99.1% | 616.8hPa | 0V | 00:00:00 | 00:00:00 | 00:00:00 | |
| PU1XMG-16 | 2026-09-04 23:46:07 | -22.81590 | -43.21292 | 112° | 46km/h | 4156m | 6.2m/s | -0.2°C | 89.6% | 618.8hPa | 0V | 00:00:00 | 00:00:00 | 00:00:00 | |
| PU1XMG-16 | 2026-09-04 23:46:01 | -22.81568 | -43.21362 | 91° | 46km/h | 4135m | 6.0m/s | 0.8°C | 66.7% | 620.8hPa | 0V | 00:00:00 | 00:00:00 | 00:00:00 | |
| PU1XMG-16 | 2026-09-04 23:45:56 | -22.81555 | -43.21431 | 115° | 60km/h | 4116m | 5.7m/s | 0.3°C | 83.7% | 622.1hPa | 0V | 00:00:00 | 00:00:00 | 00:00:00 | |
| PU1XMG-16 | 2026-09-04 23:45:51 | -22.81536 | -43.21484 | 99° | 38km/h | 4090m | 5.4m/s | 0.8°C | 76.3% | 623.9hPa | 0V | 00:00:00 | 00:00:00 | 00:00:00 | |
| PU1XMG-16 | 2026-09-04 23:45:46 | -22.81530 | -43.21551 | 107° | 42km/h | 4069m | 4.6m/s | 0.5°C | 88.0% | 625.4hPa | 0V | 00:00:00 | 00:00:00 | 00:00:00 | |
| PU1XMG-16 | 2026-09-04 23:45:41 | -22.81511 | -43.21606 | 123° | 35km/h | 4040m | 5.7m/s | 1.6°C | 67.0% | 627.6hPa | 0V | 00:00:00 | 00:00:00 | 00:00:00 | |
| PU1XMG-16 | 2026-09-04 23:45:35 | -22.81492 | -43.21667 | 93° | 46km/h | 4021m | 4.3m/s | 1.8°C | 67.9% | 629.2hPa | 0V | 00:00:00 | 00:00:00 | 00:00:00 | |
| PU1XMG-16 | 2026-09-04 23:45:29 | -22.81491 | -43.21747 | 95° | 37km/h | 4001m | 3.8m/s | 1.5°C | 81.0% | 630.8hPa | 0V | 00:00:00 | 00:00:00 | 00:00:00 | |
| PU1XMG-16 | 2026-09-04 23:45:24 | -22.81472 | -43.21813 | 100° | 47km/h | 3976m | 6.1m/s | 2.1°C | 69.3% | 632.8hPa | 0V | 00:00:00 | 00:00:00 | 00:00:00 | |
| PU1XMG-16 | 2026-09-04 23:45:18 | -22.81463 | -43.21862 | 89° | 35km/h | 3953m | 3.8m/s | 2.0°C | 75.1% | 634.6hPa | 0V | 00:00:00 | 00:00:00 | 00:00:00 | |
| PU1XMG-16 | 2026-09-04 23:45:12 | -22.81453 | -43.21911 | 105° | 40km/h | 3928m | 5.6m/s | 2.1°C | 77.1% | 636.4hPa | 0V | 00:00:00 | 00:00:00 | 00:00:00 | |
| PU1XMG-16 | 2026-09-04 23:45:09 | -22.81446 | -43.21969 | 107° | 42km/h | 3910m | 7.1m/s | 2.6°C | 67.7% | 637.9hPa | 0V | 00:00:00 | 00:00:00 | 00:00:00 | |
| PU1XMG-16 | 2026-09-04 23:45:02 | -22.81442 | -43.22034 | 103° | 49km/h | 3883m | 4.5m/s | 2.9°C | 66.7% | 639.8hPa | 0V | 00:00:00 | 00:00:00 | 00:00:00 | |
| PU1XMG-16 | 2026-09-04 23:44:55 | -22.81429 | -43.22114 | 83° | 46km/h | 3870m | -0.1m/s | 2.8°C | 69.4% | 641.2hPa | 0V | 00:00:00 | 00:00:00 | 00:00:00 | |
| PU1XMG-16 | 2026-09-04 23:44:49 | -22.81428 | -43.22169 | 89° | 33km/h | 3855m | 0.8m/s | 2.9°C | 70.2% | 642.3hPa | 0V | 00:00:00 | 00:00:00 | 00:00:00 | |
| PU1XMG-16 | 2026-09-04 23:44:44 | -22.81429 | -43.22227 | 98° | 38km/h | 3841m | 1.3m/s | 3.1°C | 64.9% | 643.5hPa | 0V | 00:00:00 | 00:00:00 | 00:00:00 | |
| PU1XMG-16 | 2026-09-04 23:44:38 | -22.81420 | -43.22299 | 84° | 40km/h | 3824m | 5.1m/s | 2.9°C | 69.6% | 644.8hPa | 0V | 00:00:00 | 00:00:00 | 00:00:00 | |
| PU1XMG-16 | 2026-09-04 23:44:33 | -22.81424 | -43.22359 | 96° | 46km/h | 3814m | 3.1m/s | 2.8°C | 72.4% | 645.6hPa | 0V | 00:00:00 | 00:00:00 | 00:00:00 | |
| PU1XMG-16 | 2026-09-04 23:44:27 | -22.81424 | -43.22429 | 84° | 44km/h | 3794m | 4.8m/s | 2.9°C | 69.9% | 647.5hPa | 0V | 00:00:00 | 00:00:00 | 00:00:00 | |
| PU1XMG-16 | 2026-09-04 23:44:21 | -22.81422 | -43.22499 | 104° | 33km/h | 3773m | 6.5m/s | 2.7°C | 79.4% | 649.0hPa | 0V | 00:00:00 | 00:00:00 | 00:00:00 | |
| PU1XMG-16 | 2026-09-04 23:44:16 | -22.81421 | -43.22547 | 82° | 47km/h | 3755m | 2.9m/s | 2.6°C | 77.8% | 650.4hPa | 0V | 00:00:00 | 00:00:00 | 00:00:00 | |
| PU1XMG-16 | 2026-09-04 23:44:10 | -22.81415 | -43.22618 | 78° | 29km/h | 3740m | 4.2m/s | 2.7°C | 79.3% | 651.4hPa | 0V | 00:00:00 | 00:00:00 | 00:00:00 | |
| PU1XMG-16 | 2026-09-04 23:44:05 | -22.81430 | -43.22675 | 81° | 44km/h | 3727m | 3.3m/s | 2.7°C | 80.9% | 652.5hPa | 0V | 00:00:00 | 00:00:00 | 00:00:00 | |
| PU1XMG-16 | 2026-09-04 23:43:59 | -22.81434 | -43.22744 | 100° | 33km/h | 3711m | 2.6m/s | 2.8°C | 83.3% | 654.0hPa | 0V | 00:00:00 | 00:00:00 | 00:00:00 | |
| PU1XMG-16 | 2026-09-04 23:43:54 | -22.81438 | -43.22796 | 93° | 42km/h | 3699m | 2.8m/s | 4.0°C | 0% | 654.9hPa | 0V | 00:00:00 | 00:00:00 | 00:00:00 | |
| PU1XMG-16 | 2026-09-04 23:43:48 | -22.81447 | -43.22862 | 86° | 47km/h | 3673m | 7.4m/s | 4.0°C | 0% | 656.9hPa | 0V | 00:00:00 | 00:00:00 | 00:00:00 | |
| PU1XMG-16 | 2026-09-04 23:43:43 | -22.81442 | -43.22908 | 90° | 20km/h | 3643m | 3.8m/s | 3.8°C | 0% | 658.9hPa | 0V | 00:00:00 | 00:00:00 | 00:00:00 | |
| PU1XMG-16 | 2026-09-04 23:43:38 | -22.81436 | -43.22961 | 103° | 35km/h | 3610m | 2.6m/s | 4.0°C | 0% | 661.9hPa | 0V | 00:00:00 | 00:00:00 | 00:00:00 | |
| PU1XMG-16 | 2026-09-04 23:43:32 | -22.81428 | -43.23019 | 93° | 38km/h | 3584m | 4.4m/s | 4.0°C | 94.9% | 663.9hPa | 0V | 00:00:00 | 00:00:00 | 00:00:00 | |
| PU1XMG-16 | 2026-09-04 23:43:21 | -22.81435 | -43.23187 | 104° | 55km/h | 3548m | 3.9m/s | 4.2°C | 87.3% | 666.9hPa | 0V | 00:00:00 | 00:00:00 | 00:00:00 | |
| PU1XMG-16 | 2026-09-04 23:43:15 | -22.81434 | -43.23252 | 82° | 55km/h | 3529m | 5.5m/s | 4.6°C | 0% | 668.4hPa | 0V | 00:00:00 | 00:00:00 | 00:00:00 | |
| PU1XMG-16 | 2026-09-04 23:43:10 | -22.81440 | -43.23322 | 87° | 37km/h | 3503m | 2.1m/s | 4.3°C | 0% | 670.3hPa | 0V | 00:00:00 | 00:00:00 | 00:00:00 | |
| PU1XMG-16 | 2026-09-04 23:43:05 | -22.81441 | -43.23378 | 107° | 38km/h | 3467m | 10.4m/s | 4.8°C | 97.3% | 673.0hPa | 0V | 00:00:00 | 00:00:00 | 00:00:00 | |
| PU1XMG-16 | 2026-09-04 23:42:59 | -22.81414 | -43.23441 | 123° | 40km/h | 3417m | 8.8m/s | 7.2°C | 0% | 677.5hPa | 0V | 00:00:00 | 00:00:00 | 00:00:00 | |
| PU1XMG-16 | 2026-09-04 23:42:54 | -22.81384 | -43.23487 | 136° | 42km/h | 3388m | 8.0m/s | 7.3°C | 0% | 680.0hPa | 0V | 00:00:00 | 00:00:00 | 00:00:00 | |
| PU1XMG-16 | 2026-09-04 23:42:49 | -22.81362 | -43.23520 | 142° | 33km/h | 3350m | 8.7m/s | 7.5°C | 0% | 683.1hPa | 0V | 00:00:00 | 00:00:00 | 00:00:00 | |
| PU1XMG-16 | 2026-09-04 23:42:44 | -22.81317 | -43.23562 | 146° | 53km/h | 3306m | 8.7m/s | 7.7°C | 0% | 686.9hPa | 0V | 00:00:00 | 00:00:00 | 00:00:00 | |
| PU1XMG-16 | 2026-09-04 23:42:38 | -22.81278 | -43.23606 | 151° | 18km/h | 3244m | 9.7m/s | 7.6°C | 0% | 691.6hPa | 0V | 00:00:00 | 00:00:00 | 00:00:00 | |
| PU1XMG-16 | 2026-09-04 23:42:33 | -22.81238 | -43.23632 | 138° | 60km/h | 3191m | 10.6m/s | 7.8°C | 0% | 696.0hPa | 0V | 00:00:00 | 00:00:00 | 00:00:00 | |
| PU1XMG-16 | 2026-09-04 23:42:28 | -22.81196 | -43.23668 | 149° | 20km/h | 3142m | 9.7m/s | 7.7°C | 0% | 700.3hPa | 0V | 00:00:00 | 00:00:00 | 00:00:00 | |
| PU1XMG-16 | 2026-09-04 23:42:22 | -22.81164 | -43.23704 | 120° | 42km/h | 3083m | 9.1m/s | 7.7°C | 0% | 705.4hPa | 0V | 00:00:00 | 00:00:00 | 00:00:00 | |
| PU1XMG-16 | 2026-09-04 23:42:16 | -22.81125 | -43.23761 | 116° | 37km/h | 3028m | 9.5m/s | 7.9°C | 98.7% | 710.1hPa | 0V | 00:00:00 | 00:00:00 | 00:00:00 | |
| PU1XMG-16 | 2026-09-04 23:42:10 | -22.81087 | -43.23812 | 152° | 33km/h | 2985m | 9.8m/s | 8.2°C | 98.6% | 714.1hPa | 0V | 00:00:00 | 00:00:00 | 00:00:00 | |
| PU1XMG-16 | 2026-09-04 23:42:04 | -22.81039 | -43.23858 | 140° | 38km/h | 2933m | 7.7m/s | 8.6°C | 97.1% | 718.6hPa | 0V | 00:00:00 | 00:00:00 | 00:00:00 | |
| PU1XMG-16 | 2026-09-04 23:41:59 | -22.81012 | -43.23915 | 104° | 46km/h | 2891m | 9.1m/s | 9.3°C | 99.8% | 722.1hPa | 0V | 00:00:00 | 00:00:00 | 00:00:00 | |
| PU1XMG-16 | 2026-09-04 23:41:54 | -22.80985 | -43.23957 | 143° | 26km/h | 2852m | 5.1m/s | 9.8°C | 0% | 725.5hPa | 0V | 00:00:00 | 00:00:00 | 00:00:00 | |
| PU1XMG-16 | 2026-09-04 23:41:48 | -22.80947 | -43.23997 | 106° | 31km/h | 2815m | 6.1m/s | 9.5°C | 0% | 728.6hPa | 0V | 00:00:00 | 00:00:00 | 00:00:00 | |
| PU1XMG-16 | 2026-09-04 23:41:37 | -22.80899 | -43.24068 | 120° | 26km/h | 2745m | 10.1m/s | 10.2°C | 0% | 734.8hPa | 0V | 00:00:00 | 00:00:00 | 00:00:00 | |
| PU1XMG-16 | 2026-09-04 23:41:31 | -22.80880 | -43.24110 | 129° | 29km/h | 2700m | 8.2m/s | 10.8°C | 0% | 738.6hPa | 0V | 00:00:00 | 00:00:00 | 00:00:00 | |
| PU1XMG-16 | 2026-09-04 23:41:26 | -22.80868 | -43.24140 | 122° | 31km/h | 2668m | 6.2m/s | 10.9°C | 0% | 741.6hPa | 0V | 00:00:00 | 00:00:00 | 00:00:00 | |
| PU1XMG-16 | 2026-09-04 23:41:21 | -22.80853 | -43.24173 | 111° | 33km/h | 2637m | 6.0m/s | 10.5°C | 99.5% | 744.6hPa | 0V | 00:00:00 | 00:00:00 | 00:00:00 | |
| PU1XMG-16 | 2026-09-04 23:41:15 | -22.80835 | -43.24194 | 141° | 16km/h | 2598m | 7.6m/s | 10.8°C | 90.0% | 748.1hPa | 0V | 00:00:00 | 00:00:00 | 00:00:00 | |
| PU1XMG-16 | 2026-09-04 23:41:10 | -22.80820 | -43.24213 | 151° | 15km/h | 2566m | 6.4m/s | 11.2°C | 84.5% | 750.9hPa | 0V | 00:00:00 | 00:00:00 | 00:00:00 | |
| PU1XMG-16 | 2026-09-04 23:41:06 | -22.80804 | -43.24239 | 82° | 20km/h | 2535m | 6.4m/s | 11.5°C | 80.0% | 753.7hPa | 0V | 00:00:00 | 00:00:00 | 00:00:00 | |
| PU1XMG-16 | 2026-09-04 23:40:59 | -22.80795 | -43.24262 | 113° | 26km/h | 2501m | 7.9m/s | 11.9°C | 78.1% | 756.7hPa | 0V | 00:00:00 | 00:00:00 | 00:00:00 | |
| PU1XMG-16 | 2026-09-04 23:40:53 | -22.80786 | -43.24292 | 118° | 26km/h | 2461m | 6.3m/s | 12.2°C | 75.8% | 760.3hPa | 0V | 00:00:00 | 00:00:00 | 00:00:00 | |
| PU1XMG-16 | 2026-09-04 23:40:47 | -22.80774 | -43.24310 | 120° | 16km/h | 2420m | 5.8m/s | 12.5°C | 74.0% | 764.0hPa | 0V | 00:00:00 | 00:00:00 | 00:00:00 | |
| PU1XMG-16 | 2026-09-04 23:40:42 | -22.80766 | -43.24327 | 111° | 18km/h | 2389m | 7.8m/s | 12.8°C | 71.8% | 766.9hPa | 0V | 00:00:00 | 00:00:00 | 00:00:00 | |
| PU1XMG-16 | 2026-09-04 23:40:36 | -22.80754 | -43.24348 | 143° | 20km/h | 2350m | 7.9m/s | 13.1°C | 66.8% | 770.4hPa | 0V | 00:00:00 | 00:00:00 | 00:00:00 | |
| PU1XMG-16 | 2026-09-04 23:40:31 | -22.80751 | -43.24358 | 94° | 15km/h | 2321m | 7.4m/s | 13.4°C | 65.0% | 773.1hPa | 0V | 00:00:00 | 00:00:00 | 00:00:00 | |
| PU1XMG-16 | 2026-09-04 23:40:25 | -22.80745 | -43.24392 | 89° | 11km/h | 2287m | 7.3m/s | 13.7°C | 63.8% | 776.4hPa | 0V | 00:00:00 | 00:00:00 | 00:00:00 | |
| PU1XMG-16 | 2026-09-04 23:40:20 | -22.80740 | -43.24392 | 116° | 13km/h | 2253m | 7.5m/s | 13.9°C | 63.3% | 779.3hPa | 0V | 00:00:00 | 00:00:00 | 00:00:00 | |
| PU1XMG-16 | 2026-09-04 23:40:15 | -22.80727 | -43.24423 | 108° | 24km/h | 2224m | 7.5m/s | 14.0°C | 66.0% | 782.0hPa | 0V | 00:00:00 | 00:00:00 | 00:00:00 | |
| PU1XMG-16 | 2026-09-04 23:40:10 | -22.80732 | -43.24430 | 29° | 7km/h | 2189m | 7.4m/s | 14.2°C | 67.7% | 785.0hPa | 0V | 00:00:00 | 00:00:00 | 00:00:00 | |
| PU1XMG-16 | 2026-09-04 23:40:04 | -22.80742 | -43.24446 | 250° | 4km/h | 2149m | 6.6m/s | 14.6°C | 67.6% | 788.8hPa | 0V | 00:00:00 | 00:00:00 | 00:00:00 | |
| PU1XMG-16 | 2026-09-04 23:39:59 | -22.80742 | -43.24454 | 64° | 16km/h | 2119m | 7.8m/s | 14.8°C | 69.3% | 791.6hPa | 0V | 00:00:00 | 00:00:00 | 00:00:00 | |
| PU1XMG-16 | 2026-09-04 23:39:53 | -22.80730 | -43.24471 | 111° | 13km/h | 2086m | 8.5m/s | 15.1°C | 70.0% | 794.9hPa | 0V | 00:00:00 | 00:00:00 | 00:00:00 | |
| PU1XMG-16 | 2026-09-04 23:39:48 | -22.80724 | -43.24482 | 205° | 15km/h | 2054m | 10.0m/s | 15.3°C | 72.5% | 797.8hPa | 0V | 00:00:00 | 00:00:00 | 00:00:00 | |
| PU1XMG-16 | 2026-09-04 23:39:42 | -22.80721 | -43.24495 | 140° | 7km/h | 2009m | 8.1m/s | 15.4°C | 78.6% | 801.8hPa | 0V | 00:00:00 | 00:00:00 | 00:00:00 | |
| PU1XMG-16 | 2026-09-04 23:39:37 | -22.80714 | -43.24499 | 322° | 7km/h | 1983m | 3.4m/s | 15.5°C | 80.9% | 804.6hPa | 0V | 00:00:00 | 00:00:00 | 00:00:00 | |
| PU1XMG-16 | 2026-09-04 23:39:31 | -22.80707 | -43.24503 | 74° | 9km/h | 1942m | 6.3m/s | 15.7°C | 82.0% | 808.2hPa | 0V | 00:00:00 | 00:00:00 | 00:00:00 | |
| PU1XMG-16 | 2026-09-04 23:39:26 | -22.80709 | -43.24510 | 63° | 13km/h | 1911m | 7.4m/s | 15.8°C | 83.6% | 810.9hPa | 0V | 00:00:00 | 00:00:00 | 00:00:00 | |
| PU1XMG-16 | 2026-09-04 23:39:20 | -22.80709 | -43.24512 | 132° | 11km/h | 1871m | 6.7m/s | 15.8°C | 82.7% | 815.0hPa | 0V | 00:00:00 | 00:00:00 | 00:00:00 | |
| PU1XMG-16 | 2026-09-04 23:39:15 | -22.80699 | -43.24520 | 121° | 9km/h | 1840m | 5.5m/s | 16.0°C | 78.7% | 818.0hPa | 0V | 00:00:00 | 00:00:00 | 00:00:00 | |
| PU1XMG-16 | 2026-09-04 23:39:09 | -22.80687 | -43.24507 | 252° | 22km/h | 1807m | 5.1m/s | 16.1°C | 79.1% | 820.9hPa | 0V | 00:00:00 | 00:00:00 | 00:00:00 | |
| PU1XMG-16 | 2026-09-04 23:39:04 | -22.80669 | -43.24502 | 198° | 18km/h | 1768m | 4.7m/s | 16.3°C | 83.2% | 824.6hPa | 0V | 00:00:00 | 00:00:00 | 00:00:00 | |
| PU1XMG-16 | 2026-09-04 23:38:57 | -22.80655 | -43.24492 | 240° | 15km/h | 1732m | 8.0m/s | 16.4°C | 87.5% | 828.3hPa | 0V | 00:00:00 | 00:00:00 | 00:00:00 | |
| PU1XMG-16 | 2026-09-04 23:38:51 | -22.80647 | -43.24486 | 358° | 9km/h | 1693m | 6.9m/s | 16.5°C | 82.7% | 831.8hPa | 0V | 00:00:00 | 00:00:00 | 00:00:00 | |
| PU1XMG-16 | 2026-09-04 23:38:45 | -22.80648 | -43.24495 | 176° | 7km/h | 1663m | 7.5m/s | 16.7°C | 77.8% | 834.9hPa | 0V | 00:00:00 | 00:00:00 | 00:00:00 | |
| PU1XMG-16 | 2026-09-04 23:38:39 | -22.80647 | -43.24495 | 122° | 4km/h | 1623m | 6.8m/s | 17.0°C | 78.0% | 838.9hPa | 0V | 00:00:00 | 00:00:00 | 00:00:00 | |
| PU1XMG-16 | 2026-09-04 23:38:33 | -22.80644 | -43.24502 | 43° | 5km/h | 1583m | 6.4m/s | 17.4°C | 62.9% | 842.6hPa | 0V | 00:00:00 | 00:00:00 | 00:00:00 | |
| PU1XMG-16 | 2026-09-04 23:38:28 | -22.80647 | -43.24502 | 36° | 11km/h | 1554m | 5.4m/s | 17.9°C | 51.9% | 845.6hPa | 0V | 00:00:00 | 00:00:00 | 00:00:00 | |
| PU1XMG-16 | 2026-09-04 23:38:23 | -22.80660 | -43.24498 | 168° | 2km/h | 1525m | 4.9m/s | 18.2°C | 49.7% | 848.6hPa | 0V | 00:00:00 | 00:00:00 | 00:00:00 | |
| PU1XMG-16 | 2026-09-04 23:38:17 | -22.80667 | -43.24497 | 5° | 22km/h | 1490m | 5.2m/s | 18.5°C | 47.6% | 851.9hPa | 0V | 00:00:00 | 00:00:00 | 00:00:00 | |
| PU1XMG-16 | 2026-09-04 23:38:12 | -22.80689 | -43.24490 | 357° | 11km/h | 1462m | 6.2m/s | 18.8°C | 44.4% | 854.5hPa | 0V | 00:00:00 | 00:00:00 | 00:00:00 | |
| PU1XMG-16 | 2026-09-04 23:38:07 | -22.80694 | -43.24491 | 320° | 11km/h | 1431m | 6.6m/s | 19.1°C | 42.7% | 857.4hPa | 0V | 00:00:00 | 00:00:00 | 00:00:00 | |
| PU1XMG-16 | 2026-09-04 23:38:02 | -22.80710 | -43.24498 | 102° | 16km/h | 1405m | 3.8m/s | 19.2°C | 42.2% | 860.3hPa | 0V | 00:00:00 | 00:00:00 | 00:00:00 | |
| PU1XMG-16 | 2026-09-04 23:37:58 | -22.80719 | -43.24498 | 339° | 24km/h | 1376m | 7.9m/s | 19.4°C | 42.7% | 863.1hPa | 0V | 00:00:00 | 00:00:00 | 00:00:00 | |
| PU1XMG-16 | 2026-09-04 23:37:51 | -22.80720 | -43.24498 | 120° | 9km/h | 1343m | 5.6m/s | 19.7°C | 42.8% | 866.8hPa | 0V | 00:00:00 | 00:00:00 | 00:00:00 | |
| PU1XMG-16 | 2026-09-04 23:37:46 | -22.80721 | -43.24515 | 31° | 9km/h | 1316m | 5.5m/s | 19.9°C | 42.9% | 869.3hPa | 0V | 00:00:00 | 00:00:00 | 00:00:00 | |
| PU1XMG-16 | 2026-09-04 23:37:41 | -22.80744 | -43.24506 | 329° | 13km/h | 1287m | 5.2m/s | 20.1°C | 42.7% | 872.1hPa | 0V | 00:00:00 | 00:00:00 | 00:00:00 | |
| PU1XMG-16 | 2026-09-04 23:37:36 | -22.80740 | -43.24505 | 152° | 5km/h | 1256m | 4.3m/s | 20.1°C | 43.8% | 875.2hPa | 0V | 00:00:00 | 00:00:00 | 00:00:00 | |
| PU1XMG-16 | 2026-09-04 23:37:31 | -22.80745 | -43.24497 | 339° | 18km/h | 1231m | 4.7m/s | 20.2°C | 44.2% | 877.9hPa | 0V | 00:00:00 | 00:00:00 | 00:00:00 | |
| PU1XMG-16 | 2026-09-04 23:37:25 | -22.80780 | -43.24492 | 30° | 26km/h | 1202m | 6.1m/s | 20.4°C | 44.5% | 880.9hPa | 0V | 00:00:00 | 00:00:00 | 00:00:00 | |
| PU1XMG-16 | 2026-09-04 23:37:21 | -22.80784 | -43.24504 | 173° | 2km/h | 1173m | 7.0m/s | 20.4°C | 46.1% | 883.9hPa | 0V | 00:00:00 | 00:00:00 | 00:00:00 | |
| PU1XMG-16 | 2026-09-04 23:37:15 | -22.80789 | -43.24508 | 86° | 11km/h | 1141m | 6.6m/s | 20.4°C | 47.2% | 887.1hPa | 0V | 00:00:00 | 00:00:00 | 00:00:00 | |
| PU1XMG-16 | 2026-09-04 23:37:09 | -22.80798 | -43.24527 | 64° | 16km/h | 1107m | 5.5m/s | 20.8°C | 46.4% | 890.9hPa | 0V | 00:00:00 | 00:00:00 | 00:00:00 | |
| PU1XMG-16 | 2026-09-04 23:37:04 | -22.80804 | -43.24531 | 18° | 9km/h | 1074m | 7.7m/s | 21.0°C | 45.8% | 894.1hPa | 0V | 00:00:00 | 00:00:00 | 00:00:00 | |
| PU1XMG-16 | 2026-09-04 23:36:59 | -22.80821 | -43.24537 | 29° | 4km/h | 1045m | 6.8m/s | 21.3°C | 45.5% | 896.8hPa | 0V | 00:00:00 | 00:00:00 | 00:00:00 | |
| PU1XMG-16 | 2026-09-04 23:36:54 | -22.80828 | -43.24557 | 40° | 18km/h | 1014m | 3.6m/s | 21.5°C | 45.1% | 900.0hPa | 0V | 00:00:00 | 00:00:00 | 00:00:00 | |
| PU1XMG-16 | 2026-09-04 23:36:49 | -22.80837 | -43.24572 | 81° | 13km/h | 988m | 7.8m/s | 21.7°C | 44.6% | 903.1hPa | 0V | 00:00:00 | 00:00:00 | 00:00:00 | |
| PU1XMG-16 | 2026-09-04 23:36:43 | -22.80851 | -43.24584 | 5° | 18km/h | 944m | 7.7m/s | 22.1°C | 44.3% | 907.2hPa | 0V | 00:00:00 | 00:00:00 | 00:00:00 | |
| PU1XMG-16 | 2026-09-04 23:36:38 | -22.80860 | -43.24586 | 69° | 18km/h | 913m | 5.8m/s | 22.2°C | 45.5% | 910.5hPa | 0V | 00:00:00 | 00:00:00 | 00:00:00 | |
| PU1XMG-16 | 2026-09-04 23:36:32 | -22.80876 | -43.24606 | 46° | 24km/h | 876m | 7.1m/s | 0°C | 0% | 914.3hPa | 0V | 00:00:00 | 00:00:00 | 00:00:00 | |
| PU1XMG-16 | 2026-09-04 23:36:26 | -22.80901 | -43.24638 | 20° | 15km/h | 843m | 5.4m/s | 0°C | 0% | 918.1hPa | 0V | 00:00:00 | 00:00:00 | 00:00:00 | |
| PU1XMG-16 | 2026-09-04 23:36:21 | -22.80912 | -43.24633 | 21° | 18km/h | 814m | 5.4m/s | 0°C | 0% | 920.9hPa | 0V | 00:00:00 | 00:00:00 | 00:00:00 | |
| PU1XMG-16 | 2026-09-04 23:36:15 | -22.80919 | -43.24662 | 123° | 5km/h | 780m | 4.8m/s | 0°C | 0% | 0hPa | 0V | 00:00:00 | 00:00:00 | 00:00:00 | |
| PU1XMG-16 | 2026-09-04 23:36:10 | -22.80931 | -43.24657 | 354° | 16km/h | 753m | 5.5m/s | 0°C | 0% | 0hPa | 0V | 00:00:00 | 00:00:00 | 00:00:00 | |
| PU1XMG-16 | 2026-09-04 23:36:04 | -22.80944 | -43.24672 | 45° | 9km/h | 721m | 4.3m/s | 0°C | 0% | 0hPa | 0V | 00:00:00 | 00:00:00 | 00:00:00 | |
| PU1XMG-16 | 2026-09-04 23:35:59 | -22.80942 | -43.24681 | 60° | 5km/h | 691m | 5.8m/s | 0°C | 0% | 0hPa | 0V | 00:00:00 | 00:00:00 | 00:00:00 | |
| PU1XMG-16 | 2026-09-04 23:35:53 | -22.80933 | -43.24696 | 131° | 15km/h | 655m | 7.4m/s | 0°C | 0% | 0hPa | 0V | 00:00:00 | 00:00:00 | 00:00:00 | |
| PU1XMG-16 | 2026-09-04 23:35:47 | -22.80932 | -43.24708 | 104° | 7km/h | 617m | 7.5m/s | 0°C | 0% | 0hPa | 0V | 00:00:00 | 00:00:00 | 00:00:00 | |
| PU1XMG-16 | 2026-09-04 23:35:40 | -22.80929 | -43.24723 | 125° | 18km/h | 573m | 8.6m/s | 0°C | 0% | 0hPa | 0V | 00:00:00 | 00:00:00 | 00:00:00 | |
| PU1XMG-16 | 2026-09-04 23:35:30 | -22.80928 | -43.24763 | 53° | 18km/h | 523m | 5.4m/s | 0°C | 0% | 0hPa | 0V | 00:00:00 | 00:00:00 | 00:00:00 | |
| PU1XMG-16 | 2026-09-04 23:35:22 | -22.80933 | -43.24785 | 94° | 5km/h | 479m | 6.4m/s | 0°C | 0% | 0hPa | 0V | 00:00:00 | 00:00:00 | 00:00:00 | |
| PU1XMG-16 | 2026-09-04 23:35:11 | -22.80932 | -43.24814 | 130° | 16km/h | 419m | 3.4m/s | 0°C | 0% | 0hPa | 0V | 00:00:00 | 00:00:00 | 00:00:00 | |
| PU1XMG-16 | 2026-09-04 23:35:06 | -22.80934 | -43.24837 | 90° | 22km/h | 390m | 5.5m/s | 0°C | 0% | 0hPa | 0V | 00:00:00 | 00:00:00 | 00:00:00 | |
| PU1XMG-16 | 2026-09-04 23:34:59 | -22.80936 | -43.24865 | 43° | 15km/h | 350m | 8.9m/s | 0°C | 0% | 0hPa | 0V | 00:00:00 | 00:00:00 | 00:00:00 | |
| PU1XMG-16 | 2026-09-04 23:34:53 | -22.80951 | -43.24871 | 72° | 9km/h | 319m | 5.6m/s | 0°C | 0% | 0hPa | 0V | 00:00:00 | 00:00:00 | 00:00:00 |